<?xml version="1.0" encoding="UTF-8" standalone="no" ?>
<gpx xmlns="http://www.topografix.com/GPX/1/1" xmlns:xsi="http://www.w3.org/2001/XMLSchema-instance" xsi:schemaLocation="http://www.topografix.com/GPX/1/1 http://www.topografix.com/GPX/1/1/gpx.xsd" version="1.1" creator="VisuGPX - https://www.visugpx.com">
  <metadata>
    <name>2018-12-15 boucle autour de MONTECH (82)</name>
    <desc><![CDATA[
Boucle pédestre le long du canal latéral; du canal de Montech et dans la forêt de MONTECH
]]></desc>
  </metadata>
  <trk>
    <name><![CDATA[2018-12-15 MONTECH]]></name>
    <trkseg>
      <trkpt lat="43.9602" lon="1.23634">
        <ele>105.88</ele>
        <time>2018-12-15T08:15:03Z</time>
      </trkpt>
      <trkpt lat="43.96018" lon="1.23638">
        <ele>105.4</ele>
        <time>2018-12-15T08:15:19Z</time>
      </trkpt>
      <trkpt lat="43.96019" lon="1.23632">
        <ele>106.36</ele>
        <time>2018-12-15T08:15:39Z</time>
      </trkpt>
      <trkpt lat="43.96019" lon="1.23637">
        <ele>106.36</ele>
        <time>2018-12-15T08:16:02Z</time>
      </trkpt>
      <trkpt lat="43.96028" lon="1.23653">
        <ele>107.32</ele>
        <time>2018-12-15T08:21:37Z</time>
      </trkpt>
      <trkpt lat="43.96034" lon="1.23658">
        <ele>106.84</ele>
        <time>2018-12-15T08:21:46Z</time>
      </trkpt>
      <trkpt lat="43.96053" lon="1.23645">
        <ele>107.32</ele>
        <time>2018-12-15T08:22:05Z</time>
      </trkpt>
      <trkpt lat="43.9607" lon="1.23633">
        <ele>106.36</ele>
        <time>2018-12-15T08:22:22Z</time>
      </trkpt>
      <trkpt lat="43.96085" lon="1.23623">
        <ele>106.84</ele>
        <time>2018-12-15T08:22:37Z</time>
      </trkpt>
      <trkpt lat="43.96089" lon="1.23615">
        <ele>107.32</ele>
        <time>2018-12-15T08:22:44Z</time>
      </trkpt>
      <trkpt lat="43.96102" lon="1.23622">
        <ele>106.36</ele>
        <time>2018-12-15T08:23:00Z</time>
      </trkpt>
      <trkpt lat="43.9611" lon="1.23629">
        <ele>107.32</ele>
        <time>2018-12-15T08:23:13Z</time>
      </trkpt>
      <trkpt lat="43.96127" lon="1.23631">
        <ele>107.32</ele>
        <time>2018-12-15T08:23:30Z</time>
      </trkpt>
      <trkpt lat="43.96143" lon="1.23623">
        <ele>106.84</ele>
        <time>2018-12-15T08:23:47Z</time>
      </trkpt>
      <trkpt lat="43.96162" lon="1.23611">
        <ele>107.32</ele>
        <time>2018-12-15T08:24:06Z</time>
      </trkpt>
      <trkpt lat="43.96183" lon="1.23599">
        <ele>106.36</ele>
        <time>2018-12-15T08:24:26Z</time>
      </trkpt>
      <trkpt lat="43.96198" lon="1.23588">
        <ele>107.32</ele>
        <time>2018-12-15T08:24:42Z</time>
      </trkpt>
      <trkpt lat="43.96217" lon="1.23577">
        <ele>106.84</ele>
        <time>2018-12-15T08:25:01Z</time>
      </trkpt>
      <trkpt lat="43.96234" lon="1.23568">
        <ele>107.81</ele>
        <time>2018-12-15T08:25:19Z</time>
      </trkpt>
      <trkpt lat="43.96252" lon="1.23557">
        <ele>107.32</ele>
        <time>2018-12-15T08:25:37Z</time>
      </trkpt>
      <trkpt lat="43.96272" lon="1.23546">
        <ele>107.81</ele>
        <time>2018-12-15T08:25:56Z</time>
      </trkpt>
      <trkpt lat="43.96289" lon="1.23526">
        <ele>108.29</ele>
        <time>2018-12-15T08:26:14Z</time>
      </trkpt>
      <trkpt lat="43.96305" lon="1.23506">
        <ele>107.81</ele>
        <time>2018-12-15T08:26:33Z</time>
      </trkpt>
      <trkpt lat="43.96325" lon="1.23481">
        <ele>108.29</ele>
        <time>2018-12-15T08:26:57Z</time>
      </trkpt>
      <trkpt lat="43.96339" lon="1.23467">
        <ele>108.29</ele>
        <time>2018-12-15T08:27:13Z</time>
      </trkpt>
      <trkpt lat="43.96351" lon="1.23457">
        <ele>107.81</ele>
        <time>2018-12-15T08:27:29Z</time>
      </trkpt>
      <trkpt lat="43.96363" lon="1.23444">
        <ele>107.81</ele>
        <time>2018-12-15T08:27:45Z</time>
      </trkpt>
      <trkpt lat="43.96382" lon="1.23424">
        <ele>107.32</ele>
        <time>2018-12-15T08:28:07Z</time>
      </trkpt>
      <trkpt lat="43.96396" lon="1.23404">
        <ele>106.84</ele>
        <time>2018-12-15T08:28:23Z</time>
      </trkpt>
      <trkpt lat="43.96411" lon="1.23381">
        <ele>108.77</ele>
        <time>2018-12-15T08:28:42Z</time>
      </trkpt>
      <trkpt lat="43.9642" lon="1.23367">
        <ele>109.73</ele>
        <time>2018-12-15T08:28:58Z</time>
      </trkpt>
      <trkpt lat="43.96433" lon="1.23354">
        <ele>108.77</ele>
        <time>2018-12-15T08:29:15Z</time>
      </trkpt>
      <trkpt lat="43.96446" lon="1.23342">
        <ele>106.84</ele>
        <time>2018-12-15T08:29:31Z</time>
      </trkpt>
      <trkpt lat="43.96458" lon="1.23332">
        <ele>107.32</ele>
        <time>2018-12-15T08:29:45Z</time>
      </trkpt>
      <trkpt lat="43.96478" lon="1.23307">
        <ele>107.32</ele>
        <time>2018-12-15T08:30:07Z</time>
      </trkpt>
      <trkpt lat="43.96492" lon="1.23288">
        <ele>107.32</ele>
        <time>2018-12-15T08:30:24Z</time>
      </trkpt>
      <trkpt lat="43.96505" lon="1.23272">
        <ele>106.84</ele>
        <time>2018-12-15T08:30:39Z</time>
      </trkpt>
      <trkpt lat="43.96521" lon="1.23252">
        <ele>105.88</ele>
        <time>2018-12-15T08:30:59Z</time>
      </trkpt>
      <trkpt lat="43.96534" lon="1.23233">
        <ele>106.36</ele>
        <time>2018-12-15T08:31:16Z</time>
      </trkpt>
      <trkpt lat="43.96546" lon="1.23219">
        <ele>106.84</ele>
        <time>2018-12-15T08:31:31Z</time>
      </trkpt>
      <trkpt lat="43.96561" lon="1.23205">
        <ele>106.84</ele>
        <time>2018-12-15T08:31:48Z</time>
      </trkpt>
      <trkpt lat="43.96577" lon="1.23184">
        <ele>106.84</ele>
        <time>2018-12-15T08:32:09Z</time>
      </trkpt>
      <trkpt lat="43.96578" lon="1.23183">
        <ele>106.84</ele>
        <time>2018-12-15T08:32:10Z</time>
      </trkpt>
      <trkpt lat="43.96592" lon="1.23166">
        <ele>106.36</ele>
        <time>2018-12-15T08:32:26Z</time>
      </trkpt>
      <trkpt lat="43.96605" lon="1.2315">
        <ele>106.36</ele>
        <time>2018-12-15T08:32:42Z</time>
      </trkpt>
      <trkpt lat="43.96616" lon="1.23135">
        <ele>106.84</ele>
        <time>2018-12-15T08:32:57Z</time>
      </trkpt>
      <trkpt lat="43.96627" lon="1.23122">
        <ele>107.32</ele>
        <time>2018-12-15T08:33:11Z</time>
      </trkpt>
      <trkpt lat="43.96634" lon="1.23114">
        <ele>107.32</ele>
        <time>2018-12-15T08:33:20Z</time>
      </trkpt>
      <trkpt lat="43.96651" lon="1.23093">
        <ele>106.36</ele>
        <time>2018-12-15T08:33:39Z</time>
      </trkpt>
      <trkpt lat="43.96655" lon="1.2309">
        <ele>106.36</ele>
        <time>2018-12-15T08:33:43Z</time>
      </trkpt>
      <trkpt lat="43.96668" lon="1.23074">
        <ele>106.84</ele>
        <time>2018-12-15T08:34:00Z</time>
      </trkpt>
      <trkpt lat="43.96684" lon="1.23057">
        <ele>106.36</ele>
        <time>2018-12-15T08:34:19Z</time>
      </trkpt>
      <trkpt lat="43.96696" lon="1.23042">
        <ele>106.36</ele>
        <time>2018-12-15T08:34:34Z</time>
      </trkpt>
      <trkpt lat="43.9671" lon="1.23024">
        <ele>106.36</ele>
        <time>2018-12-15T08:34:51Z</time>
      </trkpt>
      <trkpt lat="43.96725" lon="1.23005">
        <ele>106.84</ele>
        <time>2018-12-15T08:35:09Z</time>
      </trkpt>
      <trkpt lat="43.96742" lon="1.22985">
        <ele>106.36</ele>
        <time>2018-12-15T08:35:28Z</time>
      </trkpt>
      <trkpt lat="43.96754" lon="1.22969">
        <ele>106.36</ele>
        <time>2018-12-15T08:35:45Z</time>
      </trkpt>
      <trkpt lat="43.96767" lon="1.22953">
        <ele>105.88</ele>
        <time>2018-12-15T08:36:02Z</time>
      </trkpt>
      <trkpt lat="43.96779" lon="1.22939">
        <ele>106.36</ele>
        <time>2018-12-15T08:36:17Z</time>
      </trkpt>
      <trkpt lat="43.96791" lon="1.22927">
        <ele>105.88</ele>
        <time>2018-12-15T08:36:31Z</time>
      </trkpt>
      <trkpt lat="43.96803" lon="1.22913">
        <ele>105.4</ele>
        <time>2018-12-15T08:36:46Z</time>
      </trkpt>
      <trkpt lat="43.96818" lon="1.22898">
        <ele>104.44</ele>
        <time>2018-12-15T08:37:03Z</time>
      </trkpt>
      <trkpt lat="43.9683" lon="1.22884">
        <ele>104.44</ele>
        <time>2018-12-15T08:37:17Z</time>
      </trkpt>
      <trkpt lat="43.96842" lon="1.22867">
        <ele>104.92</ele>
        <time>2018-12-15T08:37:32Z</time>
      </trkpt>
      <trkpt lat="43.96855" lon="1.22851">
        <ele>104.92</ele>
        <time>2018-12-15T08:37:47Z</time>
      </trkpt>
      <trkpt lat="43.9687" lon="1.22832">
        <ele>106.84</ele>
        <time>2018-12-15T08:38:05Z</time>
      </trkpt>
      <trkpt lat="43.96876" lon="1.22823">
        <ele>104.92</ele>
        <time>2018-12-15T08:38:19Z</time>
      </trkpt>
      <trkpt lat="43.96879" lon="1.22818">
        <ele>103.96</ele>
        <time>2018-12-15T08:38:25Z</time>
      </trkpt>
      <trkpt lat="43.96893" lon="1.22804">
        <ele>102.52</ele>
        <time>2018-12-15T08:38:43Z</time>
      </trkpt>
      <trkpt lat="43.96906" lon="1.22792">
        <ele>102.04</ele>
        <time>2018-12-15T08:38:58Z</time>
      </trkpt>
      <trkpt lat="43.96919" lon="1.22774">
        <ele>102.04</ele>
        <time>2018-12-15T08:39:15Z</time>
      </trkpt>
      <trkpt lat="43.96934" lon="1.22757">
        <ele>101.56</ele>
        <time>2018-12-15T08:39:32Z</time>
      </trkpt>
      <trkpt lat="43.96948" lon="1.22739">
        <ele>101.56</ele>
        <time>2018-12-15T08:39:50Z</time>
      </trkpt>
      <trkpt lat="43.9696" lon="1.22724">
        <ele>102.52</ele>
        <time>2018-12-15T08:40:05Z</time>
      </trkpt>
      <trkpt lat="43.96976" lon="1.22707">
        <ele>102.04</ele>
        <time>2018-12-15T08:40:23Z</time>
      </trkpt>
      <trkpt lat="43.96988" lon="1.22693">
        <ele>102.04</ele>
        <time>2018-12-15T08:40:39Z</time>
      </trkpt>
      <trkpt lat="43.97002" lon="1.22678">
        <ele>102.04</ele>
        <time>2018-12-15T08:40:56Z</time>
      </trkpt>
      <trkpt lat="43.97013" lon="1.22664">
        <ele>102.04</ele>
        <time>2018-12-15T08:41:12Z</time>
      </trkpt>
      <trkpt lat="43.97026" lon="1.2265">
        <ele>102.04</ele>
        <time>2018-12-15T08:41:28Z</time>
      </trkpt>
      <trkpt lat="43.97036" lon="1.22639">
        <ele>101.56</ele>
        <time>2018-12-15T08:41:41Z</time>
      </trkpt>
      <trkpt lat="43.97039" lon="1.22635">
        <ele>102.04</ele>
        <time>2018-12-15T08:41:45Z</time>
      </trkpt>
      <trkpt lat="43.9704" lon="1.22633">
        <ele>102.04</ele>
        <time>2018-12-15T08:41:48Z</time>
      </trkpt>
      <trkpt lat="43.97053" lon="1.22617">
        <ele>102.04</ele>
        <time>2018-12-15T08:42:05Z</time>
      </trkpt>
      <trkpt lat="43.97068" lon="1.22599">
        <ele>101.56</ele>
        <time>2018-12-15T08:42:24Z</time>
      </trkpt>
      <trkpt lat="43.97079" lon="1.22576">
        <ele>102.52</ele>
        <time>2018-12-15T08:42:39Z</time>
      </trkpt>
      <trkpt lat="43.97083" lon="1.22573">
        <ele>102.52</ele>
        <time>2018-12-15T08:42:43Z</time>
      </trkpt>
      <trkpt lat="43.97086" lon="1.2257">
        <ele>102.52</ele>
        <time>2018-12-15T08:42:47Z</time>
      </trkpt>
      <trkpt lat="43.97096" lon="1.22556">
        <ele>103</ele>
        <time>2018-12-15T08:43:02Z</time>
      </trkpt>
      <trkpt lat="43.97098" lon="1.22555">
        <ele>103</ele>
        <time>2018-12-15T08:43:04Z</time>
      </trkpt>
      <trkpt lat="43.97105" lon="1.22546">
        <ele>102.52</ele>
        <time>2018-12-15T08:43:17Z</time>
      </trkpt>
      <trkpt lat="43.97112" lon="1.22538">
        <ele>102.52</ele>
        <time>2018-12-15T08:43:31Z</time>
      </trkpt>
      <trkpt lat="43.97119" lon="1.22538">
        <ele>102.04</ele>
        <time>2018-12-15T08:43:47Z</time>
      </trkpt>
      <trkpt lat="43.97127" lon="1.22532">
        <ele>102.04</ele>
        <time>2018-12-15T08:44:04Z</time>
      </trkpt>
      <trkpt lat="43.97135" lon="1.2252">
        <ele>102.52</ele>
        <time>2018-12-15T08:44:21Z</time>
      </trkpt>
      <trkpt lat="43.97141" lon="1.22531">
        <ele>102.52</ele>
        <time>2018-12-15T08:46:30Z</time>
      </trkpt>
      <trkpt lat="43.97144" lon="1.22533">
        <ele>103.48</ele>
        <time>2018-12-15T08:47:50Z</time>
      </trkpt>
      <trkpt lat="43.97148" lon="1.22539">
        <ele>103.48</ele>
        <time>2018-12-15T08:48:04Z</time>
      </trkpt>
      <trkpt lat="43.97146" lon="1.22544">
        <ele>103.48</ele>
        <time>2018-12-15T08:48:19Z</time>
      </trkpt>
      <trkpt lat="43.97158" lon="1.22527">
        <ele>102.52</ele>
        <time>2018-12-15T08:48:34Z</time>
      </trkpt>
      <trkpt lat="43.97169" lon="1.22511">
        <ele>102.04</ele>
        <time>2018-12-15T08:48:49Z</time>
      </trkpt>
      <trkpt lat="43.97185" lon="1.22494">
        <ele>102.04</ele>
        <time>2018-12-15T08:49:09Z</time>
      </trkpt>
      <trkpt lat="43.97194" lon="1.22485">
        <ele>102.04</ele>
        <time>2018-12-15T08:49:20Z</time>
      </trkpt>
      <trkpt lat="43.97205" lon="1.22472">
        <ele>102.52</ele>
        <time>2018-12-15T08:49:35Z</time>
      </trkpt>
      <trkpt lat="43.97207" lon="1.22468">
        <ele>102.52</ele>
        <time>2018-12-15T08:49:42Z</time>
      </trkpt>
      <trkpt lat="43.9722" lon="1.22451">
        <ele>102.04</ele>
        <time>2018-12-15T08:49:59Z</time>
      </trkpt>
      <trkpt lat="43.97235" lon="1.22455">
        <ele>101.08</ele>
        <time>2018-12-15T08:50:17Z</time>
      </trkpt>
      <trkpt lat="43.97238" lon="1.22458">
        <ele>101.08</ele>
        <time>2018-12-15T08:50:21Z</time>
      </trkpt>
      <trkpt lat="43.97247" lon="1.22465">
        <ele>101.08</ele>
        <time>2018-12-15T08:50:40Z</time>
      </trkpt>
      <trkpt lat="43.97248" lon="1.22468">
        <ele>100.6</ele>
        <time>2018-12-15T08:50:59Z</time>
      </trkpt>
      <trkpt lat="43.97252" lon="1.22475">
        <ele>100.11</ele>
        <time>2018-12-15T08:51:45Z</time>
      </trkpt>
      <trkpt lat="43.97261" lon="1.22492">
        <ele>98.67</ele>
        <time>2018-12-15T08:53:35Z</time>
      </trkpt>
      <trkpt lat="43.97269" lon="1.22496">
        <ele>98.67</ele>
        <time>2018-12-15T08:53:52Z</time>
      </trkpt>
      <trkpt lat="43.97272" lon="1.22506">
        <ele>98.67</ele>
        <time>2018-12-15T08:54:07Z</time>
      </trkpt>
      <trkpt lat="43.97268" lon="1.22533">
        <ele>98.67</ele>
        <time>2018-12-15T08:55:41Z</time>
      </trkpt>
      <trkpt lat="43.97264" lon="1.22535">
        <ele>98.19</ele>
        <time>2018-12-15T08:55:54Z</time>
      </trkpt>
      <trkpt lat="43.97262" lon="1.22537">
        <ele>98.19</ele>
        <time>2018-12-15T08:56:24Z</time>
      </trkpt>
      <trkpt lat="43.97259" lon="1.22541">
        <ele>98.67</ele>
        <time>2018-12-15T08:56:41Z</time>
      </trkpt>
      <trkpt lat="43.97251" lon="1.22548">
        <ele>99.15</ele>
        <time>2018-12-15T08:56:57Z</time>
      </trkpt>
      <trkpt lat="43.97243" lon="1.22554">
        <ele>98.67</ele>
        <time>2018-12-15T08:57:11Z</time>
      </trkpt>
      <trkpt lat="43.97232" lon="1.22564">
        <ele>99.15</ele>
        <time>2018-12-15T08:57:25Z</time>
      </trkpt>
      <trkpt lat="43.9721" lon="1.22579">
        <ele>99.15</ele>
        <time>2018-12-15T08:58:07Z</time>
      </trkpt>
      <trkpt lat="43.97204" lon="1.22584">
        <ele>99.15</ele>
        <time>2018-12-15T08:58:24Z</time>
      </trkpt>
      <trkpt lat="43.97201" lon="1.22591">
        <ele>101.56</ele>
        <time>2018-12-15T09:00:00Z</time>
      </trkpt>
      <trkpt lat="43.97201" lon="1.2259">
        <ele>98.19</ele>
        <time>2018-12-15T09:00:01Z</time>
      </trkpt>
      <trkpt lat="43.97186" lon="1.22605">
        <ele>98.67</ele>
        <time>2018-12-15T09:00:16Z</time>
      </trkpt>
      <trkpt lat="43.97176" lon="1.22614">
        <ele>99.15</ele>
        <time>2018-12-15T09:00:29Z</time>
      </trkpt>
      <trkpt lat="43.97161" lon="1.2263">
        <ele>99.63</ele>
        <time>2018-12-15T09:00:44Z</time>
      </trkpt>
      <trkpt lat="43.97146" lon="1.22645">
        <ele>99.63</ele>
        <time>2018-12-15T09:01:01Z</time>
      </trkpt>
      <trkpt lat="43.97131" lon="1.22659">
        <ele>100.11</ele>
        <time>2018-12-15T09:01:17Z</time>
      </trkpt>
      <trkpt lat="43.97115" lon="1.22676">
        <ele>100.11</ele>
        <time>2018-12-15T09:01:33Z</time>
      </trkpt>
      <trkpt lat="43.97097" lon="1.22686">
        <ele>100.11</ele>
        <time>2018-12-15T09:01:50Z</time>
      </trkpt>
      <trkpt lat="43.97079" lon="1.22708">
        <ele>100.6</ele>
        <time>2018-12-15T09:02:08Z</time>
      </trkpt>
      <trkpt lat="43.97067" lon="1.22719">
        <ele>95.79</ele>
        <time>2018-12-15T09:02:21Z</time>
      </trkpt>
      <trkpt lat="43.9706" lon="1.22728">
        <ele>102.04</ele>
        <time>2018-12-15T09:02:42Z</time>
      </trkpt>
      <trkpt lat="43.97043" lon="1.22748">
        <ele>103</ele>
        <time>2018-12-15T09:02:59Z</time>
      </trkpt>
      <trkpt lat="43.97034" lon="1.22754">
        <ele>103.48</ele>
        <time>2018-12-15T09:03:10Z</time>
      </trkpt>
      <trkpt lat="43.97018" lon="1.22771">
        <ele>103.48</ele>
        <time>2018-12-15T09:03:26Z</time>
      </trkpt>
      <trkpt lat="43.97007" lon="1.22782">
        <ele>104.44</ele>
        <time>2018-12-15T09:03:41Z</time>
      </trkpt>
      <trkpt lat="43.9699" lon="1.22802">
        <ele>104.92</ele>
        <time>2018-12-15T09:03:59Z</time>
      </trkpt>
      <trkpt lat="43.9697" lon="1.22824">
        <ele>105.88</ele>
        <time>2018-12-15T09:04:20Z</time>
      </trkpt>
      <trkpt lat="43.96956" lon="1.22839">
        <ele>106.84</ele>
        <time>2018-12-15T09:04:37Z</time>
      </trkpt>
      <trkpt lat="43.9694" lon="1.22855">
        <ele>106.84</ele>
        <time>2018-12-15T09:04:54Z</time>
      </trkpt>
      <trkpt lat="43.96924" lon="1.22873">
        <ele>107.81</ele>
        <time>2018-12-15T09:05:12Z</time>
      </trkpt>
      <trkpt lat="43.96911" lon="1.22889">
        <ele>108.77</ele>
        <time>2018-12-15T09:05:28Z</time>
      </trkpt>
      <trkpt lat="43.96902" lon="1.22896">
        <ele>111.17</ele>
        <time>2018-12-15T09:06:02Z</time>
      </trkpt>
      <trkpt lat="43.96896" lon="1.22891">
        <ele>109.73</ele>
        <time>2018-12-15T09:06:16Z</time>
      </trkpt>
      <trkpt lat="43.96893" lon="1.22883">
        <ele>108.29</ele>
        <time>2018-12-15T09:06:31Z</time>
      </trkpt>
      <trkpt lat="43.96892" lon="1.22881">
        <ele>106.84</ele>
        <time>2018-12-15T09:06:34Z</time>
      </trkpt>
      <trkpt lat="43.9689" lon="1.22877">
        <ele>105.88</ele>
        <time>2018-12-15T09:06:42Z</time>
      </trkpt>
      <trkpt lat="43.9689" lon="1.22872">
        <ele>104.92</ele>
        <time>2018-12-15T09:06:45Z</time>
      </trkpt>
      <trkpt lat="43.96877" lon="1.22864">
        <ele>104.44</ele>
        <time>2018-12-15T09:07:01Z</time>
      </trkpt>
      <trkpt lat="43.9687" lon="1.2287">
        <ele>103.96</ele>
        <time>2018-12-15T09:07:09Z</time>
      </trkpt>
      <trkpt lat="43.96856" lon="1.22886">
        <ele>104.44</ele>
        <time>2018-12-15T09:07:26Z</time>
      </trkpt>
      <trkpt lat="43.96843" lon="1.22906">
        <ele>104.44</ele>
        <time>2018-12-15T09:07:42Z</time>
      </trkpt>
      <trkpt lat="43.96838" lon="1.22912">
        <ele>104.92</ele>
        <time>2018-12-15T09:07:47Z</time>
      </trkpt>
      <trkpt lat="43.96821" lon="1.22932">
        <ele>104.92</ele>
        <time>2018-12-15T09:08:07Z</time>
      </trkpt>
      <trkpt lat="43.96809" lon="1.22946">
        <ele>105.4</ele>
        <time>2018-12-15T09:08:22Z</time>
      </trkpt>
      <trkpt lat="43.96797" lon="1.22961">
        <ele>105.4</ele>
        <time>2018-12-15T09:08:37Z</time>
      </trkpt>
      <trkpt lat="43.96783" lon="1.22977">
        <ele>104.92</ele>
        <time>2018-12-15T09:08:53Z</time>
      </trkpt>
      <trkpt lat="43.96776" lon="1.22985">
        <ele>105.4</ele>
        <time>2018-12-15T09:09:02Z</time>
      </trkpt>
      <trkpt lat="43.9676" lon="1.23005">
        <ele>105.4</ele>
        <time>2018-12-15T09:09:19Z</time>
      </trkpt>
      <trkpt lat="43.96745" lon="1.23022">
        <ele>105.4</ele>
        <time>2018-12-15T09:09:36Z</time>
      </trkpt>
      <trkpt lat="43.96733" lon="1.23036">
        <ele>105.88</ele>
        <time>2018-12-15T09:09:51Z</time>
      </trkpt>
      <trkpt lat="43.96721" lon="1.2305">
        <ele>105.4</ele>
        <time>2018-12-15T09:10:05Z</time>
      </trkpt>
      <trkpt lat="43.96706" lon="1.23067">
        <ele>105.4</ele>
        <time>2018-12-15T09:10:23Z</time>
      </trkpt>
      <trkpt lat="43.96694" lon="1.23084">
        <ele>104.92</ele>
        <time>2018-12-15T09:10:38Z</time>
      </trkpt>
      <trkpt lat="43.96679" lon="1.23102">
        <ele>105.4</ele>
        <time>2018-12-15T09:10:55Z</time>
      </trkpt>
      <trkpt lat="43.96663" lon="1.23118">
        <ele>104.92</ele>
        <time>2018-12-15T09:11:13Z</time>
      </trkpt>
      <trkpt lat="43.96647" lon="1.23136">
        <ele>104.92</ele>
        <time>2018-12-15T09:11:31Z</time>
      </trkpt>
      <trkpt lat="43.96637" lon="1.23148">
        <ele>105.4</ele>
        <time>2018-12-15T09:11:42Z</time>
      </trkpt>
      <trkpt lat="43.96633" lon="1.23153">
        <ele>104.92</ele>
        <time>2018-12-15T09:11:47Z</time>
      </trkpt>
      <trkpt lat="43.96628" lon="1.23161">
        <ele>104.92</ele>
        <time>2018-12-15T09:11:54Z</time>
      </trkpt>
      <trkpt lat="43.96612" lon="1.23178">
        <ele>104.92</ele>
        <time>2018-12-15T09:12:12Z</time>
      </trkpt>
      <trkpt lat="43.966" lon="1.23195">
        <ele>104.92</ele>
        <time>2018-12-15T09:12:27Z</time>
      </trkpt>
      <trkpt lat="43.96589" lon="1.2321">
        <ele>104.92</ele>
        <time>2018-12-15T09:12:43Z</time>
      </trkpt>
      <trkpt lat="43.96574" lon="1.23226">
        <ele>104.44</ele>
        <time>2018-12-15T09:12:59Z</time>
      </trkpt>
      <trkpt lat="43.9656" lon="1.23242">
        <ele>104.92</ele>
        <time>2018-12-15T09:13:15Z</time>
      </trkpt>
      <trkpt lat="43.96548" lon="1.23256">
        <ele>104.92</ele>
        <time>2018-12-15T09:13:30Z</time>
      </trkpt>
      <trkpt lat="43.96533" lon="1.23274">
        <ele>104.44</ele>
        <time>2018-12-15T09:13:48Z</time>
      </trkpt>
      <trkpt lat="43.9652" lon="1.2329">
        <ele>104.92</ele>
        <time>2018-12-15T09:14:04Z</time>
      </trkpt>
      <trkpt lat="43.96508" lon="1.23306">
        <ele>104.44</ele>
        <time>2018-12-15T09:14:20Z</time>
      </trkpt>
      <trkpt lat="43.96494" lon="1.23322">
        <ele>104.44</ele>
        <time>2018-12-15T09:14:37Z</time>
      </trkpt>
      <trkpt lat="43.96479" lon="1.23339">
        <ele>104.44</ele>
        <time>2018-12-15T09:14:54Z</time>
      </trkpt>
      <trkpt lat="43.96464" lon="1.23356">
        <ele>103.96</ele>
        <time>2018-12-15T09:15:12Z</time>
      </trkpt>
      <trkpt lat="43.96455" lon="1.23367">
        <ele>103.48</ele>
        <time>2018-12-15T09:15:27Z</time>
      </trkpt>
      <trkpt lat="43.96443" lon="1.23384">
        <ele>103.96</ele>
        <time>2018-12-15T09:15:44Z</time>
      </trkpt>
      <trkpt lat="43.96429" lon="1.234">
        <ele>103</ele>
        <time>2018-12-15T09:16:00Z</time>
      </trkpt>
      <trkpt lat="43.96415" lon="1.23416">
        <ele>103</ele>
        <time>2018-12-15T09:16:18Z</time>
      </trkpt>
      <trkpt lat="43.96403" lon="1.23431">
        <ele>102.52</ele>
        <time>2018-12-15T09:16:33Z</time>
      </trkpt>
      <trkpt lat="43.96386" lon="1.2345">
        <ele>103</ele>
        <time>2018-12-15T09:16:53Z</time>
      </trkpt>
      <trkpt lat="43.96371" lon="1.23465">
        <ele>103.96</ele>
        <time>2018-12-15T09:17:10Z</time>
      </trkpt>
      <trkpt lat="43.96357" lon="1.23472">
        <ele>103.96</ele>
        <time>2018-12-15T09:17:26Z</time>
      </trkpt>
      <trkpt lat="43.96352" lon="1.23478">
        <ele>103.96</ele>
        <time>2018-12-15T09:17:41Z</time>
      </trkpt>
      <trkpt lat="43.96344" lon="1.2348">
        <ele>104.44</ele>
        <time>2018-12-15T09:17:59Z</time>
      </trkpt>
      <trkpt lat="43.96338" lon="1.23474">
        <ele>104.44</ele>
        <time>2018-12-15T09:18:12Z</time>
      </trkpt>
      <trkpt lat="43.96323" lon="1.2348">
        <ele>104.44</ele>
        <time>2018-12-15T09:18:29Z</time>
      </trkpt>
      <trkpt lat="43.96307" lon="1.23502">
        <ele>104.44</ele>
        <time>2018-12-15T09:18:49Z</time>
      </trkpt>
      <trkpt lat="43.96294" lon="1.23517">
        <ele>104.44</ele>
        <time>2018-12-15T09:19:06Z</time>
      </trkpt>
      <trkpt lat="43.9628" lon="1.23533">
        <ele>104.44</ele>
        <time>2018-12-15T09:19:22Z</time>
      </trkpt>
      <trkpt lat="43.96272" lon="1.23542">
        <ele>104.44</ele>
        <time>2018-12-15T09:19:37Z</time>
      </trkpt>
      <trkpt lat="43.96265" lon="1.23547">
        <ele>104.44</ele>
        <time>2018-12-15T09:19:49Z</time>
      </trkpt>
      <trkpt lat="43.96247" lon="1.23559">
        <ele>104.92</ele>
        <time>2018-12-15T09:20:06Z</time>
      </trkpt>
      <trkpt lat="43.96233" lon="1.23567">
        <ele>104.44</ele>
        <time>2018-12-15T09:20:20Z</time>
      </trkpt>
      <trkpt lat="43.9623" lon="1.23569">
        <ele>103.96</ele>
        <time>2018-12-15T09:20:23Z</time>
      </trkpt>
      <trkpt lat="43.96212" lon="1.23581">
        <ele>104.44</ele>
        <time>2018-12-15T09:20:41Z</time>
      </trkpt>
      <trkpt lat="43.96193" lon="1.23592">
        <ele>104.92</ele>
        <time>2018-12-15T09:21:00Z</time>
      </trkpt>
      <trkpt lat="43.96176" lon="1.23603">
        <ele>104.92</ele>
        <time>2018-12-15T09:21:16Z</time>
      </trkpt>
      <trkpt lat="43.96163" lon="1.2361">
        <ele>104.44</ele>
        <time>2018-12-15T09:21:31Z</time>
      </trkpt>
      <trkpt lat="43.96146" lon="1.23622">
        <ele>104.92</ele>
        <time>2018-12-15T09:21:48Z</time>
      </trkpt>
      <trkpt lat="43.96127" lon="1.23628">
        <ele>104.92</ele>
        <time>2018-12-15T09:22:05Z</time>
      </trkpt>
      <trkpt lat="43.96125" lon="1.23629">
        <ele>104.44</ele>
        <time>2018-12-15T09:22:07Z</time>
      </trkpt>
      <trkpt lat="43.96107" lon="1.2362">
        <ele>104.44</ele>
        <time>2018-12-15T09:22:25Z</time>
      </trkpt>
      <trkpt lat="43.96092" lon="1.23615">
        <ele>104.44</ele>
        <time>2018-12-15T09:22:41Z</time>
      </trkpt>
      <trkpt lat="43.96086" lon="1.23618">
        <ele>104.44</ele>
        <time>2018-12-15T09:22:54Z</time>
      </trkpt>
      <trkpt lat="43.96081" lon="1.23623">
        <ele>104.44</ele>
        <time>2018-12-15T09:23:00Z</time>
      </trkpt>
      <trkpt lat="43.96065" lon="1.23634">
        <ele>104.44</ele>
        <time>2018-12-15T09:23:17Z</time>
      </trkpt>
      <trkpt lat="43.9605" lon="1.23642">
        <ele>104.44</ele>
        <time>2018-12-15T09:23:32Z</time>
      </trkpt>
      <trkpt lat="43.96035" lon="1.23651">
        <ele>103.48</ele>
        <time>2018-12-15T09:23:48Z</time>
      </trkpt>
      <trkpt lat="43.96022" lon="1.2366">
        <ele>103.96</ele>
        <time>2018-12-15T09:24:02Z</time>
      </trkpt>
      <trkpt lat="43.96007" lon="1.23669">
        <ele>103.48</ele>
        <time>2018-12-15T09:24:18Z</time>
      </trkpt>
      <trkpt lat="43.95995" lon="1.23681">
        <ele>103.48</ele>
        <time>2018-12-15T09:24:33Z</time>
      </trkpt>
      <trkpt lat="43.95993" lon="1.23686">
        <ele>103</ele>
        <time>2018-12-15T09:24:37Z</time>
      </trkpt>
      <trkpt lat="43.95983" lon="1.23709">
        <ele>103</ele>
        <time>2018-12-15T09:24:56Z</time>
      </trkpt>
      <trkpt lat="43.95975" lon="1.23715">
        <ele>104.44</ele>
        <time>2018-12-15T09:25:12Z</time>
      </trkpt>
      <trkpt lat="43.95971" lon="1.23724">
        <ele>106.84</ele>
        <time>2018-12-15T09:25:28Z</time>
      </trkpt>
      <trkpt lat="43.95974" lon="1.23733">
        <ele>106.84</ele>
        <time>2018-12-15T09:25:36Z</time>
      </trkpt>
      <trkpt lat="43.9598" lon="1.23759">
        <ele>106.84</ele>
        <time>2018-12-15T09:25:54Z</time>
      </trkpt>
      <trkpt lat="43.96025" lon="1.23738">
        <ele>102.04</ele>
        <time>2018-12-15T09:26:50Z</time>
      </trkpt>
      <trkpt lat="43.96042" lon="1.23726">
        <ele>102.52</ele>
        <time>2018-12-15T09:27:07Z</time>
      </trkpt>
      <trkpt lat="43.96058" lon="1.23721">
        <ele>103</ele>
        <time>2018-12-15T09:27:25Z</time>
      </trkpt>
      <trkpt lat="43.96058" lon="1.23721">
        <ele>102.52</ele>
        <time>2018-12-15T09:27:50Z</time>
      </trkpt>
      <trkpt lat="43.96057" lon="1.23719">
        <ele>103</ele>
        <time>2018-12-15T09:28:17Z</time>
      </trkpt>
      <trkpt lat="43.96055" lon="1.23718">
        <ele>103</ele>
        <time>2018-12-15T09:28:42Z</time>
      </trkpt>
      <trkpt lat="43.96055" lon="1.23717">
        <ele>103</ele>
        <time>2018-12-15T09:29:13Z</time>
      </trkpt>
      <trkpt lat="43.96055" lon="1.23718">
        <ele>102.52</ele>
        <time>2018-12-15T09:29:39Z</time>
      </trkpt>
      <trkpt lat="43.96056" lon="1.23718">
        <ele>103</ele>
        <time>2018-12-15T09:30:09Z</time>
      </trkpt>
      <trkpt lat="43.96052" lon="1.23717">
        <ele>102.52</ele>
        <time>2018-12-15T09:30:34Z</time>
      </trkpt>
      <trkpt lat="43.96058" lon="1.23717">
        <ele>103</ele>
        <time>2018-12-15T09:30:55Z</time>
      </trkpt>
      <trkpt lat="43.96064" lon="1.23715">
        <ele>103</ele>
        <time>2018-12-15T09:31:11Z</time>
      </trkpt>
      <trkpt lat="43.96077" lon="1.23706">
        <ele>103</ele>
        <time>2018-12-15T09:31:27Z</time>
      </trkpt>
      <trkpt lat="43.96093" lon="1.23697">
        <ele>102.52</ele>
        <time>2018-12-15T09:31:45Z</time>
      </trkpt>
      <trkpt lat="43.96108" lon="1.23688">
        <ele>103</ele>
        <time>2018-12-15T09:32:02Z</time>
      </trkpt>
      <trkpt lat="43.96125" lon="1.23678">
        <ele>103</ele>
        <time>2018-12-15T09:32:21Z</time>
      </trkpt>
      <trkpt lat="43.96143" lon="1.23667">
        <ele>103</ele>
        <time>2018-12-15T09:32:40Z</time>
      </trkpt>
      <trkpt lat="43.96158" lon="1.23657">
        <ele>103</ele>
        <time>2018-12-15T09:32:54Z</time>
      </trkpt>
      <trkpt lat="43.96174" lon="1.23649">
        <ele>102.52</ele>
        <time>2018-12-15T09:33:09Z</time>
      </trkpt>
      <trkpt lat="43.96191" lon="1.23639">
        <ele>103</ele>
        <time>2018-12-15T09:33:27Z</time>
      </trkpt>
      <trkpt lat="43.96204" lon="1.23629">
        <ele>102.52</ele>
        <time>2018-12-15T09:33:42Z</time>
      </trkpt>
      <trkpt lat="43.9622" lon="1.23619">
        <ele>102.52</ele>
        <time>2018-12-15T09:33:57Z</time>
      </trkpt>
      <trkpt lat="43.96236" lon="1.23609">
        <ele>103</ele>
        <time>2018-12-15T09:34:14Z</time>
      </trkpt>
      <trkpt lat="43.96254" lon="1.23599">
        <ele>102.52</ele>
        <time>2018-12-15T09:34:32Z</time>
      </trkpt>
      <trkpt lat="43.96265" lon="1.23598">
        <ele>102.52</ele>
        <time>2018-12-15T09:34:45Z</time>
      </trkpt>
      <trkpt lat="43.96274" lon="1.23602">
        <ele>103</ele>
        <time>2018-12-15T09:34:53Z</time>
      </trkpt>
      <trkpt lat="43.96296" lon="1.23609">
        <ele>102.52</ele>
        <time>2018-12-15T09:35:14Z</time>
      </trkpt>
      <trkpt lat="43.96306" lon="1.23615">
        <ele>102.52</ele>
        <time>2018-12-15T09:35:23Z</time>
      </trkpt>
      <trkpt lat="43.96307" lon="1.23618">
        <ele>102.52</ele>
        <time>2018-12-15T09:35:26Z</time>
      </trkpt>
      <trkpt lat="43.96313" lon="1.23635">
        <ele>102.52</ele>
        <time>2018-12-15T09:35:42Z</time>
      </trkpt>
      <trkpt lat="43.96322" lon="1.23648">
        <ele>102.52</ele>
        <time>2018-12-15T09:35:57Z</time>
      </trkpt>
      <trkpt lat="43.96331" lon="1.2366">
        <ele>102.52</ele>
        <time>2018-12-15T09:36:09Z</time>
      </trkpt>
      <trkpt lat="43.96337" lon="1.23669">
        <ele>101.08</ele>
        <time>2018-12-15T09:36:18Z</time>
      </trkpt>
      <trkpt lat="43.96351" lon="1.23687">
        <ele>102.52</ele>
        <time>2018-12-15T09:36:37Z</time>
      </trkpt>
      <trkpt lat="43.96362" lon="1.23699">
        <ele>103.96</ele>
        <time>2018-12-15T09:36:54Z</time>
      </trkpt>
      <trkpt lat="43.96381" lon="1.23716">
        <ele>103.48</ele>
        <time>2018-12-15T09:37:14Z</time>
      </trkpt>
      <trkpt lat="43.96398" lon="1.23733">
        <ele>103</ele>
        <time>2018-12-15T09:37:33Z</time>
      </trkpt>
      <trkpt lat="43.96408" lon="1.23743">
        <ele>103.48</ele>
        <time>2018-12-15T09:37:51Z</time>
      </trkpt>
      <trkpt lat="43.96425" lon="1.23763">
        <ele>103.96</ele>
        <time>2018-12-15T09:38:11Z</time>
      </trkpt>
      <trkpt lat="43.96437" lon="1.23782">
        <ele>103.96</ele>
        <time>2018-12-15T09:38:30Z</time>
      </trkpt>
      <trkpt lat="43.96455" lon="1.23799">
        <ele>103.96</ele>
        <time>2018-12-15T09:38:48Z</time>
      </trkpt>
      <trkpt lat="43.96471" lon="1.23815">
        <ele>103.96</ele>
        <time>2018-12-15T09:39:06Z</time>
      </trkpt>
      <trkpt lat="43.9648" lon="1.23829">
        <ele>104.44</ele>
        <time>2018-12-15T09:39:20Z</time>
      </trkpt>
      <trkpt lat="43.96497" lon="1.2385">
        <ele>104.44</ele>
        <time>2018-12-15T09:39:40Z</time>
      </trkpt>
      <trkpt lat="43.96514" lon="1.23869">
        <ele>103.96</ele>
        <time>2018-12-15T09:40:01Z</time>
      </trkpt>
      <trkpt lat="43.96528" lon="1.23887">
        <ele>103.96</ele>
        <time>2018-12-15T09:40:20Z</time>
      </trkpt>
      <trkpt lat="43.96544" lon="1.23902">
        <ele>104.44</ele>
        <time>2018-12-15T09:40:38Z</time>
      </trkpt>
      <trkpt lat="43.96552" lon="1.23913">
        <ele>104.44</ele>
        <time>2018-12-15T09:40:54Z</time>
      </trkpt>
      <trkpt lat="43.96556" lon="1.23918">
        <ele>104.44</ele>
        <time>2018-12-15T09:40:58Z</time>
      </trkpt>
      <trkpt lat="43.96573" lon="1.23936">
        <ele>104.44</ele>
        <time>2018-12-15T09:41:17Z</time>
      </trkpt>
      <trkpt lat="43.96589" lon="1.23955">
        <ele>104.44</ele>
        <time>2018-12-15T09:41:37Z</time>
      </trkpt>
      <trkpt lat="43.96606" lon="1.23974">
        <ele>104.44</ele>
        <time>2018-12-15T09:41:56Z</time>
      </trkpt>
      <trkpt lat="43.96615" lon="1.23984">
        <ele>104.44</ele>
        <time>2018-12-15T09:42:07Z</time>
      </trkpt>
      <trkpt lat="43.9663" lon="1.24002">
        <ele>104.92</ele>
        <time>2018-12-15T09:42:25Z</time>
      </trkpt>
      <trkpt lat="43.96644" lon="1.24018">
        <ele>104.92</ele>
        <time>2018-12-15T09:42:42Z</time>
      </trkpt>
      <trkpt lat="43.96658" lon="1.24034">
        <ele>104.44</ele>
        <time>2018-12-15T09:43:00Z</time>
      </trkpt>
      <trkpt lat="43.96676" lon="1.24055">
        <ele>104.92</ele>
        <time>2018-12-15T09:43:21Z</time>
      </trkpt>
      <trkpt lat="43.96693" lon="1.24071">
        <ele>105.4</ele>
        <time>2018-12-15T09:43:40Z</time>
      </trkpt>
      <trkpt lat="43.96708" lon="1.24091">
        <ele>104.92</ele>
        <time>2018-12-15T09:43:59Z</time>
      </trkpt>
      <trkpt lat="43.96722" lon="1.24106">
        <ele>104.92</ele>
        <time>2018-12-15T09:44:15Z</time>
      </trkpt>
      <trkpt lat="43.96737" lon="1.24124">
        <ele>104.92</ele>
        <time>2018-12-15T09:44:32Z</time>
      </trkpt>
      <trkpt lat="43.96749" lon="1.2414">
        <ele>105.4</ele>
        <time>2018-12-15T09:44:48Z</time>
      </trkpt>
      <trkpt lat="43.96761" lon="1.24151">
        <ele>105.88</ele>
        <time>2018-12-15T09:45:06Z</time>
      </trkpt>
      <trkpt lat="43.96771" lon="1.24165">
        <ele>104.92</ele>
        <time>2018-12-15T09:45:21Z</time>
      </trkpt>
      <trkpt lat="43.96815" lon="1.24218">
        <ele>105.4</ele>
        <time>2018-12-15T09:47:20Z</time>
      </trkpt>
      <trkpt lat="43.96829" lon="1.24235">
        <ele>105.4</ele>
        <time>2018-12-15T09:47:37Z</time>
      </trkpt>
      <trkpt lat="43.96845" lon="1.24255">
        <ele>105.4</ele>
        <time>2018-12-15T09:47:55Z</time>
      </trkpt>
      <trkpt lat="43.96859" lon="1.2427">
        <ele>105.4</ele>
        <time>2018-12-15T09:48:10Z</time>
      </trkpt>
      <trkpt lat="43.96873" lon="1.24288">
        <ele>105.4</ele>
        <time>2018-12-15T09:48:26Z</time>
      </trkpt>
      <trkpt lat="43.96891" lon="1.24306">
        <ele>105.4</ele>
        <time>2018-12-15T09:48:46Z</time>
      </trkpt>
      <trkpt lat="43.96904" lon="1.24322">
        <ele>104.92</ele>
        <time>2018-12-15T09:49:01Z</time>
      </trkpt>
      <trkpt lat="43.9692" lon="1.24342">
        <ele>105.4</ele>
        <time>2018-12-15T09:49:19Z</time>
      </trkpt>
      <trkpt lat="43.96934" lon="1.24359">
        <ele>104.92</ele>
        <time>2018-12-15T09:49:35Z</time>
      </trkpt>
      <trkpt lat="43.96949" lon="1.24376">
        <ele>105.4</ele>
        <time>2018-12-15T09:49:52Z</time>
      </trkpt>
      <trkpt lat="43.96962" lon="1.2439">
        <ele>104.92</ele>
        <time>2018-12-15T09:50:07Z</time>
      </trkpt>
      <trkpt lat="43.96977" lon="1.24409">
        <ele>104.44</ele>
        <time>2018-12-15T09:50:25Z</time>
      </trkpt>
      <trkpt lat="43.96992" lon="1.24426">
        <ele>104.44</ele>
        <time>2018-12-15T09:50:41Z</time>
      </trkpt>
      <trkpt lat="43.97004" lon="1.24443">
        <ele>104.44</ele>
        <time>2018-12-15T09:50:57Z</time>
      </trkpt>
      <trkpt lat="43.97011" lon="1.24456">
        <ele>104.92</ele>
        <time>2018-12-15T09:51:08Z</time>
      </trkpt>
      <trkpt lat="43.97015" lon="1.24462">
        <ele>105.4</ele>
        <time>2018-12-15T09:51:13Z</time>
      </trkpt>
      <trkpt lat="43.97022" lon="1.24481">
        <ele>107.32</ele>
        <time>2018-12-15T09:51:30Z</time>
      </trkpt>
      <trkpt lat="43.97018" lon="1.24505">
        <ele>105.4</ele>
        <time>2018-12-15T09:51:47Z</time>
      </trkpt>
      <trkpt lat="43.97016" lon="1.24531">
        <ele>103.96</ele>
        <time>2018-12-15T09:52:03Z</time>
      </trkpt>
      <trkpt lat="43.97014" lon="1.2456">
        <ele>102.04</ele>
        <time>2018-12-15T09:52:21Z</time>
      </trkpt>
      <trkpt lat="43.9701" lon="1.24584">
        <ele>101.56</ele>
        <time>2018-12-15T09:52:36Z</time>
      </trkpt>
      <trkpt lat="43.97003" lon="1.24605">
        <ele>100.6</ele>
        <time>2018-12-15T09:52:51Z</time>
      </trkpt>
      <trkpt lat="43.97" lon="1.24631">
        <ele>100.11</ele>
        <time>2018-12-15T09:53:08Z</time>
      </trkpt>
      <trkpt lat="43.96996" lon="1.24653">
        <ele>100.6</ele>
        <time>2018-12-15T09:53:22Z</time>
      </trkpt>
      <trkpt lat="43.97009" lon="1.24681">
        <ele>100.11</ele>
        <time>2018-12-15T09:53:40Z</time>
      </trkpt>
      <trkpt lat="43.97023" lon="1.24703">
        <ele>100.11</ele>
        <time>2018-12-15T09:53:59Z</time>
      </trkpt>
      <trkpt lat="43.97039" lon="1.24725">
        <ele>100.6</ele>
        <time>2018-12-15T09:54:17Z</time>
      </trkpt>
      <trkpt lat="43.97054" lon="1.24745">
        <ele>100.6</ele>
        <time>2018-12-15T09:54:35Z</time>
      </trkpt>
      <trkpt lat="43.97067" lon="1.24762">
        <ele>100.6</ele>
        <time>2018-12-15T09:54:51Z</time>
      </trkpt>
      <trkpt lat="43.9708" lon="1.24784">
        <ele>101.56</ele>
        <time>2018-12-15T09:55:09Z</time>
      </trkpt>
      <trkpt lat="43.97095" lon="1.24801">
        <ele>102.04</ele>
        <time>2018-12-15T09:55:25Z</time>
      </trkpt>
      <trkpt lat="43.97106" lon="1.24818">
        <ele>102.52</ele>
        <time>2018-12-15T09:55:40Z</time>
      </trkpt>
      <trkpt lat="43.97118" lon="1.2484">
        <ele>102.04</ele>
        <time>2018-12-15T09:55:57Z</time>
      </trkpt>
      <trkpt lat="43.97131" lon="1.24858">
        <ele>103</ele>
        <time>2018-12-15T09:56:13Z</time>
      </trkpt>
      <trkpt lat="43.97143" lon="1.24883">
        <ele>103</ele>
        <time>2018-12-15T09:56:32Z</time>
      </trkpt>
      <trkpt lat="43.97148" lon="1.24906">
        <ele>103</ele>
        <time>2018-12-15T09:56:48Z</time>
      </trkpt>
      <trkpt lat="43.97156" lon="1.24935">
        <ele>103</ele>
        <time>2018-12-15T09:57:07Z</time>
      </trkpt>
      <trkpt lat="43.97163" lon="1.24956">
        <ele>103</ele>
        <time>2018-12-15T09:57:22Z</time>
      </trkpt>
      <trkpt lat="43.97175" lon="1.2498">
        <ele>103.48</ele>
        <time>2018-12-15T09:57:41Z</time>
      </trkpt>
      <trkpt lat="43.97187" lon="1.25004">
        <ele>103</ele>
        <time>2018-12-15T09:58:00Z</time>
      </trkpt>
      <trkpt lat="43.97198" lon="1.25026">
        <ele>103.48</ele>
        <time>2018-12-15T09:58:18Z</time>
      </trkpt>
      <trkpt lat="43.97208" lon="1.25045">
        <ele>103.96</ele>
        <time>2018-12-15T09:58:33Z</time>
      </trkpt>
      <trkpt lat="43.97217" lon="1.25064">
        <ele>103.96</ele>
        <time>2018-12-15T09:58:49Z</time>
      </trkpt>
      <trkpt lat="43.97229" lon="1.25087">
        <ele>104.44</ele>
        <time>2018-12-15T09:59:08Z</time>
      </trkpt>
      <trkpt lat="43.97239" lon="1.2511">
        <ele>103.96</ele>
        <time>2018-12-15T09:59:26Z</time>
      </trkpt>
      <trkpt lat="43.9725" lon="1.25133">
        <ele>104.44</ele>
        <time>2018-12-15T09:59:44Z</time>
      </trkpt>
      <trkpt lat="43.97257" lon="1.25148">
        <ele>104.44</ele>
        <time>2018-12-15T10:00:00Z</time>
      </trkpt>
      <trkpt lat="43.9726" lon="1.25155">
        <ele>104.44</ele>
        <time>2018-12-15T10:00:17Z</time>
      </trkpt>
      <trkpt lat="43.97257" lon="1.25164">
        <ele>104.44</ele>
        <time>2018-12-15T10:03:17Z</time>
      </trkpt>
      <trkpt lat="43.97257" lon="1.25162">
        <ele>94.35</ele>
        <time>2018-12-15T10:03:22Z</time>
      </trkpt>
      <trkpt lat="43.97257" lon="1.25161">
        <ele>100.11</ele>
        <time>2018-12-15T10:03:23Z</time>
      </trkpt>
      <trkpt lat="43.97256" lon="1.2516">
        <ele>114.05</ele>
        <time>2018-12-15T10:03:24Z</time>
      </trkpt>
      <trkpt lat="43.97256" lon="1.25161">
        <ele>106.36</ele>
        <time>2018-12-15T10:03:25Z</time>
      </trkpt>
      <trkpt lat="43.97257" lon="1.25163">
        <ele>103.96</ele>
        <time>2018-12-15T10:03:27Z</time>
      </trkpt>
      <trkpt lat="43.97255" lon="1.2518">
        <ele>104.44</ele>
        <time>2018-12-15T10:03:43Z</time>
      </trkpt>
      <trkpt lat="43.97251" lon="1.25186">
        <ele>104.92</ele>
        <time>2018-12-15T10:03:50Z</time>
      </trkpt>
      <trkpt lat="43.9724" lon="1.25205">
        <ele>104.92</ele>
        <time>2018-12-15T10:04:07Z</time>
      </trkpt>
      <trkpt lat="43.97232" lon="1.25219">
        <ele>104.44</ele>
        <time>2018-12-15T10:04:23Z</time>
      </trkpt>
      <trkpt lat="43.97231" lon="1.25221">
        <ele>105.4</ele>
        <time>2018-12-15T10:04:24Z</time>
      </trkpt>
      <trkpt lat="43.97229" lon="1.2523">
        <ele>104.44</ele>
        <time>2018-12-15T10:04:28Z</time>
      </trkpt>
      <trkpt lat="43.9722" lon="1.25246">
        <ele>104.44</ele>
        <time>2018-12-15T10:04:41Z</time>
      </trkpt>
      <trkpt lat="43.97184" lon="1.25288">
        <ele>103.48</ele>
        <time>2018-12-15T10:05:36Z</time>
      </trkpt>
      <trkpt lat="43.97176" lon="1.25297">
        <ele>103.96</ele>
        <time>2018-12-15T10:05:49Z</time>
      </trkpt>
      <trkpt lat="43.97169" lon="1.25304">
        <ele>103</ele>
        <time>2018-12-15T10:06:01Z</time>
      </trkpt>
      <trkpt lat="43.97166" lon="1.25305">
        <ele>103</ele>
        <time>2018-12-15T10:06:05Z</time>
      </trkpt>
      <trkpt lat="43.97157" lon="1.25314">
        <ele>103.48</ele>
        <time>2018-12-15T10:06:17Z</time>
      </trkpt>
      <trkpt lat="43.97149" lon="1.25324">
        <ele>102.52</ele>
        <time>2018-12-15T10:06:30Z</time>
      </trkpt>
      <trkpt lat="43.97147" lon="1.25327">
        <ele>103</ele>
        <time>2018-12-15T10:06:33Z</time>
      </trkpt>
      <trkpt lat="43.97144" lon="1.25333">
        <ele>104.44</ele>
        <time>2018-12-15T10:06:38Z</time>
      </trkpt>
      <trkpt lat="43.97141" lon="1.25335">
        <ele>103.96</ele>
        <time>2018-12-15T10:06:42Z</time>
      </trkpt>
      <trkpt lat="43.97139" lon="1.25338">
        <ele>103.96</ele>
        <time>2018-12-15T10:06:46Z</time>
      </trkpt>
      <trkpt lat="43.97131" lon="1.25352">
        <ele>103</ele>
        <time>2018-12-15T10:06:58Z</time>
      </trkpt>
      <trkpt lat="43.97123" lon="1.25363">
        <ele>103.96</ele>
        <time>2018-12-15T10:07:12Z</time>
      </trkpt>
      <trkpt lat="43.97115" lon="1.25373">
        <ele>103.48</ele>
        <time>2018-12-15T10:07:25Z</time>
      </trkpt>
      <trkpt lat="43.97106" lon="1.25384">
        <ele>104.92</ele>
        <time>2018-12-15T10:07:39Z</time>
      </trkpt>
      <trkpt lat="43.97105" lon="1.25385">
        <ele>104.44</ele>
        <time>2018-12-15T10:07:40Z</time>
      </trkpt>
      <trkpt lat="43.97101" lon="1.25387">
        <ele>104.44</ele>
        <time>2018-12-15T10:07:44Z</time>
      </trkpt>
      <trkpt lat="43.97083" lon="1.25413">
        <ele>104.92</ele>
        <time>2018-12-15T10:08:06Z</time>
      </trkpt>
      <trkpt lat="43.9708" lon="1.25416">
        <ele>103.96</ele>
        <time>2018-12-15T10:08:10Z</time>
      </trkpt>
      <trkpt lat="43.97067" lon="1.25425">
        <ele>105.4</ele>
        <time>2018-12-15T10:08:24Z</time>
      </trkpt>
      <trkpt lat="43.97056" lon="1.25434">
        <ele>105.4</ele>
        <time>2018-12-15T10:08:36Z</time>
      </trkpt>
      <trkpt lat="43.97045" lon="1.25445">
        <ele>105.88</ele>
        <time>2018-12-15T10:08:49Z</time>
      </trkpt>
      <trkpt lat="43.97038" lon="1.25452">
        <ele>104.92</ele>
        <time>2018-12-15T10:08:58Z</time>
      </trkpt>
      <trkpt lat="43.9703" lon="1.25465">
        <ele>104.92</ele>
        <time>2018-12-15T10:09:09Z</time>
      </trkpt>
      <trkpt lat="43.9702" lon="1.25473">
        <ele>105.88</ele>
        <time>2018-12-15T10:09:20Z</time>
      </trkpt>
      <trkpt lat="43.97014" lon="1.25481">
        <ele>105.88</ele>
        <time>2018-12-15T10:09:29Z</time>
      </trkpt>
      <trkpt lat="43.97002" lon="1.25491">
        <ele>106.36</ele>
        <time>2018-12-15T10:09:41Z</time>
      </trkpt>
      <trkpt lat="43.96992" lon="1.25505">
        <ele>105.88</ele>
        <time>2018-12-15T10:09:54Z</time>
      </trkpt>
      <trkpt lat="43.96984" lon="1.25514">
        <ele>107.32</ele>
        <time>2018-12-15T10:10:05Z</time>
      </trkpt>
      <trkpt lat="43.96974" lon="1.25523">
        <ele>107.32</ele>
        <time>2018-12-15T10:10:18Z</time>
      </trkpt>
      <trkpt lat="43.96963" lon="1.25527">
        <ele>107.81</ele>
        <time>2018-12-15T10:10:31Z</time>
      </trkpt>
      <trkpt lat="43.9696" lon="1.25529">
        <ele>108.29</ele>
        <time>2018-12-15T10:10:35Z</time>
      </trkpt>
      <trkpt lat="43.96948" lon="1.25532">
        <ele>107.32</ele>
        <time>2018-12-15T10:10:48Z</time>
      </trkpt>
      <trkpt lat="43.96944" lon="1.25534">
        <ele>106.84</ele>
        <time>2018-12-15T10:10:52Z</time>
      </trkpt>
      <trkpt lat="43.96932" lon="1.25538">
        <ele>107.81</ele>
        <time>2018-12-15T10:11:03Z</time>
      </trkpt>
      <trkpt lat="43.96929" lon="1.25539">
        <ele>107.32</ele>
        <time>2018-12-15T10:11:07Z</time>
      </trkpt>
      <trkpt lat="43.96925" lon="1.25544">
        <ele>108.77</ele>
        <time>2018-12-15T10:11:15Z</time>
      </trkpt>
      <trkpt lat="43.96915" lon="1.2555">
        <ele>108.77</ele>
        <time>2018-12-15T10:11:28Z</time>
      </trkpt>
      <trkpt lat="43.96906" lon="1.25555">
        <ele>108.29</ele>
        <time>2018-12-15T10:11:40Z</time>
      </trkpt>
      <trkpt lat="43.96894" lon="1.25565">
        <ele>109.25</ele>
        <time>2018-12-15T10:11:54Z</time>
      </trkpt>
      <trkpt lat="43.96884" lon="1.25579">
        <ele>110.21</ele>
        <time>2018-12-15T10:12:07Z</time>
      </trkpt>
      <trkpt lat="43.96884" lon="1.25579">
        <ele>110.69</ele>
        <time>2018-12-15T10:12:08Z</time>
      </trkpt>
      <trkpt lat="43.9688" lon="1.25585">
        <ele>110.69</ele>
        <time>2018-12-15T10:12:12Z</time>
      </trkpt>
      <trkpt lat="43.96872" lon="1.25597">
        <ele>110.69</ele>
        <time>2018-12-15T10:12:25Z</time>
      </trkpt>
      <trkpt lat="43.96861" lon="1.25605">
        <ele>110.69</ele>
        <time>2018-12-15T10:12:38Z</time>
      </trkpt>
      <trkpt lat="43.96856" lon="1.25608">
        <ele>110.21</ele>
        <time>2018-12-15T10:12:43Z</time>
      </trkpt>
      <trkpt lat="43.96845" lon="1.25617">
        <ele>110.69</ele>
        <time>2018-12-15T10:12:57Z</time>
      </trkpt>
      <trkpt lat="43.96836" lon="1.25624">
        <ele>111.17</ele>
        <time>2018-12-15T10:13:09Z</time>
      </trkpt>
      <trkpt lat="43.96832" lon="1.2563">
        <ele>110.69</ele>
        <time>2018-12-15T10:13:15Z</time>
      </trkpt>
      <trkpt lat="43.96829" lon="1.25634">
        <ele>111.17</ele>
        <time>2018-12-15T10:13:17Z</time>
      </trkpt>
      <trkpt lat="43.96825" lon="1.25658">
        <ele>110.21</ele>
        <time>2018-12-15T10:13:29Z</time>
      </trkpt>
      <trkpt lat="43.96817" lon="1.25661">
        <ele>110.21</ele>
        <time>2018-12-15T10:13:39Z</time>
      </trkpt>
      <trkpt lat="43.96806" lon="1.25671">
        <ele>108.77</ele>
        <time>2018-12-15T10:13:52Z</time>
      </trkpt>
      <trkpt lat="43.96796" lon="1.25686">
        <ele>108.77</ele>
        <time>2018-12-15T10:14:05Z</time>
      </trkpt>
      <trkpt lat="43.96789" lon="1.25686">
        <ele>109.25</ele>
        <time>2018-12-15T10:14:14Z</time>
      </trkpt>
      <trkpt lat="43.96778" lon="1.25689">
        <ele>109.25</ele>
        <time>2018-12-15T10:14:29Z</time>
      </trkpt>
      <trkpt lat="43.96769" lon="1.25692">
        <ele>108.29</ele>
        <time>2018-12-15T10:14:37Z</time>
      </trkpt>
      <trkpt lat="43.96752" lon="1.25698">
        <ele>107.81</ele>
        <time>2018-12-15T10:14:52Z</time>
      </trkpt>
      <trkpt lat="43.96737" lon="1.25703">
        <ele>106.84</ele>
        <time>2018-12-15T10:15:04Z</time>
      </trkpt>
      <trkpt lat="43.96728" lon="1.25701">
        <ele>106.36</ele>
        <time>2018-12-15T10:15:17Z</time>
      </trkpt>
      <trkpt lat="43.96716" lon="1.25699">
        <ele>106.84</ele>
        <time>2018-12-15T10:15:31Z</time>
      </trkpt>
      <trkpt lat="43.96704" lon="1.25698">
        <ele>106.84</ele>
        <time>2018-12-15T10:15:43Z</time>
      </trkpt>
      <trkpt lat="43.96691" lon="1.25697">
        <ele>106.36</ele>
        <time>2018-12-15T10:15:57Z</time>
      </trkpt>
      <trkpt lat="43.96684" lon="1.25702">
        <ele>107.32</ele>
        <time>2018-12-15T10:16:13Z</time>
      </trkpt>
      <trkpt lat="43.96681" lon="1.25704">
        <ele>107.81</ele>
        <time>2018-12-15T10:16:16Z</time>
      </trkpt>
      <trkpt lat="43.96671" lon="1.25708">
        <ele>108.77</ele>
        <time>2018-12-15T10:16:28Z</time>
      </trkpt>
      <trkpt lat="43.96651" lon="1.25701">
        <ele>109.25</ele>
        <time>2018-12-15T10:16:40Z</time>
      </trkpt>
      <trkpt lat="43.96621" lon="1.25716">
        <ele>112.61</ele>
        <time>2018-12-15T10:18:23Z</time>
      </trkpt>
      <trkpt lat="43.96614" lon="1.25718">
        <ele>113.09</ele>
        <time>2018-12-15T10:18:35Z</time>
      </trkpt>
      <trkpt lat="43.96603" lon="1.25721">
        <ele>114.53</ele>
        <time>2018-12-15T10:19:22Z</time>
      </trkpt>
      <trkpt lat="43.96597" lon="1.25712">
        <ele>115.5</ele>
        <time>2018-12-15T10:19:33Z</time>
      </trkpt>
      <trkpt lat="43.96593" lon="1.25712">
        <ele>115.98</ele>
        <time>2018-12-15T10:19:40Z</time>
      </trkpt>
      <trkpt lat="43.96584" lon="1.25721">
        <ele>115.98</ele>
        <time>2018-12-15T10:19:52Z</time>
      </trkpt>
      <trkpt lat="43.96577" lon="1.25735">
        <ele>115.5</ele>
        <time>2018-12-15T10:20:01Z</time>
      </trkpt>
      <trkpt lat="43.96574" lon="1.25747">
        <ele>116.94</ele>
        <time>2018-12-15T10:20:09Z</time>
      </trkpt>
      <trkpt lat="43.96572" lon="1.25755">
        <ele>115.5</ele>
        <time>2018-12-15T10:20:14Z</time>
      </trkpt>
      <trkpt lat="43.96568" lon="1.2576">
        <ele>116.46</ele>
        <time>2018-12-15T10:20:22Z</time>
      </trkpt>
      <trkpt lat="43.96561" lon="1.25762">
        <ele>115.98</ele>
        <time>2018-12-15T10:20:34Z</time>
      </trkpt>
      <trkpt lat="43.96555" lon="1.2578">
        <ele>115.98</ele>
        <time>2018-12-15T10:20:48Z</time>
      </trkpt>
      <trkpt lat="43.96562" lon="1.25796">
        <ele>116.46</ele>
        <time>2018-12-15T10:21:02Z</time>
      </trkpt>
      <trkpt lat="43.96562" lon="1.25799">
        <ele>115.5</ele>
        <time>2018-12-15T10:21:04Z</time>
      </trkpt>
      <trkpt lat="43.96566" lon="1.25814">
        <ele>115.98</ele>
        <time>2018-12-15T10:21:16Z</time>
      </trkpt>
      <trkpt lat="43.96572" lon="1.25833">
        <ele>114.53</ele>
        <time>2018-12-15T10:21:31Z</time>
      </trkpt>
      <trkpt lat="43.96577" lon="1.2585">
        <ele>114.05</ele>
        <time>2018-12-15T10:21:47Z</time>
      </trkpt>
      <trkpt lat="43.96579" lon="1.2587">
        <ele>114.05</ele>
        <time>2018-12-15T10:22:02Z</time>
      </trkpt>
      <trkpt lat="43.9658" lon="1.25883">
        <ele>113.57</ele>
        <time>2018-12-15T10:22:11Z</time>
      </trkpt>
      <trkpt lat="43.96593" lon="1.25911">
        <ele>113.57</ele>
        <time>2018-12-15T10:22:26Z</time>
      </trkpt>
      <trkpt lat="43.96597" lon="1.25925">
        <ele>114.05</ele>
        <time>2018-12-15T10:22:39Z</time>
      </trkpt>
      <trkpt lat="43.96602" lon="1.25943">
        <ele>114.53</ele>
        <time>2018-12-15T10:22:52Z</time>
      </trkpt>
      <trkpt lat="43.96606" lon="1.25961">
        <ele>115.5</ele>
        <time>2018-12-15T10:23:07Z</time>
      </trkpt>
      <trkpt lat="43.96609" lon="1.25977">
        <ele>116.46</ele>
        <time>2018-12-15T10:23:23Z</time>
      </trkpt>
      <trkpt lat="43.96611" lon="1.25993">
        <ele>116.46</ele>
        <time>2018-12-15T10:23:37Z</time>
      </trkpt>
      <trkpt lat="43.96615" lon="1.26011">
        <ele>115.98</ele>
        <time>2018-12-15T10:23:52Z</time>
      </trkpt>
      <trkpt lat="43.96616" lon="1.26016">
        <ele>115.5</ele>
        <time>2018-12-15T10:23:56Z</time>
      </trkpt>
      <trkpt lat="43.96621" lon="1.26024">
        <ele>115.5</ele>
        <time>2018-12-15T10:24:02Z</time>
      </trkpt>
      <trkpt lat="43.96622" lon="1.26029">
        <ele>115.01</ele>
        <time>2018-12-15T10:24:05Z</time>
      </trkpt>
      <trkpt lat="43.96629" lon="1.26042">
        <ele>114.05</ele>
        <time>2018-12-15T10:24:18Z</time>
      </trkpt>
      <trkpt lat="43.96639" lon="1.26051">
        <ele>112.61</ele>
        <time>2018-12-15T10:24:30Z</time>
      </trkpt>
      <trkpt lat="43.9664" lon="1.26051">
        <ele>112.61</ele>
        <time>2018-12-15T10:24:31Z</time>
      </trkpt>
      <trkpt lat="43.96641" lon="1.26055">
        <ele>112.61</ele>
        <time>2018-12-15T10:24:36Z</time>
      </trkpt>
      <trkpt lat="43.96638" lon="1.26067">
        <ele>112.13</ele>
        <time>2018-12-15T10:24:47Z</time>
      </trkpt>
      <trkpt lat="43.96638" lon="1.26085">
        <ele>112.13</ele>
        <time>2018-12-15T10:24:59Z</time>
      </trkpt>
      <trkpt lat="43.96641" lon="1.26092">
        <ele>111.65</ele>
        <time>2018-12-15T10:25:05Z</time>
      </trkpt>
      <trkpt lat="43.96655" lon="1.26105">
        <ele>111.65</ele>
        <time>2018-12-15T10:25:19Z</time>
      </trkpt>
      <trkpt lat="43.96657" lon="1.26111">
        <ele>112.13</ele>
        <time>2018-12-15T10:25:26Z</time>
      </trkpt>
      <trkpt lat="43.96659" lon="1.26121">
        <ele>112.13</ele>
        <time>2018-12-15T10:25:35Z</time>
      </trkpt>
      <trkpt lat="43.96661" lon="1.26141">
        <ele>112.61</ele>
        <time>2018-12-15T10:25:51Z</time>
      </trkpt>
      <trkpt lat="43.96666" lon="1.26159">
        <ele>113.09</ele>
        <time>2018-12-15T10:26:06Z</time>
      </trkpt>
      <trkpt lat="43.96671" lon="1.26175">
        <ele>113.09</ele>
        <time>2018-12-15T10:26:17Z</time>
      </trkpt>
      <trkpt lat="43.96673" lon="1.26188">
        <ele>112.61</ele>
        <time>2018-12-15T10:26:29Z</time>
      </trkpt>
      <trkpt lat="43.9667" lon="1.26204">
        <ele>112.61</ele>
        <time>2018-12-15T10:26:43Z</time>
      </trkpt>
      <trkpt lat="43.96669" lon="1.26211">
        <ele>112.61</ele>
        <time>2018-12-15T10:26:49Z</time>
      </trkpt>
      <trkpt lat="43.96674" lon="1.26225">
        <ele>113.09</ele>
        <time>2018-12-15T10:27:01Z</time>
      </trkpt>
      <trkpt lat="43.9668" lon="1.26242">
        <ele>113.57</ele>
        <time>2018-12-15T10:27:16Z</time>
      </trkpt>
      <trkpt lat="43.96685" lon="1.26249">
        <ele>114.05</ele>
        <time>2018-12-15T10:27:26Z</time>
      </trkpt>
      <trkpt lat="43.96688" lon="1.26255">
        <ele>113.57</ele>
        <time>2018-12-15T10:27:30Z</time>
      </trkpt>
      <trkpt lat="43.96695" lon="1.26268">
        <ele>114.05</ele>
        <time>2018-12-15T10:27:42Z</time>
      </trkpt>
      <trkpt lat="43.96698" lon="1.26283">
        <ele>114.05</ele>
        <time>2018-12-15T10:27:55Z</time>
      </trkpt>
      <trkpt lat="43.967" lon="1.26292">
        <ele>114.05</ele>
        <time>2018-12-15T10:28:04Z</time>
      </trkpt>
      <trkpt lat="43.96699" lon="1.26296">
        <ele>114.05</ele>
        <time>2018-12-15T10:28:08Z</time>
      </trkpt>
      <trkpt lat="43.96706" lon="1.26308">
        <ele>114.53</ele>
        <time>2018-12-15T10:28:20Z</time>
      </trkpt>
      <trkpt lat="43.96707" lon="1.26309">
        <ele>115.01</ele>
        <time>2018-12-15T10:28:21Z</time>
      </trkpt>
      <trkpt lat="43.9671" lon="1.26324">
        <ele>115.01</ele>
        <time>2018-12-15T10:28:32Z</time>
      </trkpt>
      <trkpt lat="43.96717" lon="1.26341">
        <ele>115.01</ele>
        <time>2018-12-15T10:28:44Z</time>
      </trkpt>
      <trkpt lat="43.96724" lon="1.2636">
        <ele>115.01</ele>
        <time>2018-12-15T10:28:57Z</time>
      </trkpt>
      <trkpt lat="43.96727" lon="1.26373">
        <ele>115.01</ele>
        <time>2018-12-15T10:29:08Z</time>
      </trkpt>
      <trkpt lat="43.96728" lon="1.26375">
        <ele>115.01</ele>
        <time>2018-12-15T10:29:10Z</time>
      </trkpt>
      <trkpt lat="43.96729" lon="1.26389">
        <ele>115.01</ele>
        <time>2018-12-15T10:29:22Z</time>
      </trkpt>
      <trkpt lat="43.96733" lon="1.26396">
        <ele>115.01</ele>
        <time>2018-12-15T10:29:36Z</time>
      </trkpt>
      <trkpt lat="43.96736" lon="1.2641">
        <ele>115.5</ele>
        <time>2018-12-15T10:29:50Z</time>
      </trkpt>
      <trkpt lat="43.96738" lon="1.26417">
        <ele>115.98</ele>
        <time>2018-12-15T10:29:56Z</time>
      </trkpt>
      <trkpt lat="43.96741" lon="1.26431">
        <ele>115.98</ele>
        <time>2018-12-15T10:30:08Z</time>
      </trkpt>
      <trkpt lat="43.96748" lon="1.2644">
        <ele>116.46</ele>
        <time>2018-12-15T10:30:23Z</time>
      </trkpt>
      <trkpt lat="43.96754" lon="1.26453">
        <ele>116.94</ele>
        <time>2018-12-15T10:30:39Z</time>
      </trkpt>
      <trkpt lat="43.96761" lon="1.26464">
        <ele>117.42</ele>
        <time>2018-12-15T10:30:49Z</time>
      </trkpt>
      <trkpt lat="43.96769" lon="1.26484">
        <ele>117.42</ele>
        <time>2018-12-15T10:31:04Z</time>
      </trkpt>
      <trkpt lat="43.96766" lon="1.26491">
        <ele>118.38</ele>
        <time>2018-12-15T10:31:22Z</time>
      </trkpt>
      <trkpt lat="43.9676" lon="1.26492">
        <ele>117.9</ele>
        <time>2018-12-15T10:31:37Z</time>
      </trkpt>
      <trkpt lat="43.96752" lon="1.26496">
        <ele>117.42</ele>
        <time>2018-12-15T10:31:49Z</time>
      </trkpt>
      <trkpt lat="43.9675" lon="1.26497">
        <ele>117.42</ele>
        <time>2018-12-15T10:31:53Z</time>
      </trkpt>
      <trkpt lat="43.96737" lon="1.26499">
        <ele>116.94</ele>
        <time>2018-12-15T10:32:07Z</time>
      </trkpt>
      <trkpt lat="43.96723" lon="1.26503">
        <ele>116.94</ele>
        <time>2018-12-15T10:32:20Z</time>
      </trkpt>
      <trkpt lat="43.96714" lon="1.26508">
        <ele>116.94</ele>
        <time>2018-12-15T10:32:28Z</time>
      </trkpt>
      <trkpt lat="43.96709" lon="1.26509">
        <ele>116.46</ele>
        <time>2018-12-15T10:32:33Z</time>
      </trkpt>
      <trkpt lat="43.96694" lon="1.26516">
        <ele>116.46</ele>
        <time>2018-12-15T10:32:47Z</time>
      </trkpt>
      <trkpt lat="43.96684" lon="1.26521">
        <ele>116.46</ele>
        <time>2018-12-15T10:33:00Z</time>
      </trkpt>
      <trkpt lat="43.96672" lon="1.26527">
        <ele>116.46</ele>
        <time>2018-12-15T10:33:12Z</time>
      </trkpt>
      <trkpt lat="43.96658" lon="1.2653">
        <ele>116.46</ele>
        <time>2018-12-15T10:33:25Z</time>
      </trkpt>
      <trkpt lat="43.96644" lon="1.26532">
        <ele>115.98</ele>
        <time>2018-12-15T10:33:37Z</time>
      </trkpt>
      <trkpt lat="43.96635" lon="1.26535">
        <ele>116.46</ele>
        <time>2018-12-15T10:33:46Z</time>
      </trkpt>
      <trkpt lat="43.96624" lon="1.26541">
        <ele>115.98</ele>
        <time>2018-12-15T10:33:58Z</time>
      </trkpt>
      <trkpt lat="43.9662" lon="1.26542">
        <ele>115.5</ele>
        <time>2018-12-15T10:34:02Z</time>
      </trkpt>
      <trkpt lat="43.96608" lon="1.2655">
        <ele>115.98</ele>
        <time>2018-12-15T10:34:15Z</time>
      </trkpt>
      <trkpt lat="43.96594" lon="1.26555">
        <ele>115.98</ele>
        <time>2018-12-15T10:34:27Z</time>
      </trkpt>
      <trkpt lat="43.96587" lon="1.26568">
        <ele>115.98</ele>
        <time>2018-12-15T10:34:38Z</time>
      </trkpt>
      <trkpt lat="43.96584" lon="1.26565">
        <ele>116.46</ele>
        <time>2018-12-15T10:34:53Z</time>
      </trkpt>
      <trkpt lat="43.96583" lon="1.26566">
        <ele>115.98</ele>
        <time>2018-12-15T10:34:56Z</time>
      </trkpt>
      <trkpt lat="43.96579" lon="1.26565">
        <ele>116.46</ele>
        <time>2018-12-15T10:35:02Z</time>
      </trkpt>
      <trkpt lat="43.96573" lon="1.26566">
        <ele>116.46</ele>
        <time>2018-12-15T10:35:08Z</time>
      </trkpt>
      <trkpt lat="43.96564" lon="1.2657">
        <ele>116.94</ele>
        <time>2018-12-15T10:35:19Z</time>
      </trkpt>
      <trkpt lat="43.96552" lon="1.26575">
        <ele>116.46</ele>
        <time>2018-12-15T10:35:31Z</time>
      </trkpt>
      <trkpt lat="43.96544" lon="1.2658">
        <ele>116.46</ele>
        <time>2018-12-15T10:35:38Z</time>
      </trkpt>
      <trkpt lat="43.96536" lon="1.26585">
        <ele>116.46</ele>
        <time>2018-12-15T10:35:45Z</time>
      </trkpt>
      <trkpt lat="43.96524" lon="1.2659">
        <ele>115.98</ele>
        <time>2018-12-15T10:35:55Z</time>
      </trkpt>
      <trkpt lat="43.96513" lon="1.26595">
        <ele>115.98</ele>
        <time>2018-12-15T10:36:07Z</time>
      </trkpt>
      <trkpt lat="43.96509" lon="1.26599">
        <ele>116.46</ele>
        <time>2018-12-15T10:36:12Z</time>
      </trkpt>
      <trkpt lat="43.96503" lon="1.26602">
        <ele>116.46</ele>
        <time>2018-12-15T10:36:19Z</time>
      </trkpt>
      <trkpt lat="43.965" lon="1.26604">
        <ele>116.46</ele>
        <time>2018-12-15T10:36:23Z</time>
      </trkpt>
      <trkpt lat="43.96499" lon="1.26609">
        <ele>115.98</ele>
        <time>2018-12-15T10:36:26Z</time>
      </trkpt>
      <trkpt lat="43.965" lon="1.26617">
        <ele>115.98</ele>
        <time>2018-12-15T10:36:30Z</time>
      </trkpt>
      <trkpt lat="43.96501" lon="1.26634">
        <ele>115.98</ele>
        <time>2018-12-15T10:36:43Z</time>
      </trkpt>
      <trkpt lat="43.96502" lon="1.26643">
        <ele>115.98</ele>
        <time>2018-12-15T10:36:51Z</time>
      </trkpt>
      <trkpt lat="43.965" lon="1.26663">
        <ele>115.5</ele>
        <time>2018-12-15T10:37:06Z</time>
      </trkpt>
      <trkpt lat="43.965" lon="1.26677">
        <ele>116.46</ele>
        <time>2018-12-15T10:37:19Z</time>
      </trkpt>
      <trkpt lat="43.96501" lon="1.26685">
        <ele>116.46</ele>
        <time>2018-12-15T10:37:30Z</time>
      </trkpt>
      <trkpt lat="43.96506" lon="1.26702">
        <ele>116.46</ele>
        <time>2018-12-15T10:37:44Z</time>
      </trkpt>
      <trkpt lat="43.96506" lon="1.26716">
        <ele>115.98</ele>
        <time>2018-12-15T10:37:57Z</time>
      </trkpt>
      <trkpt lat="43.96514" lon="1.26744">
        <ele>116.46</ele>
        <time>2018-12-15T10:38:10Z</time>
      </trkpt>
      <trkpt lat="43.96517" lon="1.26761">
        <ele>116.46</ele>
        <time>2018-12-15T10:38:23Z</time>
      </trkpt>
      <trkpt lat="43.96521" lon="1.26774">
        <ele>116.94</ele>
        <time>2018-12-15T10:38:35Z</time>
      </trkpt>
      <trkpt lat="43.96525" lon="1.26794">
        <ele>116.94</ele>
        <time>2018-12-15T10:38:49Z</time>
      </trkpt>
      <trkpt lat="43.96526" lon="1.26811">
        <ele>117.42</ele>
        <time>2018-12-15T10:39:04Z</time>
      </trkpt>
      <trkpt lat="43.96533" lon="1.26829">
        <ele>116.94</ele>
        <time>2018-12-15T10:39:20Z</time>
      </trkpt>
      <trkpt lat="43.96537" lon="1.26844">
        <ele>116.94</ele>
        <time>2018-12-15T10:39:35Z</time>
      </trkpt>
      <trkpt lat="43.9654" lon="1.26867">
        <ele>117.42</ele>
        <time>2018-12-15T10:39:51Z</time>
      </trkpt>
      <trkpt lat="43.96542" lon="1.26872">
        <ele>117.9</ele>
        <time>2018-12-15T10:39:56Z</time>
      </trkpt>
      <trkpt lat="43.96549" lon="1.26895">
        <ele>117.9</ele>
        <time>2018-12-15T10:40:11Z</time>
      </trkpt>
      <trkpt lat="43.96556" lon="1.26912">
        <ele>118.38</ele>
        <time>2018-12-15T10:40:28Z</time>
      </trkpt>
      <trkpt lat="43.96564" lon="1.26931">
        <ele>117.9</ele>
        <time>2018-12-15T10:40:46Z</time>
      </trkpt>
      <trkpt lat="43.96566" lon="1.26936">
        <ele>118.38</ele>
        <time>2018-12-15T10:41:02Z</time>
      </trkpt>
      <trkpt lat="43.96559" lon="1.26942">
        <ele>117.9</ele>
        <time>2018-12-15T10:41:17Z</time>
      </trkpt>
      <trkpt lat="43.96548" lon="1.26946">
        <ele>118.86</ele>
        <time>2018-12-15T10:41:30Z</time>
      </trkpt>
      <trkpt lat="43.96539" lon="1.2695">
        <ele>119.34</ele>
        <time>2018-12-15T10:41:44Z</time>
      </trkpt>
      <trkpt lat="43.96523" lon="1.26955">
        <ele>120.3</ele>
        <time>2018-12-15T10:42:01Z</time>
      </trkpt>
      <trkpt lat="43.9651" lon="1.26958">
        <ele>121.26</ele>
        <time>2018-12-15T10:42:17Z</time>
      </trkpt>
      <trkpt lat="43.96501" lon="1.26961">
        <ele>121.26</ele>
        <time>2018-12-15T10:42:28Z</time>
      </trkpt>
      <trkpt lat="43.965" lon="1.26961">
        <ele>121.26</ele>
        <time>2018-12-15T10:42:31Z</time>
      </trkpt>
      <trkpt lat="43.96487" lon="1.26969">
        <ele>121.26</ele>
        <time>2018-12-15T10:42:45Z</time>
      </trkpt>
      <trkpt lat="43.96474" lon="1.26975">
        <ele>121.74</ele>
        <time>2018-12-15T10:43:01Z</time>
      </trkpt>
      <trkpt lat="43.96463" lon="1.26979">
        <ele>121.26</ele>
        <time>2018-12-15T10:43:16Z</time>
      </trkpt>
      <trkpt lat="43.96451" lon="1.26985">
        <ele>121.74</ele>
        <time>2018-12-15T10:43:31Z</time>
      </trkpt>
      <trkpt lat="43.96439" lon="1.26989">
        <ele>121.26</ele>
        <time>2018-12-15T10:43:45Z</time>
      </trkpt>
      <trkpt lat="43.96432" lon="1.26995">
        <ele>122.22</ele>
        <time>2018-12-15T10:43:59Z</time>
      </trkpt>
      <trkpt lat="43.96422" lon="1.26999">
        <ele>122.71</ele>
        <time>2018-12-15T10:44:13Z</time>
      </trkpt>
      <trkpt lat="43.96409" lon="1.27007">
        <ele>122.71</ele>
        <time>2018-12-15T10:44:27Z</time>
      </trkpt>
      <trkpt lat="43.96398" lon="1.27013">
        <ele>123.19</ele>
        <time>2018-12-15T10:44:41Z</time>
      </trkpt>
      <trkpt lat="43.96385" lon="1.27015">
        <ele>123.67</ele>
        <time>2018-12-15T10:44:54Z</time>
      </trkpt>
      <trkpt lat="43.9637" lon="1.27018">
        <ele>124.63</ele>
        <time>2018-12-15T10:45:06Z</time>
      </trkpt>
      <trkpt lat="43.96354" lon="1.27022">
        <ele>125.59</ele>
        <time>2018-12-15T10:45:21Z</time>
      </trkpt>
      <trkpt lat="43.96335" lon="1.27034">
        <ele>127.03</ele>
        <time>2018-12-15T10:45:38Z</time>
      </trkpt>
      <trkpt lat="43.96327" lon="1.27039">
        <ele>128.47</ele>
        <time>2018-12-15T10:45:52Z</time>
      </trkpt>
      <trkpt lat="43.96316" lon="1.27046">
        <ele>128.95</ele>
        <time>2018-12-15T10:46:08Z</time>
      </trkpt>
      <trkpt lat="43.96303" lon="1.27048">
        <ele>128.95</ele>
        <time>2018-12-15T10:46:23Z</time>
      </trkpt>
      <trkpt lat="43.96301" lon="1.27051">
        <ele>128.95</ele>
        <time>2018-12-15T10:46:25Z</time>
      </trkpt>
      <trkpt lat="43.96297" lon="1.2706">
        <ele>128.47</ele>
        <time>2018-12-15T10:46:28Z</time>
      </trkpt>
      <trkpt lat="43.96296" lon="1.27078">
        <ele>128.95</ele>
        <time>2018-12-15T10:46:39Z</time>
      </trkpt>
      <trkpt lat="43.96299" lon="1.27092">
        <ele>128.47</ele>
        <time>2018-12-15T10:46:52Z</time>
      </trkpt>
      <trkpt lat="43.96302" lon="1.2711">
        <ele>128.47</ele>
        <time>2018-12-15T10:47:05Z</time>
      </trkpt>
      <trkpt lat="43.96307" lon="1.27128">
        <ele>127.03</ele>
        <time>2018-12-15T10:47:20Z</time>
      </trkpt>
      <trkpt lat="43.96306" lon="1.27142">
        <ele>127.03</ele>
        <time>2018-12-15T10:47:30Z</time>
      </trkpt>
      <trkpt lat="43.96306" lon="1.27152">
        <ele>126.55</ele>
        <time>2018-12-15T10:47:39Z</time>
      </trkpt>
      <trkpt lat="43.96306" lon="1.27157">
        <ele>127.03</ele>
        <time>2018-12-15T10:47:43Z</time>
      </trkpt>
      <trkpt lat="43.96309" lon="1.27172">
        <ele>126.55</ele>
        <time>2018-12-15T10:47:56Z</time>
      </trkpt>
      <trkpt lat="43.9631" lon="1.27175">
        <ele>126.55</ele>
        <time>2018-12-15T10:47:59Z</time>
      </trkpt>
      <trkpt lat="43.96315" lon="1.27191">
        <ele>127.03</ele>
        <time>2018-12-15T10:48:12Z</time>
      </trkpt>
      <trkpt lat="43.96322" lon="1.27211">
        <ele>127.03</ele>
        <time>2018-12-15T10:48:25Z</time>
      </trkpt>
      <trkpt lat="43.96326" lon="1.27224">
        <ele>127.03</ele>
        <time>2018-12-15T10:48:33Z</time>
      </trkpt>
      <trkpt lat="43.96329" lon="1.27242">
        <ele>127.99</ele>
        <time>2018-12-15T10:48:46Z</time>
      </trkpt>
      <trkpt lat="43.96335" lon="1.2726">
        <ele>127.99</ele>
        <time>2018-12-15T10:49:00Z</time>
      </trkpt>
      <trkpt lat="43.96336" lon="1.27267">
        <ele>128.47</ele>
        <time>2018-12-15T10:49:05Z</time>
      </trkpt>
      <trkpt lat="43.9634" lon="1.27282">
        <ele>127.99</ele>
        <time>2018-12-15T10:49:18Z</time>
      </trkpt>
      <trkpt lat="43.9634" lon="1.27282">
        <ele>128.47</ele>
        <time>2018-12-15T10:49:19Z</time>
      </trkpt>
      <trkpt lat="43.96337" lon="1.27284">
        <ele>128.47</ele>
        <time>2018-12-15T10:49:23Z</time>
      </trkpt>
      <trkpt lat="43.96331" lon="1.27286">
        <ele>128.95</ele>
        <time>2018-12-15T10:49:31Z</time>
      </trkpt>
      <trkpt lat="43.96319" lon="1.27292">
        <ele>128.95</ele>
        <time>2018-12-15T10:49:46Z</time>
      </trkpt>
      <trkpt lat="43.9631" lon="1.27295">
        <ele>128.95</ele>
        <time>2018-12-15T10:49:55Z</time>
      </trkpt>
      <trkpt lat="43.96305" lon="1.27297">
        <ele>128.95</ele>
        <time>2018-12-15T10:50:00Z</time>
      </trkpt>
      <trkpt lat="43.96294" lon="1.27304">
        <ele>128.47</ele>
        <time>2018-12-15T10:50:13Z</time>
      </trkpt>
      <trkpt lat="43.96282" lon="1.27307">
        <ele>128.47</ele>
        <time>2018-12-15T10:50:25Z</time>
      </trkpt>
      <trkpt lat="43.96275" lon="1.27311">
        <ele>128.95</ele>
        <time>2018-12-15T10:50:33Z</time>
      </trkpt>
      <trkpt lat="43.96262" lon="1.27316">
        <ele>128.47</ele>
        <time>2018-12-15T10:50:46Z</time>
      </trkpt>
      <trkpt lat="43.96261" lon="1.27316">
        <ele>127.99</ele>
        <time>2018-12-15T10:50:47Z</time>
      </trkpt>
      <trkpt lat="43.96254" lon="1.27319">
        <ele>127.99</ele>
        <time>2018-12-15T10:50:55Z</time>
      </trkpt>
      <trkpt lat="43.96242" lon="1.27327">
        <ele>127.51</ele>
        <time>2018-12-15T10:51:08Z</time>
      </trkpt>
      <trkpt lat="43.9624" lon="1.27327">
        <ele>127.51</ele>
        <time>2018-12-15T10:51:10Z</time>
      </trkpt>
      <trkpt lat="43.9623" lon="1.27329">
        <ele>127.03</ele>
        <time>2018-12-15T10:51:20Z</time>
      </trkpt>
      <trkpt lat="43.96222" lon="1.27331">
        <ele>126.55</ele>
        <time>2018-12-15T10:51:28Z</time>
      </trkpt>
      <trkpt lat="43.9621" lon="1.27342">
        <ele>126.07</ele>
        <time>2018-12-15T10:51:41Z</time>
      </trkpt>
      <trkpt lat="43.962" lon="1.27345">
        <ele>125.11</ele>
        <time>2018-12-15T10:51:53Z</time>
      </trkpt>
      <trkpt lat="43.96191" lon="1.2735">
        <ele>123.19</ele>
        <time>2018-12-15T10:52:06Z</time>
      </trkpt>
      <trkpt lat="43.96189" lon="1.2735">
        <ele>123.19</ele>
        <time>2018-12-15T10:52:08Z</time>
      </trkpt>
      <trkpt lat="43.96178" lon="1.27354">
        <ele>122.71</ele>
        <time>2018-12-15T10:52:20Z</time>
      </trkpt>
      <trkpt lat="43.96175" lon="1.27355">
        <ele>122.71</ele>
        <time>2018-12-15T10:52:23Z</time>
      </trkpt>
      <trkpt lat="43.96163" lon="1.27361">
        <ele>122.22</ele>
        <time>2018-12-15T10:52:38Z</time>
      </trkpt>
      <trkpt lat="43.96151" lon="1.27365">
        <ele>121.74</ele>
        <time>2018-12-15T10:52:53Z</time>
      </trkpt>
      <trkpt lat="43.96121" lon="1.27372">
        <ele>122.22</ele>
        <time>2018-12-15T10:55:10Z</time>
      </trkpt>
      <trkpt lat="43.9611" lon="1.27373">
        <ele>121.74</ele>
        <time>2018-12-15T10:55:22Z</time>
      </trkpt>
      <trkpt lat="43.96101" lon="1.27373">
        <ele>122.22</ele>
        <time>2018-12-15T10:55:36Z</time>
      </trkpt>
      <trkpt lat="43.9609" lon="1.27371">
        <ele>122.71</ele>
        <time>2018-12-15T10:55:47Z</time>
      </trkpt>
      <trkpt lat="43.96083" lon="1.27376">
        <ele>122.22</ele>
        <time>2018-12-15T10:55:59Z</time>
      </trkpt>
      <trkpt lat="43.96074" lon="1.2738">
        <ele>123.19</ele>
        <time>2018-12-15T10:56:09Z</time>
      </trkpt>
      <trkpt lat="43.96073" lon="1.27381">
        <ele>123.19</ele>
        <time>2018-12-15T10:56:11Z</time>
      </trkpt>
      <trkpt lat="43.96057" lon="1.27385">
        <ele>122.71</ele>
        <time>2018-12-15T10:56:25Z</time>
      </trkpt>
      <trkpt lat="43.96051" lon="1.27389">
        <ele>123.19</ele>
        <time>2018-12-15T10:56:31Z</time>
      </trkpt>
      <trkpt lat="43.96044" lon="1.27393">
        <ele>123.67</ele>
        <time>2018-12-15T10:56:40Z</time>
      </trkpt>
      <trkpt lat="43.9603" lon="1.27398">
        <ele>122.71</ele>
        <time>2018-12-15T10:56:54Z</time>
      </trkpt>
      <trkpt lat="43.9603" lon="1.27398">
        <ele>123.19</ele>
        <time>2018-12-15T10:56:55Z</time>
      </trkpt>
      <trkpt lat="43.96025" lon="1.27401">
        <ele>123.67</ele>
        <time>2018-12-15T10:57:00Z</time>
      </trkpt>
      <trkpt lat="43.96015" lon="1.27403">
        <ele>123.19</ele>
        <time>2018-12-15T10:57:09Z</time>
      </trkpt>
      <trkpt lat="43.9601" lon="1.27404">
        <ele>124.15</ele>
        <time>2018-12-15T10:57:14Z</time>
      </trkpt>
      <trkpt lat="43.96006" lon="1.27405">
        <ele>123.67</ele>
        <time>2018-12-15T10:57:18Z</time>
      </trkpt>
      <trkpt lat="43.95992" lon="1.27412">
        <ele>124.15</ele>
        <time>2018-12-15T10:57:31Z</time>
      </trkpt>
      <trkpt lat="43.95981" lon="1.27417">
        <ele>124.63</ele>
        <time>2018-12-15T10:57:43Z</time>
      </trkpt>
      <trkpt lat="43.95967" lon="1.27419">
        <ele>124.63</ele>
        <time>2018-12-15T10:57:55Z</time>
      </trkpt>
      <trkpt lat="43.95957" lon="1.27429">
        <ele>124.15</ele>
        <time>2018-12-15T10:58:08Z</time>
      </trkpt>
      <trkpt lat="43.95956" lon="1.27433">
        <ele>124.63</ele>
        <time>2018-12-15T10:58:12Z</time>
      </trkpt>
      <trkpt lat="43.9595" lon="1.27435">
        <ele>124.15</ele>
        <time>2018-12-15T10:58:18Z</time>
      </trkpt>
      <trkpt lat="43.95937" lon="1.2744">
        <ele>124.63</ele>
        <time>2018-12-15T10:58:31Z</time>
      </trkpt>
      <trkpt lat="43.95928" lon="1.27446">
        <ele>125.11</ele>
        <time>2018-12-15T10:58:42Z</time>
      </trkpt>
      <trkpt lat="43.95918" lon="1.2745">
        <ele>125.59</ele>
        <time>2018-12-15T10:58:49Z</time>
      </trkpt>
      <trkpt lat="43.95908" lon="1.27455">
        <ele>125.59</ele>
        <time>2018-12-15T10:58:58Z</time>
      </trkpt>
      <trkpt lat="43.95902" lon="1.27457">
        <ele>125.59</ele>
        <time>2018-12-15T10:59:03Z</time>
      </trkpt>
      <trkpt lat="43.95882" lon="1.27465">
        <ele>126.07</ele>
        <time>2018-12-15T10:59:17Z</time>
      </trkpt>
      <trkpt lat="43.95881" lon="1.27466">
        <ele>125.59</ele>
        <time>2018-12-15T10:59:18Z</time>
      </trkpt>
      <trkpt lat="43.95872" lon="1.27473">
        <ele>126.07</ele>
        <time>2018-12-15T10:59:24Z</time>
      </trkpt>
      <trkpt lat="43.95861" lon="1.275">
        <ele>126.07</ele>
        <time>2018-12-15T10:59:36Z</time>
      </trkpt>
      <trkpt lat="43.95861" lon="1.27511">
        <ele>126.07</ele>
        <time>2018-12-15T10:59:42Z</time>
      </trkpt>
      <trkpt lat="43.95861" lon="1.27521">
        <ele>126.07</ele>
        <time>2018-12-15T10:59:51Z</time>
      </trkpt>
      <trkpt lat="43.95863" lon="1.27535">
        <ele>126.07</ele>
        <time>2018-12-15T11:00:03Z</time>
      </trkpt>
      <trkpt lat="43.95863" lon="1.27543">
        <ele>126.07</ele>
        <time>2018-12-15T11:00:07Z</time>
      </trkpt>
      <trkpt lat="43.9586" lon="1.27562">
        <ele>125.11</ele>
        <time>2018-12-15T11:00:20Z</time>
      </trkpt>
      <trkpt lat="43.95858" lon="1.27577">
        <ele>125.59</ele>
        <time>2018-12-15T11:00:30Z</time>
      </trkpt>
      <trkpt lat="43.95858" lon="1.2759">
        <ele>126.07</ele>
        <time>2018-12-15T11:00:42Z</time>
      </trkpt>
      <trkpt lat="43.95858" lon="1.27603">
        <ele>126.07</ele>
        <time>2018-12-15T11:00:52Z</time>
      </trkpt>
      <trkpt lat="43.95858" lon="1.27608">
        <ele>126.07</ele>
        <time>2018-12-15T11:00:56Z</time>
      </trkpt>
      <trkpt lat="43.95864" lon="1.27625">
        <ele>126.55</ele>
        <time>2018-12-15T11:01:04Z</time>
      </trkpt>
      <trkpt lat="43.95864" lon="1.27633">
        <ele>126.55</ele>
        <time>2018-12-15T11:01:10Z</time>
      </trkpt>
      <trkpt lat="43.95862" lon="1.27639">
        <ele>126.07</ele>
        <time>2018-12-15T11:01:15Z</time>
      </trkpt>
      <trkpt lat="43.95861" lon="1.27643">
        <ele>126.55</ele>
        <time>2018-12-15T11:01:19Z</time>
      </trkpt>
      <trkpt lat="43.9586" lon="1.27646">
        <ele>127.03</ele>
        <time>2018-12-15T11:01:21Z</time>
      </trkpt>
      <trkpt lat="43.9586" lon="1.27653">
        <ele>127.03</ele>
        <time>2018-12-15T11:01:27Z</time>
      </trkpt>
      <trkpt lat="43.95859" lon="1.27661">
        <ele>126.55</ele>
        <time>2018-12-15T11:01:32Z</time>
      </trkpt>
      <trkpt lat="43.95863" lon="1.27682">
        <ele>127.03</ele>
        <time>2018-12-15T11:01:45Z</time>
      </trkpt>
      <trkpt lat="43.95866" lon="1.27696">
        <ele>126.55</ele>
        <time>2018-12-15T11:01:57Z</time>
      </trkpt>
      <trkpt lat="43.95867" lon="1.277">
        <ele>126.07</ele>
        <time>2018-12-15T11:01:59Z</time>
      </trkpt>
      <trkpt lat="43.95868" lon="1.27706">
        <ele>126.55</ele>
        <time>2018-12-15T11:02:02Z</time>
      </trkpt>
      <trkpt lat="43.9587" lon="1.27724">
        <ele>126.55</ele>
        <time>2018-12-15T11:02:15Z</time>
      </trkpt>
      <trkpt lat="43.95875" lon="1.27744">
        <ele>127.03</ele>
        <time>2018-12-15T11:02:27Z</time>
      </trkpt>
      <trkpt lat="43.95881" lon="1.27762">
        <ele>127.03</ele>
        <time>2018-12-15T11:02:38Z</time>
      </trkpt>
      <trkpt lat="43.95881" lon="1.27763">
        <ele>127.03</ele>
        <time>2018-12-15T11:02:39Z</time>
      </trkpt>
      <trkpt lat="43.95881" lon="1.2777">
        <ele>126.55</ele>
        <time>2018-12-15T11:02:43Z</time>
      </trkpt>
      <trkpt lat="43.95881" lon="1.27786">
        <ele>127.03</ele>
        <time>2018-12-15T11:02:53Z</time>
      </trkpt>
      <trkpt lat="43.95883" lon="1.27804">
        <ele>127.03</ele>
        <time>2018-12-15T11:03:07Z</time>
      </trkpt>
      <trkpt lat="43.95884" lon="1.27812">
        <ele>126.55</ele>
        <time>2018-12-15T11:03:14Z</time>
      </trkpt>
      <trkpt lat="43.95884" lon="1.27827">
        <ele>127.51</ele>
        <time>2018-12-15T11:03:28Z</time>
      </trkpt>
      <trkpt lat="43.95887" lon="1.27853">
        <ele>127.51</ele>
        <time>2018-12-15T11:03:44Z</time>
      </trkpt>
      <trkpt lat="43.9589" lon="1.27867">
        <ele>127.51</ele>
        <time>2018-12-15T11:03:56Z</time>
      </trkpt>
      <trkpt lat="43.95896" lon="1.27889">
        <ele>127.99</ele>
        <time>2018-12-15T11:04:13Z</time>
      </trkpt>
      <trkpt lat="43.95896" lon="1.27891">
        <ele>127.99</ele>
        <time>2018-12-15T11:04:15Z</time>
      </trkpt>
      <trkpt lat="43.95902" lon="1.27915">
        <ele>127.51</ele>
        <time>2018-12-15T11:04:30Z</time>
      </trkpt>
      <trkpt lat="43.95902" lon="1.2793">
        <ele>127.99</ele>
        <time>2018-12-15T11:04:37Z</time>
      </trkpt>
      <trkpt lat="43.95902" lon="1.27937">
        <ele>127.51</ele>
        <time>2018-12-15T11:04:47Z</time>
      </trkpt>
      <trkpt lat="43.95898" lon="1.27938">
        <ele>127.99</ele>
        <time>2018-12-15T11:04:59Z</time>
      </trkpt>
      <trkpt lat="43.95896" lon="1.27939">
        <ele>127.51</ele>
        <time>2018-12-15T11:05:02Z</time>
      </trkpt>
      <trkpt lat="43.95887" lon="1.27939">
        <ele>127.99</ele>
        <time>2018-12-15T11:05:14Z</time>
      </trkpt>
      <trkpt lat="43.95885" lon="1.27944">
        <ele>127.99</ele>
        <time>2018-12-15T11:05:18Z</time>
      </trkpt>
      <trkpt lat="43.95869" lon="1.2795">
        <ele>128.47</ele>
        <time>2018-12-15T11:05:30Z</time>
      </trkpt>
      <trkpt lat="43.9586" lon="1.27956">
        <ele>128.47</ele>
        <time>2018-12-15T11:05:42Z</time>
      </trkpt>
      <trkpt lat="43.95856" lon="1.27958">
        <ele>128.47</ele>
        <time>2018-12-15T11:05:46Z</time>
      </trkpt>
      <trkpt lat="43.95845" lon="1.27965">
        <ele>128.95</ele>
        <time>2018-12-15T11:05:59Z</time>
      </trkpt>
      <trkpt lat="43.9584" lon="1.27964">
        <ele>129.43</ele>
        <time>2018-12-15T11:06:03Z</time>
      </trkpt>
      <trkpt lat="43.95835" lon="1.27971">
        <ele>129.43</ele>
        <time>2018-12-15T11:06:15Z</time>
      </trkpt>
      <trkpt lat="43.95827" lon="1.27975">
        <ele>129.92</ele>
        <time>2018-12-15T11:06:23Z</time>
      </trkpt>
      <trkpt lat="43.95819" lon="1.27976">
        <ele>131.36</ele>
        <time>2018-12-15T11:06:30Z</time>
      </trkpt>
      <trkpt lat="43.9581" lon="1.2798">
        <ele>131.36</ele>
        <time>2018-12-15T11:06:41Z</time>
      </trkpt>
      <trkpt lat="43.95809" lon="1.2798">
        <ele>131.36</ele>
        <time>2018-12-15T11:06:42Z</time>
      </trkpt>
      <trkpt lat="43.95802" lon="1.27985">
        <ele>132.8</ele>
        <time>2018-12-15T11:06:53Z</time>
      </trkpt>
      <trkpt lat="43.95794" lon="1.27991">
        <ele>132.8</ele>
        <time>2018-12-15T11:07:00Z</time>
      </trkpt>
      <trkpt lat="43.95791" lon="1.27993">
        <ele>133.28</ele>
        <time>2018-12-15T11:07:03Z</time>
      </trkpt>
      <trkpt lat="43.95783" lon="1.28">
        <ele>132.8</ele>
        <time>2018-12-15T11:07:11Z</time>
      </trkpt>
      <trkpt lat="43.9578" lon="1.28002">
        <ele>132.8</ele>
        <time>2018-12-15T11:07:14Z</time>
      </trkpt>
      <trkpt lat="43.95766" lon="1.28008">
        <ele>133.76</ele>
        <time>2018-12-15T11:07:26Z</time>
      </trkpt>
      <trkpt lat="43.95757" lon="1.28013">
        <ele>133.76</ele>
        <time>2018-12-15T11:07:37Z</time>
      </trkpt>
      <trkpt lat="43.95746" lon="1.28021">
        <ele>133.28</ele>
        <time>2018-12-15T11:07:48Z</time>
      </trkpt>
      <trkpt lat="43.95745" lon="1.28021">
        <ele>134.24</ele>
        <time>2018-12-15T11:07:49Z</time>
      </trkpt>
      <trkpt lat="43.95742" lon="1.28022">
        <ele>133.76</ele>
        <time>2018-12-15T11:07:51Z</time>
      </trkpt>
      <trkpt lat="43.9573" lon="1.28026">
        <ele>132.8</ele>
        <time>2018-12-15T11:08:03Z</time>
      </trkpt>
      <trkpt lat="43.95721" lon="1.28029">
        <ele>132.32</ele>
        <time>2018-12-15T11:08:15Z</time>
      </trkpt>
      <trkpt lat="43.95711" lon="1.2803">
        <ele>131.36</ele>
        <time>2018-12-15T11:08:26Z</time>
      </trkpt>
      <trkpt lat="43.957" lon="1.28034">
        <ele>130.4</ele>
        <time>2018-12-15T11:08:39Z</time>
      </trkpt>
      <trkpt lat="43.9569" lon="1.28038">
        <ele>130.4</ele>
        <time>2018-12-15T11:08:51Z</time>
      </trkpt>
      <trkpt lat="43.95688" lon="1.28038">
        <ele>130.88</ele>
        <time>2018-12-15T11:08:53Z</time>
      </trkpt>
      <trkpt lat="43.95678" lon="1.28037">
        <ele>130.4</ele>
        <time>2018-12-15T11:09:01Z</time>
      </trkpt>
      <trkpt lat="43.9567" lon="1.28034">
        <ele>129.92</ele>
        <time>2018-12-15T11:09:14Z</time>
      </trkpt>
      <trkpt lat="43.95661" lon="1.2804">
        <ele>130.4</ele>
        <time>2018-12-15T11:09:26Z</time>
      </trkpt>
      <trkpt lat="43.95659" lon="1.28041">
        <ele>130.4</ele>
        <time>2018-12-15T11:09:29Z</time>
      </trkpt>
      <trkpt lat="43.95648" lon="1.28045">
        <ele>130.88</ele>
        <time>2018-12-15T11:09:42Z</time>
      </trkpt>
      <trkpt lat="43.95637" lon="1.28051">
        <ele>130.88</ele>
        <time>2018-12-15T11:09:55Z</time>
      </trkpt>
      <trkpt lat="43.95619" lon="1.28062">
        <ele>131.84</ele>
        <time>2018-12-15T11:10:08Z</time>
      </trkpt>
      <trkpt lat="43.95598" lon="1.28073">
        <ele>132.32</ele>
        <time>2018-12-15T11:10:20Z</time>
      </trkpt>
      <trkpt lat="43.95587" lon="1.28076">
        <ele>132.32</ele>
        <time>2018-12-15T11:10:34Z</time>
      </trkpt>
      <trkpt lat="43.95588" lon="1.28072">
        <ele>132.32</ele>
        <time>2018-12-15T11:10:48Z</time>
      </trkpt>
      <trkpt lat="43.95584" lon="1.28061">
        <ele>132.32</ele>
        <time>2018-12-15T11:11:02Z</time>
      </trkpt>
      <trkpt lat="43.95578" lon="1.28056">
        <ele>132.32</ele>
        <time>2018-12-15T11:11:18Z</time>
      </trkpt>
      <trkpt lat="43.95576" lon="1.28055">
        <ele>132.32</ele>
        <time>2018-12-15T11:11:20Z</time>
      </trkpt>
      <trkpt lat="43.95573" lon="1.28046">
        <ele>132.8</ele>
        <time>2018-12-15T11:11:30Z</time>
      </trkpt>
      <trkpt lat="43.95572" lon="1.2804">
        <ele>132.8</ele>
        <time>2018-12-15T11:11:34Z</time>
      </trkpt>
      <trkpt lat="43.95563" lon="1.28025">
        <ele>132.32</ele>
        <time>2018-12-15T11:11:49Z</time>
      </trkpt>
      <trkpt lat="43.95556" lon="1.2801">
        <ele>133.28</ele>
        <time>2018-12-15T11:12:00Z</time>
      </trkpt>
      <trkpt lat="43.95554" lon="1.28003">
        <ele>132.32</ele>
        <time>2018-12-15T11:12:05Z</time>
      </trkpt>
      <trkpt lat="43.95551" lon="1.27997">
        <ele>132.8</ele>
        <time>2018-12-15T11:12:10Z</time>
      </trkpt>
      <trkpt lat="43.95548" lon="1.27993">
        <ele>132.8</ele>
        <time>2018-12-15T11:12:14Z</time>
      </trkpt>
      <trkpt lat="43.95531" lon="1.27988">
        <ele>133.28</ele>
        <time>2018-12-15T11:12:28Z</time>
      </trkpt>
      <trkpt lat="43.9553" lon="1.27988">
        <ele>133.76</ele>
        <time>2018-12-15T11:12:31Z</time>
      </trkpt>
      <trkpt lat="43.95525" lon="1.27986">
        <ele>133.76</ele>
        <time>2018-12-15T11:12:35Z</time>
      </trkpt>
      <trkpt lat="43.9552" lon="1.2797">
        <ele>132.8</ele>
        <time>2018-12-15T11:12:48Z</time>
      </trkpt>
      <trkpt lat="43.95515" lon="1.27955">
        <ele>133.28</ele>
        <time>2018-12-15T11:13:00Z</time>
      </trkpt>
      <trkpt lat="43.95512" lon="1.27938">
        <ele>133.28</ele>
        <time>2018-12-15T11:13:14Z</time>
      </trkpt>
      <trkpt lat="43.95502" lon="1.27922">
        <ele>133.76</ele>
        <time>2018-12-15T11:13:26Z</time>
      </trkpt>
      <trkpt lat="43.95497" lon="1.27904">
        <ele>133.28</ele>
        <time>2018-12-15T11:13:38Z</time>
      </trkpt>
      <trkpt lat="43.95495" lon="1.27886">
        <ele>133.76</ele>
        <time>2018-12-15T11:13:50Z</time>
      </trkpt>
      <trkpt lat="43.95491" lon="1.27872">
        <ele>132.8</ele>
        <time>2018-12-15T11:14:02Z</time>
      </trkpt>
      <trkpt lat="43.95488" lon="1.27857">
        <ele>133.28</ele>
        <time>2018-12-15T11:14:14Z</time>
      </trkpt>
      <trkpt lat="43.95486" lon="1.27845">
        <ele>133.28</ele>
        <time>2018-12-15T11:14:23Z</time>
      </trkpt>
      <trkpt lat="43.9548" lon="1.2783">
        <ele>133.28</ele>
        <time>2018-12-15T11:14:37Z</time>
      </trkpt>
      <trkpt lat="43.95476" lon="1.27812">
        <ele>133.76</ele>
        <time>2018-12-15T11:14:50Z</time>
      </trkpt>
      <trkpt lat="43.95473" lon="1.27798">
        <ele>134.24</ele>
        <time>2018-12-15T11:15:00Z</time>
      </trkpt>
      <trkpt lat="43.95473" lon="1.27796">
        <ele>134.24</ele>
        <time>2018-12-15T11:15:02Z</time>
      </trkpt>
      <trkpt lat="43.95472" lon="1.27793">
        <ele>134.72</ele>
        <time>2018-12-15T11:15:04Z</time>
      </trkpt>
      <trkpt lat="43.95468" lon="1.27775">
        <ele>134.72</ele>
        <time>2018-12-15T11:15:18Z</time>
      </trkpt>
      <trkpt lat="43.95463" lon="1.27756">
        <ele>134.72</ele>
        <time>2018-12-15T11:15:32Z</time>
      </trkpt>
      <trkpt lat="43.95455" lon="1.2774">
        <ele>134.24</ele>
        <time>2018-12-15T11:15:45Z</time>
      </trkpt>
      <trkpt lat="43.95453" lon="1.27733">
        <ele>134.24</ele>
        <time>2018-12-15T11:15:51Z</time>
      </trkpt>
      <trkpt lat="43.95452" lon="1.27724">
        <ele>134.24</ele>
        <time>2018-12-15T11:15:57Z</time>
      </trkpt>
      <trkpt lat="43.95448" lon="1.27705">
        <ele>133.28</ele>
        <time>2018-12-15T11:16:10Z</time>
      </trkpt>
      <trkpt lat="43.95446" lon="1.27695">
        <ele>133.28</ele>
        <time>2018-12-15T11:16:17Z</time>
      </trkpt>
      <trkpt lat="43.95442" lon="1.2767">
        <ele>132.32</ele>
        <time>2018-12-15T11:16:30Z</time>
      </trkpt>
      <trkpt lat="43.95441" lon="1.2765">
        <ele>132.32</ele>
        <time>2018-12-15T11:16:42Z</time>
      </trkpt>
      <trkpt lat="43.95438" lon="1.27638">
        <ele>132.32</ele>
        <time>2018-12-15T11:16:50Z</time>
      </trkpt>
      <trkpt lat="43.95434" lon="1.27622">
        <ele>131.84</ele>
        <time>2018-12-15T11:17:02Z</time>
      </trkpt>
      <trkpt lat="43.9543" lon="1.27609">
        <ele>131.84</ele>
        <time>2018-12-15T11:17:11Z</time>
      </trkpt>
      <trkpt lat="43.95429" lon="1.27606">
        <ele>132.32</ele>
        <time>2018-12-15T11:17:13Z</time>
      </trkpt>
      <trkpt lat="43.95426" lon="1.27597">
        <ele>132.32</ele>
        <time>2018-12-15T11:17:19Z</time>
      </trkpt>
      <trkpt lat="43.9542" lon="1.27582">
        <ele>131.84</ele>
        <time>2018-12-15T11:17:31Z</time>
      </trkpt>
      <trkpt lat="43.95415" lon="1.27567">
        <ele>132.32</ele>
        <time>2018-12-15T11:17:42Z</time>
      </trkpt>
      <trkpt lat="43.9541" lon="1.27552">
        <ele>132.32</ele>
        <time>2018-12-15T11:17:55Z</time>
      </trkpt>
      <trkpt lat="43.95409" lon="1.27549">
        <ele>132.8</ele>
        <time>2018-12-15T11:17:57Z</time>
      </trkpt>
      <trkpt lat="43.95401" lon="1.27509">
        <ele>135.68</ele>
        <time>2018-12-15T11:19:09Z</time>
      </trkpt>
      <trkpt lat="43.95401" lon="1.27508">
        <ele>132.8</ele>
        <time>2018-12-15T11:19:10Z</time>
      </trkpt>
      <trkpt lat="43.95401" lon="1.27506">
        <ele>132.32</ele>
        <time>2018-12-15T11:19:12Z</time>
      </trkpt>
      <trkpt lat="43.95398" lon="1.27492">
        <ele>132.8</ele>
        <time>2018-12-15T11:19:24Z</time>
      </trkpt>
      <trkpt lat="43.95397" lon="1.27479">
        <ele>131.84</ele>
        <time>2018-12-15T11:19:37Z</time>
      </trkpt>
      <trkpt lat="43.95397" lon="1.27468">
        <ele>132.8</ele>
        <time>2018-12-15T11:19:52Z</time>
      </trkpt>
      <trkpt lat="43.95395" lon="1.27453">
        <ele>132.32</ele>
        <time>2018-12-15T11:20:06Z</time>
      </trkpt>
      <trkpt lat="43.95394" lon="1.27427">
        <ele>132.8</ele>
        <time>2018-12-15T11:20:26Z</time>
      </trkpt>
      <trkpt lat="43.9539" lon="1.27417">
        <ele>132.8</ele>
        <time>2018-12-15T11:20:39Z</time>
      </trkpt>
      <trkpt lat="43.95382" lon="1.27401">
        <ele>132.32</ele>
        <time>2018-12-15T11:20:52Z</time>
      </trkpt>
      <trkpt lat="43.9538" lon="1.27381">
        <ele>131.36</ele>
        <time>2018-12-15T11:21:05Z</time>
      </trkpt>
      <trkpt lat="43.95376" lon="1.27367">
        <ele>131.84</ele>
        <time>2018-12-15T11:21:17Z</time>
      </trkpt>
      <trkpt lat="43.95372" lon="1.27343">
        <ele>131.36</ele>
        <time>2018-12-15T11:21:31Z</time>
      </trkpt>
      <trkpt lat="43.95367" lon="1.27328">
        <ele>131.84</ele>
        <time>2018-12-15T11:21:43Z</time>
      </trkpt>
      <trkpt lat="43.95365" lon="1.27324">
        <ele>131.84</ele>
        <time>2018-12-15T11:21:47Z</time>
      </trkpt>
      <trkpt lat="43.9536" lon="1.27305">
        <ele>131.36</ele>
        <time>2018-12-15T11:22:00Z</time>
      </trkpt>
      <trkpt lat="43.95357" lon="1.27293">
        <ele>130.88</ele>
        <time>2018-12-15T11:22:11Z</time>
      </trkpt>
      <trkpt lat="43.95353" lon="1.27278">
        <ele>131.36</ele>
        <time>2018-12-15T11:22:23Z</time>
      </trkpt>
      <trkpt lat="43.9535" lon="1.27272">
        <ele>131.36</ele>
        <time>2018-12-15T11:22:30Z</time>
      </trkpt>
      <trkpt lat="43.95345" lon="1.27261">
        <ele>131.84</ele>
        <time>2018-12-15T11:22:40Z</time>
      </trkpt>
      <trkpt lat="43.95343" lon="1.27243">
        <ele>131.36</ele>
        <time>2018-12-15T11:22:52Z</time>
      </trkpt>
      <trkpt lat="43.95338" lon="1.27223">
        <ele>131.84</ele>
        <time>2018-12-15T11:23:04Z</time>
      </trkpt>
      <trkpt lat="43.95334" lon="1.272">
        <ele>132.32</ele>
        <time>2018-12-15T11:23:15Z</time>
      </trkpt>
      <trkpt lat="43.95335" lon="1.27175">
        <ele>132.8</ele>
        <time>2018-12-15T11:23:26Z</time>
      </trkpt>
      <trkpt lat="43.95332" lon="1.27156">
        <ele>131.84</ele>
        <time>2018-12-15T11:23:36Z</time>
      </trkpt>
      <trkpt lat="43.95328" lon="1.27141">
        <ele>131.84</ele>
        <time>2018-12-15T11:23:47Z</time>
      </trkpt>
      <trkpt lat="43.95324" lon="1.27125">
        <ele>131.84</ele>
        <time>2018-12-15T11:24:00Z</time>
      </trkpt>
      <trkpt lat="43.95322" lon="1.27118">
        <ele>132.32</ele>
        <time>2018-12-15T11:24:12Z</time>
      </trkpt>
      <trkpt lat="43.95319" lon="1.27108">
        <ele>133.28</ele>
        <time>2018-12-15T11:26:22Z</time>
      </trkpt>
      <trkpt lat="43.95307" lon="1.27111">
        <ele>133.28</ele>
        <time>2018-12-15T11:26:34Z</time>
      </trkpt>
      <trkpt lat="43.95298" lon="1.27112">
        <ele>132.8</ele>
        <time>2018-12-15T11:26:43Z</time>
      </trkpt>
      <trkpt lat="43.95294" lon="1.27113">
        <ele>133.28</ele>
        <time>2018-12-15T11:26:47Z</time>
      </trkpt>
      <trkpt lat="43.95278" lon="1.27116">
        <ele>132.8</ele>
        <time>2018-12-15T11:27:01Z</time>
      </trkpt>
      <trkpt lat="43.95261" lon="1.27119">
        <ele>133.28</ele>
        <time>2018-12-15T11:27:15Z</time>
      </trkpt>
      <trkpt lat="43.95249" lon="1.27123">
        <ele>133.28</ele>
        <time>2018-12-15T11:27:27Z</time>
      </trkpt>
      <trkpt lat="43.95238" lon="1.27125">
        <ele>133.76</ele>
        <time>2018-12-15T11:27:37Z</time>
      </trkpt>
      <trkpt lat="43.95233" lon="1.2713">
        <ele>133.28</ele>
        <time>2018-12-15T11:27:43Z</time>
      </trkpt>
      <trkpt lat="43.9522" lon="1.2714">
        <ele>133.28</ele>
        <time>2018-12-15T11:27:57Z</time>
      </trkpt>
      <trkpt lat="43.95213" lon="1.27142">
        <ele>134.24</ele>
        <time>2018-12-15T11:28:03Z</time>
      </trkpt>
      <trkpt lat="43.952" lon="1.27149">
        <ele>133.76</ele>
        <time>2018-12-15T11:28:17Z</time>
      </trkpt>
      <trkpt lat="43.95186" lon="1.27154">
        <ele>133.76</ele>
        <time>2018-12-15T11:28:30Z</time>
      </trkpt>
      <trkpt lat="43.95175" lon="1.27159">
        <ele>133.28</ele>
        <time>2018-12-15T11:28:41Z</time>
      </trkpt>
      <trkpt lat="43.95162" lon="1.27165">
        <ele>133.28</ele>
        <time>2018-12-15T11:28:53Z</time>
      </trkpt>
      <trkpt lat="43.95148" lon="1.27172">
        <ele>132.8</ele>
        <time>2018-12-15T11:29:06Z</time>
      </trkpt>
      <trkpt lat="43.95137" lon="1.27174">
        <ele>132.8</ele>
        <time>2018-12-15T11:29:17Z</time>
      </trkpt>
      <trkpt lat="43.9512" lon="1.27177">
        <ele>131.84</ele>
        <time>2018-12-15T11:29:31Z</time>
      </trkpt>
      <trkpt lat="43.95108" lon="1.27182">
        <ele>131.84</ele>
        <time>2018-12-15T11:29:44Z</time>
      </trkpt>
      <trkpt lat="43.95092" lon="1.27188">
        <ele>131.36</ele>
        <time>2018-12-15T11:29:57Z</time>
      </trkpt>
      <trkpt lat="43.95085" lon="1.27189">
        <ele>130.88</ele>
        <time>2018-12-15T11:30:02Z</time>
      </trkpt>
      <trkpt lat="43.95079" lon="1.27192">
        <ele>131.36</ele>
        <time>2018-12-15T11:30:09Z</time>
      </trkpt>
      <trkpt lat="43.95077" lon="1.27193">
        <ele>131.36</ele>
        <time>2018-12-15T11:30:12Z</time>
      </trkpt>
      <trkpt lat="43.95071" lon="1.27195">
        <ele>131.36</ele>
        <time>2018-12-15T11:30:20Z</time>
      </trkpt>
      <trkpt lat="43.95058" lon="1.27198">
        <ele>130.88</ele>
        <time>2018-12-15T11:30:34Z</time>
      </trkpt>
      <trkpt lat="43.95044" lon="1.27202">
        <ele>131.36</ele>
        <time>2018-12-15T11:30:48Z</time>
      </trkpt>
      <trkpt lat="43.95028" lon="1.27209">
        <ele>131.84</ele>
        <time>2018-12-15T11:31:00Z</time>
      </trkpt>
      <trkpt lat="43.95013" lon="1.27214">
        <ele>131.36</ele>
        <time>2018-12-15T11:31:13Z</time>
      </trkpt>
      <trkpt lat="43.94995" lon="1.27224">
        <ele>131.84</ele>
        <time>2018-12-15T11:31:27Z</time>
      </trkpt>
      <trkpt lat="43.94987" lon="1.27229">
        <ele>132.32</ele>
        <time>2018-12-15T11:31:35Z</time>
      </trkpt>
      <trkpt lat="43.94977" lon="1.27234">
        <ele>132.32</ele>
        <time>2018-12-15T11:31:45Z</time>
      </trkpt>
      <trkpt lat="43.94962" lon="1.27242">
        <ele>132.32</ele>
        <time>2018-12-15T11:31:57Z</time>
      </trkpt>
      <trkpt lat="43.94948" lon="1.2725">
        <ele>131.84</ele>
        <time>2018-12-15T11:32:10Z</time>
      </trkpt>
      <trkpt lat="43.94941" lon="1.27253">
        <ele>132.32</ele>
        <time>2018-12-15T11:32:17Z</time>
      </trkpt>
      <trkpt lat="43.94937" lon="1.27255">
        <ele>131.84</ele>
        <time>2018-12-15T11:32:23Z</time>
      </trkpt>
      <trkpt lat="43.94922" lon="1.27259">
        <ele>132.8</ele>
        <time>2018-12-15T11:32:35Z</time>
      </trkpt>
      <trkpt lat="43.9491" lon="1.27261">
        <ele>132.8</ele>
        <time>2018-12-15T11:32:46Z</time>
      </trkpt>
      <trkpt lat="43.94899" lon="1.27266">
        <ele>133.28</ele>
        <time>2018-12-15T11:32:56Z</time>
      </trkpt>
      <trkpt lat="43.94888" lon="1.2727">
        <ele>133.76</ele>
        <time>2018-12-15T11:33:09Z</time>
      </trkpt>
      <trkpt lat="43.94876" lon="1.27275">
        <ele>134.24</ele>
        <time>2018-12-15T11:33:21Z</time>
      </trkpt>
      <trkpt lat="43.94875" lon="1.27275">
        <ele>135.2</ele>
        <time>2018-12-15T11:33:22Z</time>
      </trkpt>
      <trkpt lat="43.9486" lon="1.2728">
        <ele>134.72</ele>
        <time>2018-12-15T11:33:36Z</time>
      </trkpt>
      <trkpt lat="43.94845" lon="1.2729">
        <ele>135.2</ele>
        <time>2018-12-15T11:33:51Z</time>
      </trkpt>
      <trkpt lat="43.94833" lon="1.27294">
        <ele>133.76</ele>
        <time>2018-12-15T11:34:04Z</time>
      </trkpt>
      <trkpt lat="43.94827" lon="1.27296">
        <ele>133.76</ele>
        <time>2018-12-15T11:34:10Z</time>
      </trkpt>
      <trkpt lat="43.94814" lon="1.27304">
        <ele>133.76</ele>
        <time>2018-12-15T11:34:24Z</time>
      </trkpt>
      <trkpt lat="43.94811" lon="1.27305">
        <ele>132.8</ele>
        <time>2018-12-15T11:34:27Z</time>
      </trkpt>
      <trkpt lat="43.94794" lon="1.2731">
        <ele>133.76</ele>
        <time>2018-12-15T11:34:40Z</time>
      </trkpt>
      <trkpt lat="43.94785" lon="1.27314">
        <ele>133.76</ele>
        <time>2018-12-15T11:34:53Z</time>
      </trkpt>
      <trkpt lat="43.94768" lon="1.27319">
        <ele>135.2</ele>
        <time>2018-12-15T11:35:08Z</time>
      </trkpt>
      <trkpt lat="43.94746" lon="1.27329">
        <ele>135.2</ele>
        <time>2018-12-15T11:35:22Z</time>
      </trkpt>
      <trkpt lat="43.94744" lon="1.2733">
        <ele>134.72</ele>
        <time>2018-12-15T11:35:24Z</time>
      </trkpt>
      <trkpt lat="43.9473" lon="1.27336">
        <ele>134.72</ele>
        <time>2018-12-15T11:35:36Z</time>
      </trkpt>
      <trkpt lat="43.94718" lon="1.27342">
        <ele>134.72</ele>
        <time>2018-12-15T11:35:47Z</time>
      </trkpt>
      <trkpt lat="43.94705" lon="1.2735">
        <ele>135.2</ele>
        <time>2018-12-15T11:35:58Z</time>
      </trkpt>
      <trkpt lat="43.9469" lon="1.27356">
        <ele>134.72</ele>
        <time>2018-12-15T11:36:11Z</time>
      </trkpt>
      <trkpt lat="43.94681" lon="1.2736">
        <ele>134.72</ele>
        <time>2018-12-15T11:36:20Z</time>
      </trkpt>
      <trkpt lat="43.94666" lon="1.27368">
        <ele>134.72</ele>
        <time>2018-12-15T11:36:34Z</time>
      </trkpt>
      <trkpt lat="43.94653" lon="1.27375">
        <ele>134.24</ele>
        <time>2018-12-15T11:36:46Z</time>
      </trkpt>
      <trkpt lat="43.94641" lon="1.27382">
        <ele>134.24</ele>
        <time>2018-12-15T11:37:00Z</time>
      </trkpt>
      <trkpt lat="43.94636" lon="1.27382">
        <ele>133.76</ele>
        <time>2018-12-15T11:37:04Z</time>
      </trkpt>
      <trkpt lat="43.94622" lon="1.27385">
        <ele>133.76</ele>
        <time>2018-12-15T11:37:17Z</time>
      </trkpt>
      <trkpt lat="43.9461" lon="1.2739">
        <ele>133.76</ele>
        <time>2018-12-15T11:37:31Z</time>
      </trkpt>
      <trkpt lat="43.94599" lon="1.27396">
        <ele>134.24</ele>
        <time>2018-12-15T11:37:45Z</time>
      </trkpt>
      <trkpt lat="43.94592" lon="1.27397">
        <ele>134.24</ele>
        <time>2018-12-15T11:37:54Z</time>
      </trkpt>
      <trkpt lat="43.94581" lon="1.27398">
        <ele>133.28</ele>
        <time>2018-12-15T11:38:07Z</time>
      </trkpt>
      <trkpt lat="43.9457" lon="1.274">
        <ele>134.24</ele>
        <time>2018-12-15T11:38:18Z</time>
      </trkpt>
      <trkpt lat="43.94558" lon="1.27405">
        <ele>133.76</ele>
        <time>2018-12-15T11:38:33Z</time>
      </trkpt>
      <trkpt lat="43.94556" lon="1.27405">
        <ele>133.28</ele>
        <time>2018-12-15T11:38:35Z</time>
      </trkpt>
      <trkpt lat="43.94536" lon="1.27413">
        <ele>133.28</ele>
        <time>2018-12-15T11:38:49Z</time>
      </trkpt>
      <trkpt lat="43.94516" lon="1.27419">
        <ele>133.28</ele>
        <time>2018-12-15T11:39:06Z</time>
      </trkpt>
      <trkpt lat="43.94502" lon="1.27425">
        <ele>133.28</ele>
        <time>2018-12-15T11:39:22Z</time>
      </trkpt>
      <trkpt lat="43.94493" lon="1.27433">
        <ele>133.28</ele>
        <time>2018-12-15T11:39:34Z</time>
      </trkpt>
      <trkpt lat="43.94476" lon="1.27439">
        <ele>132.8</ele>
        <time>2018-12-15T11:39:50Z</time>
      </trkpt>
      <trkpt lat="43.94462" lon="1.2744">
        <ele>132.8</ele>
        <time>2018-12-15T11:40:03Z</time>
      </trkpt>
      <trkpt lat="43.94458" lon="1.2744">
        <ele>133.28</ele>
        <time>2018-12-15T11:40:06Z</time>
      </trkpt>
      <trkpt lat="43.94446" lon="1.27447">
        <ele>133.76</ele>
        <time>2018-12-15T11:40:17Z</time>
      </trkpt>
      <trkpt lat="43.94436" lon="1.27448">
        <ele>133.28</ele>
        <time>2018-12-15T11:40:25Z</time>
      </trkpt>
      <trkpt lat="43.94429" lon="1.27453">
        <ele>133.76</ele>
        <time>2018-12-15T11:40:32Z</time>
      </trkpt>
      <trkpt lat="43.9441" lon="1.27461">
        <ele>133.76</ele>
        <time>2018-12-15T11:40:48Z</time>
      </trkpt>
      <trkpt lat="43.94404" lon="1.27464">
        <ele>133.76</ele>
        <time>2018-12-15T11:40:54Z</time>
      </trkpt>
      <trkpt lat="43.9439" lon="1.27474">
        <ele>134.24</ele>
        <time>2018-12-15T11:41:07Z</time>
      </trkpt>
      <trkpt lat="43.94372" lon="1.27481">
        <ele>133.76</ele>
        <time>2018-12-15T11:41:21Z</time>
      </trkpt>
      <trkpt lat="43.94362" lon="1.27486">
        <ele>133.76</ele>
        <time>2018-12-15T11:41:29Z</time>
      </trkpt>
      <trkpt lat="43.9435" lon="1.27491">
        <ele>133.28</ele>
        <time>2018-12-15T11:41:42Z</time>
      </trkpt>
      <trkpt lat="43.94335" lon="1.27498">
        <ele>133.76</ele>
        <time>2018-12-15T11:41:57Z</time>
      </trkpt>
      <trkpt lat="43.94324" lon="1.27503">
        <ele>133.76</ele>
        <time>2018-12-15T11:42:11Z</time>
      </trkpt>
      <trkpt lat="43.9431" lon="1.27509">
        <ele>133.76</ele>
        <time>2018-12-15T11:42:25Z</time>
      </trkpt>
      <trkpt lat="43.94304" lon="1.27512">
        <ele>133.28</ele>
        <time>2018-12-15T11:42:31Z</time>
      </trkpt>
      <trkpt lat="43.94298" lon="1.27514">
        <ele>133.28</ele>
        <time>2018-12-15T11:42:36Z</time>
      </trkpt>
      <trkpt lat="43.94283" lon="1.27518">
        <ele>133.28</ele>
        <time>2018-12-15T11:42:49Z</time>
      </trkpt>
      <trkpt lat="43.94272" lon="1.27524">
        <ele>133.28</ele>
        <time>2018-12-15T11:43:02Z</time>
      </trkpt>
      <trkpt lat="43.94259" lon="1.27524">
        <ele>133.76</ele>
        <time>2018-12-15T11:43:13Z</time>
      </trkpt>
      <trkpt lat="43.9425" lon="1.27526">
        <ele>133.28</ele>
        <time>2018-12-15T11:43:19Z</time>
      </trkpt>
      <trkpt lat="43.94247" lon="1.27529">
        <ele>133.28</ele>
        <time>2018-12-15T11:43:23Z</time>
      </trkpt>
      <trkpt lat="43.94234" lon="1.27538">
        <ele>133.28</ele>
        <time>2018-12-15T11:43:35Z</time>
      </trkpt>
      <trkpt lat="43.94219" lon="1.27547">
        <ele>132.8</ele>
        <time>2018-12-15T11:43:49Z</time>
      </trkpt>
      <trkpt lat="43.9421" lon="1.27552">
        <ele>133.28</ele>
        <time>2018-12-15T11:44:02Z</time>
      </trkpt>
      <trkpt lat="43.9421" lon="1.27552">
        <ele>132.8</ele>
        <time>2018-12-15T11:44:03Z</time>
      </trkpt>
      <trkpt lat="43.94204" lon="1.27554">
        <ele>133.28</ele>
        <time>2018-12-15T11:44:07Z</time>
      </trkpt>
      <trkpt lat="43.94192" lon="1.27556">
        <ele>132.8</ele>
        <time>2018-12-15T11:44:14Z</time>
      </trkpt>
      <trkpt lat="43.94185" lon="1.27555">
        <ele>133.28</ele>
        <time>2018-12-15T11:44:18Z</time>
      </trkpt>
      <trkpt lat="43.94178" lon="1.27559">
        <ele>132.8</ele>
        <time>2018-12-15T11:44:24Z</time>
      </trkpt>
      <trkpt lat="43.94164" lon="1.27563">
        <ele>132.8</ele>
        <time>2018-12-15T11:44:37Z</time>
      </trkpt>
      <trkpt lat="43.9416" lon="1.27567">
        <ele>133.28</ele>
        <time>2018-12-15T11:44:45Z</time>
      </trkpt>
      <trkpt lat="43.94147" lon="1.27573">
        <ele>133.28</ele>
        <time>2018-12-15T11:44:57Z</time>
      </trkpt>
      <trkpt lat="43.94142" lon="1.27575">
        <ele>133.28</ele>
        <time>2018-12-15T11:45:01Z</time>
      </trkpt>
      <trkpt lat="43.94139" lon="1.27577">
        <ele>133.76</ele>
        <time>2018-12-15T11:45:03Z</time>
      </trkpt>
      <trkpt lat="43.94129" lon="1.2758">
        <ele>133.76</ele>
        <time>2018-12-15T11:45:17Z</time>
      </trkpt>
      <trkpt lat="43.94118" lon="1.27583">
        <ele>134.24</ele>
        <time>2018-12-15T11:45:30Z</time>
      </trkpt>
      <trkpt lat="43.94107" lon="1.27589">
        <ele>135.2</ele>
        <time>2018-12-15T11:45:41Z</time>
      </trkpt>
      <trkpt lat="43.94099" lon="1.276">
        <ele>135.68</ele>
        <time>2018-12-15T11:45:51Z</time>
      </trkpt>
      <trkpt lat="43.94092" lon="1.27609">
        <ele>134.72</ele>
        <time>2018-12-15T11:46:02Z</time>
      </trkpt>
      <trkpt lat="43.94083" lon="1.27611">
        <ele>135.2</ele>
        <time>2018-12-15T11:46:13Z</time>
      </trkpt>
      <trkpt lat="43.94078" lon="1.27612">
        <ele>134.72</ele>
        <time>2018-12-15T11:46:19Z</time>
      </trkpt>
      <trkpt lat="43.94073" lon="1.27613">
        <ele>134.72</ele>
        <time>2018-12-15T11:46:25Z</time>
      </trkpt>
      <trkpt lat="43.94062" lon="1.27616">
        <ele>135.2</ele>
        <time>2018-12-15T11:46:36Z</time>
      </trkpt>
      <trkpt lat="43.94048" lon="1.27621">
        <ele>135.2</ele>
        <time>2018-12-15T11:46:52Z</time>
      </trkpt>
      <trkpt lat="43.94032" lon="1.2763">
        <ele>135.68</ele>
        <time>2018-12-15T11:47:07Z</time>
      </trkpt>
      <trkpt lat="43.94022" lon="1.27632">
        <ele>135.68</ele>
        <time>2018-12-15T11:47:17Z</time>
      </trkpt>
      <trkpt lat="43.9401" lon="1.27634">
        <ele>136.16</ele>
        <time>2018-12-15T11:47:32Z</time>
      </trkpt>
      <trkpt lat="43.94002" lon="1.27637">
        <ele>135.68</ele>
        <time>2018-12-15T11:47:42Z</time>
      </trkpt>
      <trkpt lat="43.93991" lon="1.27641">
        <ele>136.16</ele>
        <time>2018-12-15T11:47:51Z</time>
      </trkpt>
      <trkpt lat="43.93989" lon="1.27641">
        <ele>136.16</ele>
        <time>2018-12-15T11:47:52Z</time>
      </trkpt>
      <trkpt lat="43.93985" lon="1.27642">
        <ele>136.16</ele>
        <time>2018-12-15T11:47:56Z</time>
      </trkpt>
      <trkpt lat="43.93972" lon="1.27646">
        <ele>136.16</ele>
        <time>2018-12-15T11:48:08Z</time>
      </trkpt>
      <trkpt lat="43.93961" lon="1.27648">
        <ele>136.64</ele>
        <time>2018-12-15T11:48:16Z</time>
      </trkpt>
      <trkpt lat="43.93948" lon="1.27653">
        <ele>136.16</ele>
        <time>2018-12-15T11:48:28Z</time>
      </trkpt>
      <trkpt lat="43.93935" lon="1.27659">
        <ele>136.64</ele>
        <time>2018-12-15T11:48:40Z</time>
      </trkpt>
      <trkpt lat="43.93925" lon="1.27664">
        <ele>137.13</ele>
        <time>2018-12-15T11:48:51Z</time>
      </trkpt>
      <trkpt lat="43.93915" lon="1.27669">
        <ele>137.61</ele>
        <time>2018-12-15T11:49:03Z</time>
      </trkpt>
      <trkpt lat="43.93905" lon="1.27675">
        <ele>137.13</ele>
        <time>2018-12-15T11:49:14Z</time>
      </trkpt>
      <trkpt lat="43.93886" lon="1.27681">
        <ele>137.61</ele>
        <time>2018-12-15T11:49:26Z</time>
      </trkpt>
      <trkpt lat="43.93875" lon="1.27686">
        <ele>138.09</ele>
        <time>2018-12-15T11:49:37Z</time>
      </trkpt>
      <trkpt lat="43.93874" lon="1.27687">
        <ele>138.09</ele>
        <time>2018-12-15T11:49:38Z</time>
      </trkpt>
      <trkpt lat="43.93861" lon="1.2769">
        <ele>138.57</ele>
        <time>2018-12-15T11:49:50Z</time>
      </trkpt>
      <trkpt lat="43.93849" lon="1.27695">
        <ele>138.09</ele>
        <time>2018-12-15T11:50:01Z</time>
      </trkpt>
      <trkpt lat="43.93837" lon="1.27701">
        <ele>139.05</ele>
        <time>2018-12-15T11:50:14Z</time>
      </trkpt>
      <trkpt lat="43.93831" lon="1.27705">
        <ele>139.53</ele>
        <time>2018-12-15T11:50:23Z</time>
      </trkpt>
      <trkpt lat="43.93824" lon="1.27708">
        <ele>139.53</ele>
        <time>2018-12-15T11:50:29Z</time>
      </trkpt>
      <trkpt lat="43.93805" lon="1.27713">
        <ele>140.01</ele>
        <time>2018-12-15T11:50:41Z</time>
      </trkpt>
      <trkpt lat="43.93794" lon="1.27721">
        <ele>140.49</ele>
        <time>2018-12-15T11:50:53Z</time>
      </trkpt>
      <trkpt lat="43.9379" lon="1.27723">
        <ele>140.49</ele>
        <time>2018-12-15T11:50:56Z</time>
      </trkpt>
      <trkpt lat="43.93783" lon="1.27726">
        <ele>140.97</ele>
        <time>2018-12-15T11:51:02Z</time>
      </trkpt>
      <trkpt lat="43.93771" lon="1.27729">
        <ele>141.93</ele>
        <time>2018-12-15T11:51:13Z</time>
      </trkpt>
      <trkpt lat="43.93768" lon="1.27731">
        <ele>142.41</ele>
        <time>2018-12-15T11:51:16Z</time>
      </trkpt>
      <trkpt lat="43.93758" lon="1.27737">
        <ele>142.41</ele>
        <time>2018-12-15T11:51:27Z</time>
      </trkpt>
      <trkpt lat="43.93747" lon="1.27742">
        <ele>142.89</ele>
        <time>2018-12-15T11:51:39Z</time>
      </trkpt>
      <trkpt lat="43.93734" lon="1.27747">
        <ele>143.85</ele>
        <time>2018-12-15T11:51:51Z</time>
      </trkpt>
      <trkpt lat="43.9372" lon="1.27752">
        <ele>144.82</ele>
        <time>2018-12-15T11:52:04Z</time>
      </trkpt>
      <trkpt lat="43.93714" lon="1.27754">
        <ele>144.82</ele>
        <time>2018-12-15T11:52:09Z</time>
      </trkpt>
      <trkpt lat="43.937" lon="1.27759">
        <ele>145.78</ele>
        <time>2018-12-15T11:52:21Z</time>
      </trkpt>
      <trkpt lat="43.9369" lon="1.27762">
        <ele>146.26</ele>
        <time>2018-12-15T11:52:30Z</time>
      </trkpt>
      <trkpt lat="43.93687" lon="1.27764">
        <ele>146.74</ele>
        <time>2018-12-15T11:52:33Z</time>
      </trkpt>
      <trkpt lat="43.93677" lon="1.27773">
        <ele>147.7</ele>
        <time>2018-12-15T11:52:44Z</time>
      </trkpt>
      <trkpt lat="43.93673" lon="1.27776">
        <ele>147.22</ele>
        <time>2018-12-15T11:52:49Z</time>
      </trkpt>
      <trkpt lat="43.93664" lon="1.27779">
        <ele>147.7</ele>
        <time>2018-12-15T11:53:00Z</time>
      </trkpt>
      <trkpt lat="43.93663" lon="1.27779">
        <ele>148.66</ele>
        <time>2018-12-15T11:53:02Z</time>
      </trkpt>
      <trkpt lat="43.93659" lon="1.2778">
        <ele>149.14</ele>
        <time>2018-12-15T11:53:06Z</time>
      </trkpt>
      <trkpt lat="43.93653" lon="1.27783">
        <ele>149.62</ele>
        <time>2018-12-15T11:53:15Z</time>
      </trkpt>
      <trkpt lat="43.93644" lon="1.27786">
        <ele>150.58</ele>
        <time>2018-12-15T11:53:26Z</time>
      </trkpt>
      <trkpt lat="43.9364" lon="1.27788">
        <ele>150.58</ele>
        <time>2018-12-15T11:53:31Z</time>
      </trkpt>
      <trkpt lat="43.93628" lon="1.27792">
        <ele>151.54</ele>
        <time>2018-12-15T11:53:41Z</time>
      </trkpt>
      <trkpt lat="43.93617" lon="1.27795">
        <ele>151.54</ele>
        <time>2018-12-15T11:53:51Z</time>
      </trkpt>
      <trkpt lat="43.93607" lon="1.27799">
        <ele>152.51</ele>
        <time>2018-12-15T11:54:02Z</time>
      </trkpt>
      <trkpt lat="43.93597" lon="1.27804">
        <ele>152.03</ele>
        <time>2018-12-15T11:54:12Z</time>
      </trkpt>
      <trkpt lat="43.93591" lon="1.27807">
        <ele>152.99</ele>
        <time>2018-12-15T11:54:20Z</time>
      </trkpt>
      <trkpt lat="43.9358" lon="1.27813">
        <ele>152.99</ele>
        <time>2018-12-15T11:54:32Z</time>
      </trkpt>
      <trkpt lat="43.93578" lon="1.27814">
        <ele>153.47</ele>
        <time>2018-12-15T11:54:34Z</time>
      </trkpt>
      <trkpt lat="43.93574" lon="1.27814">
        <ele>152.99</ele>
        <time>2018-12-15T11:54:38Z</time>
      </trkpt>
      <trkpt lat="43.93568" lon="1.27817">
        <ele>152.99</ele>
        <time>2018-12-15T11:54:48Z</time>
      </trkpt>
      <trkpt lat="43.93562" lon="1.27815">
        <ele>152.99</ele>
        <time>2018-12-15T11:55:50Z</time>
      </trkpt>
      <trkpt lat="43.93558" lon="1.27813">
        <ele>152.99</ele>
        <time>2018-12-15T11:56:19Z</time>
      </trkpt>
      <trkpt lat="43.93559" lon="1.2782">
        <ele>152.51</ele>
        <time>2018-12-15T11:56:48Z</time>
      </trkpt>
      <trkpt lat="43.93559" lon="1.27814">
        <ele>152.51</ele>
        <time>2018-12-15T11:57:14Z</time>
      </trkpt>
      <trkpt lat="43.93554" lon="1.27807">
        <ele>152.51</ele>
        <time>2018-12-15T11:57:25Z</time>
      </trkpt>
      <trkpt lat="43.93542" lon="1.27801">
        <ele>152.51</ele>
        <time>2018-12-15T11:57:37Z</time>
      </trkpt>
      <trkpt lat="43.93527" lon="1.27794">
        <ele>152.51</ele>
        <time>2018-12-15T11:57:50Z</time>
      </trkpt>
      <trkpt lat="43.93525" lon="1.27794">
        <ele>152.51</ele>
        <time>2018-12-15T11:57:52Z</time>
      </trkpt>
      <trkpt lat="43.93515" lon="1.27787">
        <ele>152.51</ele>
        <time>2018-12-15T11:58:05Z</time>
      </trkpt>
      <trkpt lat="43.93509" lon="1.27784">
        <ele>152.51</ele>
        <time>2018-12-15T11:58:13Z</time>
      </trkpt>
      <trkpt lat="43.93503" lon="1.27781">
        <ele>152.51</ele>
        <time>2018-12-15T11:58:19Z</time>
      </trkpt>
      <trkpt lat="43.93502" lon="1.27781">
        <ele>152.51</ele>
        <time>2018-12-15T11:58:20Z</time>
      </trkpt>
      <trkpt lat="43.93488" lon="1.27774">
        <ele>152.03</ele>
        <time>2018-12-15T11:58:31Z</time>
      </trkpt>
      <trkpt lat="43.93477" lon="1.27771">
        <ele>152.99</ele>
        <time>2018-12-15T11:58:42Z</time>
      </trkpt>
      <trkpt lat="43.93465" lon="1.27764">
        <ele>152.51</ele>
        <time>2018-12-15T11:58:54Z</time>
      </trkpt>
      <trkpt lat="43.93448" lon="1.27755">
        <ele>152.03</ele>
        <time>2018-12-15T11:59:10Z</time>
      </trkpt>
      <trkpt lat="43.9343" lon="1.2775">
        <ele>152.03</ele>
        <time>2018-12-15T11:59:23Z</time>
      </trkpt>
      <trkpt lat="43.93412" lon="1.27743">
        <ele>152.03</ele>
        <time>2018-12-15T11:59:37Z</time>
      </trkpt>
      <trkpt lat="43.934" lon="1.27736">
        <ele>151.54</ele>
        <time>2018-12-15T11:59:53Z</time>
      </trkpt>
      <trkpt lat="43.93386" lon="1.27727">
        <ele>152.03</ele>
        <time>2018-12-15T12:00:05Z</time>
      </trkpt>
      <trkpt lat="43.93373" lon="1.27721">
        <ele>152.03</ele>
        <time>2018-12-15T12:00:18Z</time>
      </trkpt>
      <trkpt lat="43.9337" lon="1.27717">
        <ele>152.03</ele>
        <time>2018-12-15T12:00:24Z</time>
      </trkpt>
      <trkpt lat="43.93365" lon="1.27714">
        <ele>151.54</ele>
        <time>2018-12-15T12:00:30Z</time>
      </trkpt>
      <trkpt lat="43.93355" lon="1.2771">
        <ele>152.03</ele>
        <time>2018-12-15T12:00:40Z</time>
      </trkpt>
      <trkpt lat="43.9335" lon="1.27708">
        <ele>152.03</ele>
        <time>2018-12-15T12:00:45Z</time>
      </trkpt>
      <trkpt lat="43.93343" lon="1.27704">
        <ele>152.03</ele>
        <time>2018-12-15T12:00:55Z</time>
      </trkpt>
      <trkpt lat="43.93342" lon="1.27703">
        <ele>152.03</ele>
        <time>2018-12-15T12:00:56Z</time>
      </trkpt>
      <trkpt lat="43.93329" lon="1.27698">
        <ele>152.03</ele>
        <time>2018-12-15T12:01:07Z</time>
      </trkpt>
      <trkpt lat="43.93327" lon="1.27697">
        <ele>152.03</ele>
        <time>2018-12-15T12:01:08Z</time>
      </trkpt>
      <trkpt lat="43.93316" lon="1.27692">
        <ele>152.03</ele>
        <time>2018-12-15T12:01:18Z</time>
      </trkpt>
      <trkpt lat="43.93309" lon="1.27689">
        <ele>151.54</ele>
        <time>2018-12-15T12:01:25Z</time>
      </trkpt>
      <trkpt lat="43.93295" lon="1.27682">
        <ele>151.06</ele>
        <time>2018-12-15T12:01:37Z</time>
      </trkpt>
      <trkpt lat="43.93288" lon="1.27678">
        <ele>151.06</ele>
        <time>2018-12-15T12:01:44Z</time>
      </trkpt>
      <trkpt lat="43.93286" lon="1.27678">
        <ele>150.58</ele>
        <time>2018-12-15T12:01:45Z</time>
      </trkpt>
      <trkpt lat="43.93278" lon="1.27674">
        <ele>151.06</ele>
        <time>2018-12-15T12:01:56Z</time>
      </trkpt>
      <trkpt lat="43.9327" lon="1.27671">
        <ele>150.58</ele>
        <time>2018-12-15T12:02:08Z</time>
      </trkpt>
      <trkpt lat="43.93257" lon="1.27664">
        <ele>151.06</ele>
        <time>2018-12-15T12:02:19Z</time>
      </trkpt>
      <trkpt lat="43.93245" lon="1.27659">
        <ele>151.54</ele>
        <time>2018-12-15T12:02:35Z</time>
      </trkpt>
      <trkpt lat="43.9323" lon="1.27654">
        <ele>152.03</ele>
        <time>2018-12-15T12:02:49Z</time>
      </trkpt>
      <trkpt lat="43.9322" lon="1.27647">
        <ele>152.03</ele>
        <time>2018-12-15T12:03:02Z</time>
      </trkpt>
      <trkpt lat="43.93202" lon="1.27641">
        <ele>152.03</ele>
        <time>2018-12-15T12:03:16Z</time>
      </trkpt>
      <trkpt lat="43.93192" lon="1.27635">
        <ele>151.54</ele>
        <time>2018-12-15T12:03:28Z</time>
      </trkpt>
      <trkpt lat="43.93173" lon="1.27626">
        <ele>152.03</ele>
        <time>2018-12-15T12:03:42Z</time>
      </trkpt>
      <trkpt lat="43.93169" lon="1.27624">
        <ele>152.03</ele>
        <time>2018-12-15T12:03:45Z</time>
      </trkpt>
      <trkpt lat="43.9316" lon="1.27622">
        <ele>152.51</ele>
        <time>2018-12-15T12:03:51Z</time>
      </trkpt>
      <trkpt lat="43.93155" lon="1.27619">
        <ele>152.51</ele>
        <time>2018-12-15T12:03:56Z</time>
      </trkpt>
      <trkpt lat="43.93146" lon="1.27615">
        <ele>152.51</ele>
        <time>2018-12-15T12:04:01Z</time>
      </trkpt>
      <trkpt lat="43.93145" lon="1.27615">
        <ele>152.51</ele>
        <time>2018-12-15T12:04:02Z</time>
      </trkpt>
      <trkpt lat="43.9313" lon="1.27611">
        <ele>152.51</ele>
        <time>2018-12-15T12:04:14Z</time>
      </trkpt>
      <trkpt lat="43.93118" lon="1.27604">
        <ele>152.51</ele>
        <time>2018-12-15T12:04:28Z</time>
      </trkpt>
      <trkpt lat="43.93106" lon="1.276">
        <ele>152.51</ele>
        <time>2018-12-15T12:04:38Z</time>
      </trkpt>
      <trkpt lat="43.93105" lon="1.27599">
        <ele>152.51</ele>
        <time>2018-12-15T12:04:39Z</time>
      </trkpt>
      <trkpt lat="43.93093" lon="1.27593">
        <ele>152.51</ele>
        <time>2018-12-15T12:04:52Z</time>
      </trkpt>
      <trkpt lat="43.93089" lon="1.27592">
        <ele>152.99</ele>
        <time>2018-12-15T12:04:59Z</time>
      </trkpt>
      <trkpt lat="43.93088" lon="1.2759">
        <ele>152.51</ele>
        <time>2018-12-15T12:05:01Z</time>
      </trkpt>
      <trkpt lat="43.93076" lon="1.27586">
        <ele>152.99</ele>
        <time>2018-12-15T12:05:13Z</time>
      </trkpt>
      <trkpt lat="43.93057" lon="1.27579">
        <ele>152.51</ele>
        <time>2018-12-15T12:05:23Z</time>
      </trkpt>
      <trkpt lat="43.9305" lon="1.27576">
        <ele>152.99</ele>
        <time>2018-12-15T12:05:28Z</time>
      </trkpt>
      <trkpt lat="43.93049" lon="1.27575">
        <ele>152.51</ele>
        <time>2018-12-15T12:05:29Z</time>
      </trkpt>
      <trkpt lat="43.93032" lon="1.27568">
        <ele>152.99</ele>
        <time>2018-12-15T12:05:42Z</time>
      </trkpt>
      <trkpt lat="43.93025" lon="1.27566">
        <ele>152.99</ele>
        <time>2018-12-15T12:05:49Z</time>
      </trkpt>
      <trkpt lat="43.9301" lon="1.27559">
        <ele>153.47</ele>
        <time>2018-12-15T12:06:03Z</time>
      </trkpt>
      <trkpt lat="43.92995" lon="1.27553">
        <ele>152.99</ele>
        <time>2018-12-15T12:06:19Z</time>
      </trkpt>
      <trkpt lat="43.92985" lon="1.27546">
        <ele>153.47</ele>
        <time>2018-12-15T12:06:31Z</time>
      </trkpt>
      <trkpt lat="43.92978" lon="1.2754">
        <ele>153.47</ele>
        <time>2018-12-15T12:06:46Z</time>
      </trkpt>
      <trkpt lat="43.92965" lon="1.27533">
        <ele>153.47</ele>
        <time>2018-12-15T12:06:59Z</time>
      </trkpt>
      <trkpt lat="43.92956" lon="1.27529">
        <ele>153.47</ele>
        <time>2018-12-15T12:07:12Z</time>
      </trkpt>
      <trkpt lat="43.92939" lon="1.27522">
        <ele>152.99</ele>
        <time>2018-12-15T12:07:25Z</time>
      </trkpt>
      <trkpt lat="43.92929" lon="1.27519">
        <ele>153.47</ele>
        <time>2018-12-15T12:07:33Z</time>
      </trkpt>
      <trkpt lat="43.92919" lon="1.27512">
        <ele>152.99</ele>
        <time>2018-12-15T12:07:47Z</time>
      </trkpt>
      <trkpt lat="43.92904" lon="1.27508">
        <ele>152.99</ele>
        <time>2018-12-15T12:07:58Z</time>
      </trkpt>
      <trkpt lat="43.9289" lon="1.27501">
        <ele>153.47</ele>
        <time>2018-12-15T12:08:12Z</time>
      </trkpt>
      <trkpt lat="43.92882" lon="1.27495">
        <ele>153.47</ele>
        <time>2018-12-15T12:08:20Z</time>
      </trkpt>
      <trkpt lat="43.92881" lon="1.27494">
        <ele>153.47</ele>
        <time>2018-12-15T12:08:21Z</time>
      </trkpt>
      <trkpt lat="43.92865" lon="1.27488">
        <ele>153.95</ele>
        <time>2018-12-15T12:08:34Z</time>
      </trkpt>
      <trkpt lat="43.92863" lon="1.27487">
        <ele>154.43</ele>
        <time>2018-12-15T12:08:35Z</time>
      </trkpt>
      <trkpt lat="43.92862" lon="1.27487">
        <ele>154.43</ele>
        <time>2018-12-15T12:08:36Z</time>
      </trkpt>
      <trkpt lat="43.9284" lon="1.27484">
        <ele>153.95</ele>
        <time>2018-12-15T12:08:49Z</time>
      </trkpt>
      <trkpt lat="43.92828" lon="1.27479">
        <ele>154.43</ele>
        <time>2018-12-15T12:09:02Z</time>
      </trkpt>
      <trkpt lat="43.92814" lon="1.27472">
        <ele>154.43</ele>
        <time>2018-12-15T12:09:16Z</time>
      </trkpt>
      <trkpt lat="43.92803" lon="1.27466">
        <ele>153.95</ele>
        <time>2018-12-15T12:09:28Z</time>
      </trkpt>
      <trkpt lat="43.92801" lon="1.27465">
        <ele>154.43</ele>
        <time>2018-12-15T12:09:30Z</time>
      </trkpt>
      <trkpt lat="43.92797" lon="1.27462">
        <ele>153.95</ele>
        <time>2018-12-15T12:09:35Z</time>
      </trkpt>
      <trkpt lat="43.92789" lon="1.27457">
        <ele>154.43</ele>
        <time>2018-12-15T12:09:45Z</time>
      </trkpt>
      <trkpt lat="43.92778" lon="1.27453">
        <ele>154.91</ele>
        <time>2018-12-15T12:09:54Z</time>
      </trkpt>
      <trkpt lat="43.92777" lon="1.27453">
        <ele>154.43</ele>
        <time>2018-12-15T12:09:55Z</time>
      </trkpt>
      <trkpt lat="43.92763" lon="1.27445">
        <ele>154.43</ele>
        <time>2018-12-15T12:10:08Z</time>
      </trkpt>
      <trkpt lat="43.92761" lon="1.27444">
        <ele>153.95</ele>
        <time>2018-12-15T12:10:10Z</time>
      </trkpt>
      <trkpt lat="43.9276" lon="1.27444">
        <ele>154.43</ele>
        <time>2018-12-15T12:10:11Z</time>
      </trkpt>
      <trkpt lat="43.92746" lon="1.27437">
        <ele>154.43</ele>
        <time>2018-12-15T12:10:23Z</time>
      </trkpt>
      <trkpt lat="43.92741" lon="1.27435">
        <ele>154.43</ele>
        <time>2018-12-15T12:10:29Z</time>
      </trkpt>
      <trkpt lat="43.9274" lon="1.27434">
        <ele>154.43</ele>
        <time>2018-12-15T12:10:30Z</time>
      </trkpt>
      <trkpt lat="43.92739" lon="1.27433">
        <ele>154.43</ele>
        <time>2018-12-15T12:10:33Z</time>
      </trkpt>
      <trkpt lat="43.92731" lon="1.2743">
        <ele>154.43</ele>
        <time>2018-12-15T12:10:40Z</time>
      </trkpt>
      <trkpt lat="43.9273" lon="1.27429">
        <ele>154.43</ele>
        <time>2018-12-15T12:10:41Z</time>
      </trkpt>
      <trkpt lat="43.92716" lon="1.27423">
        <ele>154.43</ele>
        <time>2018-12-15T12:10:54Z</time>
      </trkpt>
      <trkpt lat="43.9271" lon="1.2742">
        <ele>154.43</ele>
        <time>2018-12-15T12:11:02Z</time>
      </trkpt>
      <trkpt lat="43.9271" lon="1.2742">
        <ele>154.43</ele>
        <time>2018-12-15T12:11:03Z</time>
      </trkpt>
      <trkpt lat="43.927" lon="1.27415">
        <ele>154.43</ele>
        <time>2018-12-15T12:11:13Z</time>
      </trkpt>
      <trkpt lat="43.92684" lon="1.27409">
        <ele>154.43</ele>
        <time>2018-12-15T12:11:26Z</time>
      </trkpt>
      <trkpt lat="43.92668" lon="1.27404">
        <ele>154.43</ele>
        <time>2018-12-15T12:11:40Z</time>
      </trkpt>
      <trkpt lat="43.92666" lon="1.27403">
        <ele>153.95</ele>
        <time>2018-12-15T12:11:41Z</time>
      </trkpt>
      <trkpt lat="43.92665" lon="1.27402">
        <ele>153.95</ele>
        <time>2018-12-15T12:11:42Z</time>
      </trkpt>
      <trkpt lat="43.92649" lon="1.27397">
        <ele>153.95</ele>
        <time>2018-12-15T12:11:54Z</time>
      </trkpt>
      <trkpt lat="43.92635" lon="1.27392">
        <ele>154.43</ele>
        <time>2018-12-15T12:12:06Z</time>
      </trkpt>
      <trkpt lat="43.92633" lon="1.27392">
        <ele>153.95</ele>
        <time>2018-12-15T12:12:08Z</time>
      </trkpt>
      <trkpt lat="43.92632" lon="1.27391">
        <ele>154.43</ele>
        <time>2018-12-15T12:12:09Z</time>
      </trkpt>
      <trkpt lat="43.92626" lon="1.27387">
        <ele>154.43</ele>
        <time>2018-12-15T12:12:16Z</time>
      </trkpt>
      <trkpt lat="43.92615" lon="1.27384">
        <ele>154.91</ele>
        <time>2018-12-15T12:12:27Z</time>
      </trkpt>
      <trkpt lat="43.92603" lon="1.2738">
        <ele>153.95</ele>
        <time>2018-12-15T12:12:40Z</time>
      </trkpt>
      <trkpt lat="43.92586" lon="1.27384">
        <ele>140.49</ele>
        <time>2018-12-15T12:57:09Z</time>
      </trkpt>
      <trkpt lat="43.92584" lon="1.27383">
        <ele>140.49</ele>
        <time>2018-12-15T12:57:11Z</time>
      </trkpt>
      <trkpt lat="43.9257" lon="1.27373">
        <ele>140.01</ele>
        <time>2018-12-15T12:57:27Z</time>
      </trkpt>
      <trkpt lat="43.92569" lon="1.27371">
        <ele>140.01</ele>
        <time>2018-12-15T12:57:29Z</time>
      </trkpt>
      <trkpt lat="43.92551" lon="1.27359">
        <ele>140.01</ele>
        <time>2018-12-15T12:57:47Z</time>
      </trkpt>
      <trkpt lat="43.92536" lon="1.27347">
        <ele>140.01</ele>
        <time>2018-12-15T12:58:03Z</time>
      </trkpt>
      <trkpt lat="43.92522" lon="1.27338">
        <ele>140.01</ele>
        <time>2018-12-15T12:58:20Z</time>
      </trkpt>
      <trkpt lat="43.92518" lon="1.27335">
        <ele>140.01</ele>
        <time>2018-12-15T12:58:34Z</time>
      </trkpt>
      <trkpt lat="43.92518" lon="1.27335">
        <ele>140.01</ele>
        <time>2018-12-15T12:58:38Z</time>
      </trkpt>
      <trkpt lat="43.92514" lon="1.27334">
        <ele>140.01</ele>
        <time>2018-12-15T12:58:42Z</time>
      </trkpt>
      <trkpt lat="43.92498" lon="1.27324">
        <ele>140.01</ele>
        <time>2018-12-15T12:58:58Z</time>
      </trkpt>
      <trkpt lat="43.92481" lon="1.27315">
        <ele>140.01</ele>
        <time>2018-12-15T12:59:16Z</time>
      </trkpt>
      <trkpt lat="43.92464" lon="1.27309">
        <ele>140.01</ele>
        <time>2018-12-15T12:59:31Z</time>
      </trkpt>
      <trkpt lat="43.92446" lon="1.27303">
        <ele>140.01</ele>
        <time>2018-12-15T12:59:48Z</time>
      </trkpt>
      <trkpt lat="43.9243" lon="1.27299">
        <ele>140.01</ele>
        <time>2018-12-15T13:00:03Z</time>
      </trkpt>
      <trkpt lat="43.92413" lon="1.27297">
        <ele>140.01</ele>
        <time>2018-12-15T13:00:19Z</time>
      </trkpt>
      <trkpt lat="43.92397" lon="1.27296">
        <ele>140.01</ele>
        <time>2018-12-15T13:00:34Z</time>
      </trkpt>
      <trkpt lat="43.92382" lon="1.27294">
        <ele>140.01</ele>
        <time>2018-12-15T13:00:50Z</time>
      </trkpt>
      <trkpt lat="43.92372" lon="1.27292">
        <ele>140.01</ele>
        <time>2018-12-15T13:00:59Z</time>
      </trkpt>
      <trkpt lat="43.92369" lon="1.27292">
        <ele>140.01</ele>
        <time>2018-12-15T13:01:02Z</time>
      </trkpt>
      <trkpt lat="43.92355" lon="1.27289">
        <ele>140.01</ele>
        <time>2018-12-15T13:01:15Z</time>
      </trkpt>
      <trkpt lat="43.92341" lon="1.27286">
        <ele>140.49</ele>
        <time>2018-12-15T13:01:29Z</time>
      </trkpt>
      <trkpt lat="43.92325" lon="1.27283">
        <ele>140.49</ele>
        <time>2018-12-15T13:01:44Z</time>
      </trkpt>
      <trkpt lat="43.92309" lon="1.2728">
        <ele>140.01</ele>
        <time>2018-12-15T13:01:58Z</time>
      </trkpt>
      <trkpt lat="43.92293" lon="1.27278">
        <ele>140.01</ele>
        <time>2018-12-15T13:02:13Z</time>
      </trkpt>
      <trkpt lat="43.92275" lon="1.27275">
        <ele>139.53</ele>
        <time>2018-12-15T13:02:29Z</time>
      </trkpt>
      <trkpt lat="43.92259" lon="1.27273">
        <ele>139.05</ele>
        <time>2018-12-15T13:02:45Z</time>
      </trkpt>
      <trkpt lat="43.92242" lon="1.27274">
        <ele>138.57</ele>
        <time>2018-12-15T13:03:01Z</time>
      </trkpt>
      <trkpt lat="43.92223" lon="1.27274">
        <ele>137.61</ele>
        <time>2018-12-15T13:03:18Z</time>
      </trkpt>
      <trkpt lat="43.92207" lon="1.27275">
        <ele>136.64</ele>
        <time>2018-12-15T13:03:34Z</time>
      </trkpt>
      <trkpt lat="43.92191" lon="1.27275">
        <ele>135.68</ele>
        <time>2018-12-15T13:03:49Z</time>
      </trkpt>
      <trkpt lat="43.92179" lon="1.27267">
        <ele>134.72</ele>
        <time>2018-12-15T13:04:03Z</time>
      </trkpt>
      <trkpt lat="43.92172" lon="1.2725">
        <ele>134.24</ele>
        <time>2018-12-15T13:04:17Z</time>
      </trkpt>
      <trkpt lat="43.92166" lon="1.27231">
        <ele>133.76</ele>
        <time>2018-12-15T13:04:30Z</time>
      </trkpt>
      <trkpt lat="43.92161" lon="1.2721">
        <ele>133.76</ele>
        <time>2018-12-15T13:04:46Z</time>
      </trkpt>
      <trkpt lat="43.92157" lon="1.27189">
        <ele>133.28</ele>
        <time>2018-12-15T13:05:01Z</time>
      </trkpt>
      <trkpt lat="43.9215" lon="1.27171">
        <ele>133.28</ele>
        <time>2018-12-15T13:05:14Z</time>
      </trkpt>
      <trkpt lat="43.92132" lon="1.27156">
        <ele>133.28</ele>
        <time>2018-12-15T13:05:31Z</time>
      </trkpt>
      <trkpt lat="43.92131" lon="1.27154">
        <ele>133.28</ele>
        <time>2018-12-15T13:05:32Z</time>
      </trkpt>
      <trkpt lat="43.92114" lon="1.27143">
        <ele>133.28</ele>
        <time>2018-12-15T13:05:48Z</time>
      </trkpt>
      <trkpt lat="43.92098" lon="1.27134">
        <ele>133.28</ele>
        <time>2018-12-15T13:06:03Z</time>
      </trkpt>
      <trkpt lat="43.92081" lon="1.27126">
        <ele>134.24</ele>
        <time>2018-12-15T13:06:21Z</time>
      </trkpt>
      <trkpt lat="43.92065" lon="1.27117">
        <ele>135.2</ele>
        <time>2018-12-15T13:06:36Z</time>
      </trkpt>
      <trkpt lat="43.92047" lon="1.27107">
        <ele>136.16</ele>
        <time>2018-12-15T13:06:53Z</time>
      </trkpt>
      <trkpt lat="43.92032" lon="1.27096">
        <ele>136.64</ele>
        <time>2018-12-15T13:07:09Z</time>
      </trkpt>
      <trkpt lat="43.92024" lon="1.27087">
        <ele>137.13</ele>
        <time>2018-12-15T13:07:24Z</time>
      </trkpt>
      <trkpt lat="43.92024" lon="1.27083">
        <ele>137.13</ele>
        <time>2018-12-15T13:07:42Z</time>
      </trkpt>
      <trkpt lat="43.92022" lon="1.27085">
        <ele>137.13</ele>
        <time>2018-12-15T13:08:11Z</time>
      </trkpt>
      <trkpt lat="43.92028" lon="1.27079">
        <ele>138.57</ele>
        <time>2018-12-15T13:08:24Z</time>
      </trkpt>
      <trkpt lat="43.9203" lon="1.27072">
        <ele>136.64</ele>
        <time>2018-12-15T13:08:30Z</time>
      </trkpt>
      <trkpt lat="43.92033" lon="1.27068">
        <ele>136.64</ele>
        <time>2018-12-15T13:08:34Z</time>
      </trkpt>
      <trkpt lat="43.92039" lon="1.27044">
        <ele>136.16</ele>
        <time>2018-12-15T13:08:51Z</time>
      </trkpt>
      <trkpt lat="43.9204" lon="1.27023">
        <ele>135.68</ele>
        <time>2018-12-15T13:09:05Z</time>
      </trkpt>
      <trkpt lat="43.92041" lon="1.27">
        <ele>135.2</ele>
        <time>2018-12-15T13:09:21Z</time>
      </trkpt>
      <trkpt lat="43.92042" lon="1.26991">
        <ele>135.68</ele>
        <time>2018-12-15T13:09:27Z</time>
      </trkpt>
      <trkpt lat="43.92043" lon="1.26987">
        <ele>135.2</ele>
        <time>2018-12-15T13:09:30Z</time>
      </trkpt>
      <trkpt lat="43.92044" lon="1.26967">
        <ele>135.2</ele>
        <time>2018-12-15T13:09:43Z</time>
      </trkpt>
      <trkpt lat="43.92045" lon="1.26955">
        <ele>135.2</ele>
        <time>2018-12-15T13:09:51Z</time>
      </trkpt>
      <trkpt lat="43.92045" lon="1.26945">
        <ele>135.2</ele>
        <time>2018-12-15T13:09:59Z</time>
      </trkpt>
      <trkpt lat="43.92047" lon="1.26923">
        <ele>134.72</ele>
        <time>2018-12-15T13:10:15Z</time>
      </trkpt>
      <trkpt lat="43.92051" lon="1.26899">
        <ele>133.76</ele>
        <time>2018-12-15T13:10:32Z</time>
      </trkpt>
      <trkpt lat="43.92056" lon="1.26877">
        <ele>132.32</ele>
        <time>2018-12-15T13:10:47Z</time>
      </trkpt>
      <trkpt lat="43.92059" lon="1.26861">
        <ele>131.36</ele>
        <time>2018-12-15T13:10:59Z</time>
      </trkpt>
      <trkpt lat="43.92064" lon="1.26839">
        <ele>129.92</ele>
        <time>2018-12-15T13:11:15Z</time>
      </trkpt>
      <trkpt lat="43.92064" lon="1.26836">
        <ele>129.43</ele>
        <time>2018-12-15T13:11:17Z</time>
      </trkpt>
      <trkpt lat="43.92068" lon="1.26816">
        <ele>128.47</ele>
        <time>2018-12-15T13:11:32Z</time>
      </trkpt>
      <trkpt lat="43.92072" lon="1.26801">
        <ele>127.99</ele>
        <time>2018-12-15T13:11:46Z</time>
      </trkpt>
      <trkpt lat="43.92073" lon="1.26775">
        <ele>127.99</ele>
        <time>2018-12-15T13:12:03Z</time>
      </trkpt>
      <trkpt lat="43.92084" lon="1.26732">
        <ele>126.55</ele>
        <time>2018-12-15T13:13:48Z</time>
      </trkpt>
      <trkpt lat="43.92089" lon="1.2672">
        <ele>125.59</ele>
        <time>2018-12-15T13:14:00Z</time>
      </trkpt>
      <trkpt lat="43.92101" lon="1.26704">
        <ele>125.11</ele>
        <time>2018-12-15T13:14:16Z</time>
      </trkpt>
      <trkpt lat="43.92102" lon="1.26703">
        <ele>124.63</ele>
        <time>2018-12-15T13:14:17Z</time>
      </trkpt>
      <trkpt lat="43.92115" lon="1.26682">
        <ele>124.15</ele>
        <time>2018-12-15T13:14:35Z</time>
      </trkpt>
      <trkpt lat="43.92129" lon="1.26664">
        <ele>123.19</ele>
        <time>2018-12-15T13:14:52Z</time>
      </trkpt>
      <trkpt lat="43.92143" lon="1.26646">
        <ele>122.71</ele>
        <time>2018-12-15T13:15:08Z</time>
      </trkpt>
      <trkpt lat="43.9215" lon="1.26624">
        <ele>121.74</ele>
        <time>2018-12-15T13:15:25Z</time>
      </trkpt>
      <trkpt lat="43.92156" lon="1.26612">
        <ele>121.26</ele>
        <time>2018-12-15T13:15:38Z</time>
      </trkpt>
      <trkpt lat="43.92164" lon="1.2659">
        <ele>121.26</ele>
        <time>2018-12-15T13:15:53Z</time>
      </trkpt>
      <trkpt lat="43.92171" lon="1.26568">
        <ele>120.78</ele>
        <time>2018-12-15T13:16:08Z</time>
      </trkpt>
      <trkpt lat="43.92175" lon="1.26556">
        <ele>120.78</ele>
        <time>2018-12-15T13:16:16Z</time>
      </trkpt>
      <trkpt lat="43.92177" lon="1.26546">
        <ele>120.3</ele>
        <time>2018-12-15T13:16:23Z</time>
      </trkpt>
      <trkpt lat="43.92185" lon="1.26522">
        <ele>120.3</ele>
        <time>2018-12-15T13:16:39Z</time>
      </trkpt>
      <trkpt lat="43.92192" lon="1.265">
        <ele>119.82</ele>
        <time>2018-12-15T13:16:55Z</time>
      </trkpt>
      <trkpt lat="43.92196" lon="1.2649">
        <ele>119.82</ele>
        <time>2018-12-15T13:17:03Z</time>
      </trkpt>
      <trkpt lat="43.922" lon="1.26472">
        <ele>119.82</ele>
        <time>2018-12-15T13:17:16Z</time>
      </trkpt>
      <trkpt lat="43.92205" lon="1.26459">
        <ele>119.82</ele>
        <time>2018-12-15T13:17:26Z</time>
      </trkpt>
      <trkpt lat="43.92209" lon="1.26445">
        <ele>119.34</ele>
        <time>2018-12-15T13:17:37Z</time>
      </trkpt>
      <trkpt lat="43.92216" lon="1.26427">
        <ele>119.82</ele>
        <time>2018-12-15T13:17:52Z</time>
      </trkpt>
      <trkpt lat="43.92222" lon="1.2641">
        <ele>119.34</ele>
        <time>2018-12-15T13:18:06Z</time>
      </trkpt>
      <trkpt lat="43.92232" lon="1.2639">
        <ele>119.34</ele>
        <time>2018-12-15T13:18:22Z</time>
      </trkpt>
      <trkpt lat="43.92239" lon="1.26371">
        <ele>119.34</ele>
        <time>2018-12-15T13:18:38Z</time>
      </trkpt>
      <trkpt lat="43.92245" lon="1.26353">
        <ele>119.34</ele>
        <time>2018-12-15T13:18:52Z</time>
      </trkpt>
      <trkpt lat="43.9225" lon="1.26337">
        <ele>119.34</ele>
        <time>2018-12-15T13:19:05Z</time>
      </trkpt>
      <trkpt lat="43.92251" lon="1.26333">
        <ele>118.86</ele>
        <time>2018-12-15T13:19:08Z</time>
      </trkpt>
      <trkpt lat="43.92258" lon="1.26315">
        <ele>118.86</ele>
        <time>2018-12-15T13:19:25Z</time>
      </trkpt>
      <trkpt lat="43.92267" lon="1.26303">
        <ele>118.86</ele>
        <time>2018-12-15T13:19:40Z</time>
      </trkpt>
      <trkpt lat="43.92271" lon="1.26294">
        <ele>119.34</ele>
        <time>2018-12-15T13:19:56Z</time>
      </trkpt>
      <trkpt lat="43.92278" lon="1.2629">
        <ele>119.34</ele>
        <time>2018-12-15T13:20:14Z</time>
      </trkpt>
      <trkpt lat="43.92284" lon="1.26286">
        <ele>119.34</ele>
        <time>2018-12-15T13:20:22Z</time>
      </trkpt>
      <trkpt lat="43.92285" lon="1.26279">
        <ele>119.34</ele>
        <time>2018-12-15T13:20:37Z</time>
      </trkpt>
      <trkpt lat="43.92295" lon="1.26278">
        <ele>118.86</ele>
        <time>2018-12-15T13:20:52Z</time>
      </trkpt>
      <trkpt lat="43.92308" lon="1.26272">
        <ele>119.34</ele>
        <time>2018-12-15T13:21:07Z</time>
      </trkpt>
      <trkpt lat="43.92322" lon="1.26261">
        <ele>118.86</ele>
        <time>2018-12-15T13:21:24Z</time>
      </trkpt>
      <trkpt lat="43.92323" lon="1.26261">
        <ele>119.34</ele>
        <time>2018-12-15T13:21:25Z</time>
      </trkpt>
      <trkpt lat="43.92325" lon="1.26258">
        <ele>119.34</ele>
        <time>2018-12-15T13:21:27Z</time>
      </trkpt>
      <trkpt lat="43.92341" lon="1.2624">
        <ele>118.86</ele>
        <time>2018-12-15T13:21:46Z</time>
      </trkpt>
      <trkpt lat="43.92353" lon="1.26219">
        <ele>118.86</ele>
        <time>2018-12-15T13:22:02Z</time>
      </trkpt>
      <trkpt lat="43.92364" lon="1.26201">
        <ele>118.86</ele>
        <time>2018-12-15T13:22:17Z</time>
      </trkpt>
      <trkpt lat="43.92376" lon="1.26184">
        <ele>118.86</ele>
        <time>2018-12-15T13:22:32Z</time>
      </trkpt>
      <trkpt lat="43.92385" lon="1.26166">
        <ele>118.86</ele>
        <time>2018-12-15T13:22:47Z</time>
      </trkpt>
      <trkpt lat="43.92392" lon="1.26151">
        <ele>118.86</ele>
        <time>2018-12-15T13:23:00Z</time>
      </trkpt>
      <trkpt lat="43.92405" lon="1.26131">
        <ele>118.86</ele>
        <time>2018-12-15T13:23:17Z</time>
      </trkpt>
      <trkpt lat="43.92408" lon="1.26119">
        <ele>118.86</ele>
        <time>2018-12-15T13:23:25Z</time>
      </trkpt>
      <trkpt lat="43.92416" lon="1.26101">
        <ele>118.86</ele>
        <time>2018-12-15T13:23:39Z</time>
      </trkpt>
      <trkpt lat="43.92421" lon="1.26096">
        <ele>118.86</ele>
        <time>2018-12-15T13:23:45Z</time>
      </trkpt>
      <trkpt lat="43.92431" lon="1.26082">
        <ele>118.86</ele>
        <time>2018-12-15T13:23:58Z</time>
      </trkpt>
      <trkpt lat="43.92439" lon="1.26069">
        <ele>118.86</ele>
        <time>2018-12-15T13:24:10Z</time>
      </trkpt>
      <trkpt lat="43.92447" lon="1.26054">
        <ele>118.86</ele>
        <time>2018-12-15T13:24:24Z</time>
      </trkpt>
      <trkpt lat="43.92459" lon="1.26039">
        <ele>118.38</ele>
        <time>2018-12-15T13:24:38Z</time>
      </trkpt>
      <trkpt lat="43.92468" lon="1.26024">
        <ele>118.86</ele>
        <time>2018-12-15T13:24:52Z</time>
      </trkpt>
      <trkpt lat="43.92479" lon="1.26009">
        <ele>118.86</ele>
        <time>2018-12-15T13:25:07Z</time>
      </trkpt>
      <trkpt lat="43.92489" lon="1.25995">
        <ele>118.38</ele>
        <time>2018-12-15T13:25:21Z</time>
      </trkpt>
      <trkpt lat="43.92498" lon="1.25983">
        <ele>118.86</ele>
        <time>2018-12-15T13:25:31Z</time>
      </trkpt>
      <trkpt lat="43.92509" lon="1.25967">
        <ele>118.86</ele>
        <time>2018-12-15T13:25:45Z</time>
      </trkpt>
      <trkpt lat="43.92524" lon="1.25949">
        <ele>118.86</ele>
        <time>2018-12-15T13:26:02Z</time>
      </trkpt>
      <trkpt lat="43.92535" lon="1.25931">
        <ele>118.86</ele>
        <time>2018-12-15T13:26:18Z</time>
      </trkpt>
      <trkpt lat="43.9254" lon="1.25917">
        <ele>118.86</ele>
        <time>2018-12-15T13:26:29Z</time>
      </trkpt>
      <trkpt lat="43.92541" lon="1.25897">
        <ele>119.82</ele>
        <time>2018-12-15T13:26:42Z</time>
      </trkpt>
      <trkpt lat="43.92541" lon="1.25889">
        <ele>119.82</ele>
        <time>2018-12-15T13:26:47Z</time>
      </trkpt>
      <trkpt lat="43.92538" lon="1.25883">
        <ele>120.3</ele>
        <time>2018-12-15T13:26:55Z</time>
      </trkpt>
      <trkpt lat="43.92541" lon="1.25871">
        <ele>120.78</ele>
        <time>2018-12-15T13:27:03Z</time>
      </trkpt>
      <trkpt lat="43.92534" lon="1.25851">
        <ele>121.26</ele>
        <time>2018-12-15T13:27:18Z</time>
      </trkpt>
      <trkpt lat="43.92533" lon="1.25844">
        <ele>121.26</ele>
        <time>2018-12-15T13:27:23Z</time>
      </trkpt>
      <trkpt lat="43.92527" lon="1.25826">
        <ele>120.78</ele>
        <time>2018-12-15T13:27:38Z</time>
      </trkpt>
      <trkpt lat="43.92536" lon="1.25821">
        <ele>118.86</ele>
        <time>2018-12-15T13:27:53Z</time>
      </trkpt>
      <trkpt lat="43.92542" lon="1.25821">
        <ele>118.38</ele>
        <time>2018-12-15T13:28:01Z</time>
      </trkpt>
      <trkpt lat="43.92545" lon="1.2582">
        <ele>117.9</ele>
        <time>2018-12-15T13:28:04Z</time>
      </trkpt>
      <trkpt lat="43.92557" lon="1.25815">
        <ele>117.9</ele>
        <time>2018-12-15T13:28:18Z</time>
      </trkpt>
      <trkpt lat="43.92572" lon="1.25806">
        <ele>117.9</ele>
        <time>2018-12-15T13:28:34Z</time>
      </trkpt>
      <trkpt lat="43.92588" lon="1.25796">
        <ele>117.9</ele>
        <time>2018-12-15T13:28:51Z</time>
      </trkpt>
      <trkpt lat="43.92601" lon="1.2579">
        <ele>117.9</ele>
        <time>2018-12-15T13:29:04Z</time>
      </trkpt>
      <trkpt lat="43.92618" lon="1.25781">
        <ele>117.9</ele>
        <time>2018-12-15T13:29:20Z</time>
      </trkpt>
      <trkpt lat="43.92634" lon="1.25773">
        <ele>117.42</ele>
        <time>2018-12-15T13:29:35Z</time>
      </trkpt>
      <trkpt lat="43.9265" lon="1.25763">
        <ele>117.42</ele>
        <time>2018-12-15T13:29:52Z</time>
      </trkpt>
      <trkpt lat="43.92662" lon="1.25757">
        <ele>117.42</ele>
        <time>2018-12-15T13:30:06Z</time>
      </trkpt>
      <trkpt lat="43.92669" lon="1.25755">
        <ele>117.42</ele>
        <time>2018-12-15T13:30:13Z</time>
      </trkpt>
      <trkpt lat="43.92684" lon="1.25745">
        <ele>117.42</ele>
        <time>2018-12-15T13:30:28Z</time>
      </trkpt>
      <trkpt lat="43.92701" lon="1.25739">
        <ele>117.9</ele>
        <time>2018-12-15T13:30:44Z</time>
      </trkpt>
      <trkpt lat="43.92713" lon="1.25731">
        <ele>117.9</ele>
        <time>2018-12-15T13:30:57Z</time>
      </trkpt>
      <trkpt lat="43.92727" lon="1.25723">
        <ele>117.9</ele>
        <time>2018-12-15T13:31:12Z</time>
      </trkpt>
      <trkpt lat="43.92739" lon="1.25714">
        <ele>117.9</ele>
        <time>2018-12-15T13:31:24Z</time>
      </trkpt>
      <trkpt lat="43.92756" lon="1.25706">
        <ele>117.42</ele>
        <time>2018-12-15T13:31:39Z</time>
      </trkpt>
      <trkpt lat="43.92766" lon="1.257">
        <ele>117.9</ele>
        <time>2018-12-15T13:31:50Z</time>
      </trkpt>
      <trkpt lat="43.92783" lon="1.25691">
        <ele>117.9</ele>
        <time>2018-12-15T13:32:06Z</time>
      </trkpt>
      <trkpt lat="43.92801" lon="1.25681">
        <ele>117.9</ele>
        <time>2018-12-15T13:32:23Z</time>
      </trkpt>
      <trkpt lat="43.92815" lon="1.25675">
        <ele>117.9</ele>
        <time>2018-12-15T13:32:38Z</time>
      </trkpt>
      <trkpt lat="43.92819" lon="1.25673">
        <ele>117.9</ele>
        <time>2018-12-15T13:32:44Z</time>
      </trkpt>
      <trkpt lat="43.92834" lon="1.25664">
        <ele>117.9</ele>
        <time>2018-12-15T13:33:00Z</time>
      </trkpt>
      <trkpt lat="43.92847" lon="1.25661">
        <ele>117.9</ele>
        <time>2018-12-15T13:33:16Z</time>
      </trkpt>
      <trkpt lat="43.92859" lon="1.25655">
        <ele>117.9</ele>
        <time>2018-12-15T13:33:31Z</time>
      </trkpt>
      <trkpt lat="43.92875" lon="1.25647">
        <ele>118.38</ele>
        <time>2018-12-15T13:33:48Z</time>
      </trkpt>
      <trkpt lat="43.92891" lon="1.2564">
        <ele>118.38</ele>
        <time>2018-12-15T13:34:03Z</time>
      </trkpt>
      <trkpt lat="43.929" lon="1.25637">
        <ele>117.9</ele>
        <time>2018-12-15T13:34:12Z</time>
      </trkpt>
      <trkpt lat="43.92919" lon="1.25628">
        <ele>117.9</ele>
        <time>2018-12-15T13:34:29Z</time>
      </trkpt>
      <trkpt lat="43.92935" lon="1.2562">
        <ele>118.38</ele>
        <time>2018-12-15T13:34:45Z</time>
      </trkpt>
      <trkpt lat="43.92952" lon="1.25613">
        <ele>118.38</ele>
        <time>2018-12-15T13:35:01Z</time>
      </trkpt>
      <trkpt lat="43.92971" lon="1.2561">
        <ele>117.42</ele>
        <time>2018-12-15T13:35:19Z</time>
      </trkpt>
      <trkpt lat="43.92988" lon="1.25602">
        <ele>117.42</ele>
        <time>2018-12-15T13:35:35Z</time>
      </trkpt>
      <trkpt lat="43.93005" lon="1.25596">
        <ele>116.94</ele>
        <time>2018-12-15T13:35:50Z</time>
      </trkpt>
      <trkpt lat="43.93009" lon="1.25594">
        <ele>116.94</ele>
        <time>2018-12-15T13:35:54Z</time>
      </trkpt>
      <trkpt lat="43.93013" lon="1.25593">
        <ele>116.94</ele>
        <time>2018-12-15T13:35:57Z</time>
      </trkpt>
      <trkpt lat="43.9303" lon="1.25586">
        <ele>116.46</ele>
        <time>2018-12-15T13:36:14Z</time>
      </trkpt>
      <trkpt lat="43.93047" lon="1.2558">
        <ele>116.46</ele>
        <time>2018-12-15T13:36:31Z</time>
      </trkpt>
      <trkpt lat="43.93063" lon="1.25574">
        <ele>115.98</ele>
        <time>2018-12-15T13:36:47Z</time>
      </trkpt>
      <trkpt lat="43.93079" lon="1.25568">
        <ele>115.98</ele>
        <time>2018-12-15T13:37:02Z</time>
      </trkpt>
      <trkpt lat="43.93093" lon="1.25565">
        <ele>115.98</ele>
        <time>2018-12-15T13:37:15Z</time>
      </trkpt>
      <trkpt lat="43.93111" lon="1.25555">
        <ele>115.98</ele>
        <time>2018-12-15T13:37:32Z</time>
      </trkpt>
      <trkpt lat="43.93127" lon="1.2555">
        <ele>115.98</ele>
        <time>2018-12-15T13:37:47Z</time>
      </trkpt>
      <trkpt lat="43.93149" lon="1.25541">
        <ele>115.98</ele>
        <time>2018-12-15T13:38:06Z</time>
      </trkpt>
      <trkpt lat="43.93169" lon="1.25532">
        <ele>115.98</ele>
        <time>2018-12-15T13:38:24Z</time>
      </trkpt>
      <trkpt lat="43.93186" lon="1.25525">
        <ele>115.98</ele>
        <time>2018-12-15T13:38:41Z</time>
      </trkpt>
      <trkpt lat="43.93203" lon="1.25519">
        <ele>115.98</ele>
        <time>2018-12-15T13:38:57Z</time>
      </trkpt>
      <trkpt lat="43.93221" lon="1.2551">
        <ele>115.98</ele>
        <time>2018-12-15T13:39:13Z</time>
      </trkpt>
      <trkpt lat="43.93237" lon="1.25504">
        <ele>116.46</ele>
        <time>2018-12-15T13:39:29Z</time>
      </trkpt>
      <trkpt lat="43.93253" lon="1.25499">
        <ele>116.46</ele>
        <time>2018-12-15T13:39:44Z</time>
      </trkpt>
      <trkpt lat="43.93267" lon="1.25495">
        <ele>115.98</ele>
        <time>2018-12-15T13:39:57Z</time>
      </trkpt>
      <trkpt lat="43.93282" lon="1.25489">
        <ele>115.98</ele>
        <time>2018-12-15T13:40:11Z</time>
      </trkpt>
      <trkpt lat="43.93298" lon="1.25481">
        <ele>115.98</ele>
        <time>2018-12-15T13:40:26Z</time>
      </trkpt>
      <trkpt lat="43.93314" lon="1.25475">
        <ele>116.46</ele>
        <time>2018-12-15T13:40:41Z</time>
      </trkpt>
      <trkpt lat="43.9333" lon="1.25467">
        <ele>115.98</ele>
        <time>2018-12-15T13:40:57Z</time>
      </trkpt>
      <trkpt lat="43.93347" lon="1.25463">
        <ele>115.98</ele>
        <time>2018-12-15T13:41:13Z</time>
      </trkpt>
      <trkpt lat="43.93361" lon="1.25457">
        <ele>115.98</ele>
        <time>2018-12-15T13:41:28Z</time>
      </trkpt>
      <trkpt lat="43.93377" lon="1.25451">
        <ele>116.46</ele>
        <time>2018-12-15T13:41:42Z</time>
      </trkpt>
      <trkpt lat="43.93392" lon="1.25445">
        <ele>116.46</ele>
        <time>2018-12-15T13:41:56Z</time>
      </trkpt>
      <trkpt lat="43.93407" lon="1.25441">
        <ele>116.46</ele>
        <time>2018-12-15T13:42:11Z</time>
      </trkpt>
      <trkpt lat="43.93421" lon="1.25436">
        <ele>116.46</ele>
        <time>2018-12-15T13:42:27Z</time>
      </trkpt>
      <trkpt lat="43.93438" lon="1.25427">
        <ele>116.46</ele>
        <time>2018-12-15T13:42:40Z</time>
      </trkpt>
      <trkpt lat="43.93453" lon="1.25419">
        <ele>116.46</ele>
        <time>2018-12-15T13:42:55Z</time>
      </trkpt>
      <trkpt lat="43.9347" lon="1.25413">
        <ele>116.46</ele>
        <time>2018-12-15T13:43:10Z</time>
      </trkpt>
      <trkpt lat="43.9348" lon="1.2541">
        <ele>116.46</ele>
        <time>2018-12-15T13:43:20Z</time>
      </trkpt>
      <trkpt lat="43.93496" lon="1.25404">
        <ele>116.46</ele>
        <time>2018-12-15T13:43:35Z</time>
      </trkpt>
      <trkpt lat="43.93512" lon="1.25399">
        <ele>116.46</ele>
        <time>2018-12-15T13:43:51Z</time>
      </trkpt>
      <trkpt lat="43.93527" lon="1.25396">
        <ele>116.46</ele>
        <time>2018-12-15T13:44:07Z</time>
      </trkpt>
      <trkpt lat="43.93536" lon="1.25394">
        <ele>115.98</ele>
        <time>2018-12-15T13:44:16Z</time>
      </trkpt>
      <trkpt lat="43.93555" lon="1.25388">
        <ele>115.98</ele>
        <time>2018-12-15T13:44:34Z</time>
      </trkpt>
      <trkpt lat="43.9357" lon="1.25383">
        <ele>116.46</ele>
        <time>2018-12-15T13:44:49Z</time>
      </trkpt>
      <trkpt lat="43.93577" lon="1.2538">
        <ele>115.98</ele>
        <time>2018-12-15T13:44:55Z</time>
      </trkpt>
      <trkpt lat="43.93581" lon="1.25378">
        <ele>116.46</ele>
        <time>2018-12-15T13:44:58Z</time>
      </trkpt>
      <trkpt lat="43.93598" lon="1.25369">
        <ele>116.46</ele>
        <time>2018-12-15T13:45:14Z</time>
      </trkpt>
      <trkpt lat="43.93616" lon="1.2536">
        <ele>116.46</ele>
        <time>2018-12-15T13:45:30Z</time>
      </trkpt>
      <trkpt lat="43.93638" lon="1.25351">
        <ele>116.46</ele>
        <time>2018-12-15T13:45:49Z</time>
      </trkpt>
      <trkpt lat="43.93657" lon="1.25343">
        <ele>115.98</ele>
        <time>2018-12-15T13:46:07Z</time>
      </trkpt>
      <trkpt lat="43.93676" lon="1.25335">
        <ele>116.46</ele>
        <time>2018-12-15T13:46:24Z</time>
      </trkpt>
      <trkpt lat="43.93696" lon="1.2533">
        <ele>115.98</ele>
        <time>2018-12-15T13:46:42Z</time>
      </trkpt>
      <trkpt lat="43.93715" lon="1.25322">
        <ele>115.98</ele>
        <time>2018-12-15T13:47:00Z</time>
      </trkpt>
      <trkpt lat="43.93734" lon="1.25316">
        <ele>115.98</ele>
        <time>2018-12-15T13:47:17Z</time>
      </trkpt>
      <trkpt lat="43.93747" lon="1.25312">
        <ele>115.5</ele>
        <time>2018-12-15T13:47:28Z</time>
      </trkpt>
      <trkpt lat="43.93766" lon="1.25307">
        <ele>115.98</ele>
        <time>2018-12-15T13:47:44Z</time>
      </trkpt>
      <trkpt lat="43.93785" lon="1.25304">
        <ele>115.98</ele>
        <time>2018-12-15T13:48:02Z</time>
      </trkpt>
      <trkpt lat="43.93803" lon="1.25298">
        <ele>115.5</ele>
        <time>2018-12-15T13:48:18Z</time>
      </trkpt>
      <trkpt lat="43.9382" lon="1.25296">
        <ele>115.5</ele>
        <time>2018-12-15T13:48:35Z</time>
      </trkpt>
      <trkpt lat="43.93838" lon="1.25294">
        <ele>115.5</ele>
        <time>2018-12-15T13:48:50Z</time>
      </trkpt>
      <trkpt lat="43.93855" lon="1.25291">
        <ele>115.98</ele>
        <time>2018-12-15T13:49:06Z</time>
      </trkpt>
      <trkpt lat="43.9387" lon="1.2529">
        <ele>115.5</ele>
        <time>2018-12-15T13:49:20Z</time>
      </trkpt>
      <trkpt lat="43.9389" lon="1.25287">
        <ele>115.5</ele>
        <time>2018-12-15T13:49:37Z</time>
      </trkpt>
      <trkpt lat="43.93909" lon="1.25286">
        <ele>115.5</ele>
        <time>2018-12-15T13:49:55Z</time>
      </trkpt>
      <trkpt lat="43.93927" lon="1.25285">
        <ele>115.5</ele>
        <time>2018-12-15T13:50:13Z</time>
      </trkpt>
      <trkpt lat="43.93945" lon="1.25288">
        <ele>115.5</ele>
        <time>2018-12-15T13:50:29Z</time>
      </trkpt>
      <trkpt lat="43.93964" lon="1.25289">
        <ele>115.5</ele>
        <time>2018-12-15T13:50:45Z</time>
      </trkpt>
      <trkpt lat="43.9397" lon="1.2529">
        <ele>115.5</ele>
        <time>2018-12-15T13:50:51Z</time>
      </trkpt>
      <trkpt lat="43.93988" lon="1.25292">
        <ele>115.5</ele>
        <time>2018-12-15T13:51:08Z</time>
      </trkpt>
      <trkpt lat="43.94005" lon="1.25293">
        <ele>115.5</ele>
        <time>2018-12-15T13:51:25Z</time>
      </trkpt>
      <trkpt lat="43.94026" lon="1.25297">
        <ele>115.5</ele>
        <time>2018-12-15T13:51:43Z</time>
      </trkpt>
      <trkpt lat="43.9404" lon="1.253">
        <ele>115.5</ele>
        <time>2018-12-15T13:51:59Z</time>
      </trkpt>
      <trkpt lat="43.94059" lon="1.25306">
        <ele>115.5</ele>
        <time>2018-12-15T13:52:16Z</time>
      </trkpt>
      <trkpt lat="43.94078" lon="1.25307">
        <ele>115.5</ele>
        <time>2018-12-15T13:52:32Z</time>
      </trkpt>
      <trkpt lat="43.94097" lon="1.25311">
        <ele>115.5</ele>
        <time>2018-12-15T13:52:50Z</time>
      </trkpt>
      <trkpt lat="43.9411" lon="1.25314">
        <ele>115.5</ele>
        <time>2018-12-15T13:53:03Z</time>
      </trkpt>
      <trkpt lat="43.94128" lon="1.25316">
        <ele>115.5</ele>
        <time>2018-12-15T13:53:19Z</time>
      </trkpt>
      <trkpt lat="43.94147" lon="1.2532">
        <ele>115.98</ele>
        <time>2018-12-15T13:53:36Z</time>
      </trkpt>
      <trkpt lat="43.94166" lon="1.25324">
        <ele>116.46</ele>
        <time>2018-12-15T13:53:53Z</time>
      </trkpt>
      <trkpt lat="43.94184" lon="1.25327">
        <ele>116.46</ele>
        <time>2018-12-15T13:54:09Z</time>
      </trkpt>
      <trkpt lat="43.94203" lon="1.25331">
        <ele>116.46</ele>
        <time>2018-12-15T13:54:25Z</time>
      </trkpt>
      <trkpt lat="43.9422" lon="1.25335">
        <ele>116.46</ele>
        <time>2018-12-15T13:54:41Z</time>
      </trkpt>
      <trkpt lat="43.94226" lon="1.25336">
        <ele>116.46</ele>
        <time>2018-12-15T13:54:46Z</time>
      </trkpt>
      <trkpt lat="43.94244" lon="1.25339">
        <ele>116.46</ele>
        <time>2018-12-15T13:55:02Z</time>
      </trkpt>
      <trkpt lat="43.9426" lon="1.25343">
        <ele>116.94</ele>
        <time>2018-12-15T13:55:17Z</time>
      </trkpt>
      <trkpt lat="43.94277" lon="1.25346">
        <ele>116.94</ele>
        <time>2018-12-15T13:55:32Z</time>
      </trkpt>
      <trkpt lat="43.94283" lon="1.25348">
        <ele>116.94</ele>
        <time>2018-12-15T13:55:37Z</time>
      </trkpt>
      <trkpt lat="43.94291" lon="1.2535">
        <ele>116.46</ele>
        <time>2018-12-15T13:55:44Z</time>
      </trkpt>
      <trkpt lat="43.9431" lon="1.25355">
        <ele>116.94</ele>
        <time>2018-12-15T13:56:01Z</time>
      </trkpt>
      <trkpt lat="43.94328" lon="1.25359">
        <ele>116.94</ele>
        <time>2018-12-15T13:56:17Z</time>
      </trkpt>
      <trkpt lat="43.94345" lon="1.25362">
        <ele>116.46</ele>
        <time>2018-12-15T13:56:33Z</time>
      </trkpt>
      <trkpt lat="43.94363" lon="1.25367">
        <ele>116.94</ele>
        <time>2018-12-15T13:56:50Z</time>
      </trkpt>
      <trkpt lat="43.94377" lon="1.25371">
        <ele>116.46</ele>
        <time>2018-12-15T13:57:02Z</time>
      </trkpt>
      <trkpt lat="43.94399" lon="1.25375">
        <ele>116.94</ele>
        <time>2018-12-15T13:57:21Z</time>
      </trkpt>
      <trkpt lat="43.94416" lon="1.25376">
        <ele>116.46</ele>
        <time>2018-12-15T13:57:36Z</time>
      </trkpt>
      <trkpt lat="43.94435" lon="1.25374">
        <ele>116.46</ele>
        <time>2018-12-15T13:57:53Z</time>
      </trkpt>
      <trkpt lat="43.94455" lon="1.25375">
        <ele>115.98</ele>
        <time>2018-12-15T13:58:10Z</time>
      </trkpt>
      <trkpt lat="43.94473" lon="1.25373">
        <ele>115.98</ele>
        <time>2018-12-15T13:58:26Z</time>
      </trkpt>
      <trkpt lat="43.94492" lon="1.25373">
        <ele>115.98</ele>
        <time>2018-12-15T13:58:42Z</time>
      </trkpt>
      <trkpt lat="43.94507" lon="1.25371">
        <ele>115.5</ele>
        <time>2018-12-15T13:58:57Z</time>
      </trkpt>
      <trkpt lat="43.94525" lon="1.25369">
        <ele>115.5</ele>
        <time>2018-12-15T13:59:13Z</time>
      </trkpt>
      <trkpt lat="43.94543" lon="1.25364">
        <ele>115.5</ele>
        <time>2018-12-15T13:59:29Z</time>
      </trkpt>
      <trkpt lat="43.9456" lon="1.25358">
        <ele>115.5</ele>
        <time>2018-12-15T13:59:46Z</time>
      </trkpt>
      <trkpt lat="43.94577" lon="1.25355">
        <ele>115.01</ele>
        <time>2018-12-15T14:00:02Z</time>
      </trkpt>
      <trkpt lat="43.94593" lon="1.25349">
        <ele>115.5</ele>
        <time>2018-12-15T14:00:17Z</time>
      </trkpt>
      <trkpt lat="43.94608" lon="1.25343">
        <ele>115.01</ele>
        <time>2018-12-15T14:00:32Z</time>
      </trkpt>
      <trkpt lat="43.94623" lon="1.25334">
        <ele>115.01</ele>
        <time>2018-12-15T14:00:47Z</time>
      </trkpt>
      <trkpt lat="43.94639" lon="1.25324">
        <ele>115.01</ele>
        <time>2018-12-15T14:01:03Z</time>
      </trkpt>
      <trkpt lat="43.94651" lon="1.25318">
        <ele>115.5</ele>
        <time>2018-12-15T14:01:15Z</time>
      </trkpt>
      <trkpt lat="43.94666" lon="1.25306">
        <ele>115.5</ele>
        <time>2018-12-15T14:01:31Z</time>
      </trkpt>
      <trkpt lat="43.94682" lon="1.25294">
        <ele>115.01</ele>
        <time>2018-12-15T14:01:47Z</time>
      </trkpt>
      <trkpt lat="43.947" lon="1.2528">
        <ele>115.01</ele>
        <time>2018-12-15T14:02:06Z</time>
      </trkpt>
      <trkpt lat="43.94713" lon="1.25269">
        <ele>115.01</ele>
        <time>2018-12-15T14:02:18Z</time>
      </trkpt>
      <trkpt lat="43.94726" lon="1.25259">
        <ele>115.01</ele>
        <time>2018-12-15T14:02:33Z</time>
      </trkpt>
      <trkpt lat="43.9474" lon="1.25249">
        <ele>115.01</ele>
        <time>2018-12-15T14:02:48Z</time>
      </trkpt>
      <trkpt lat="43.94755" lon="1.25233">
        <ele>115.01</ele>
        <time>2018-12-15T14:03:05Z</time>
      </trkpt>
      <trkpt lat="43.94766" lon="1.25223">
        <ele>115.01</ele>
        <time>2018-12-15T14:03:17Z</time>
      </trkpt>
      <trkpt lat="43.94782" lon="1.25211">
        <ele>115.01</ele>
        <time>2018-12-15T14:03:34Z</time>
      </trkpt>
      <trkpt lat="43.9479" lon="1.25202">
        <ele>115.01</ele>
        <time>2018-12-15T14:03:43Z</time>
      </trkpt>
      <trkpt lat="43.94805" lon="1.25192">
        <ele>115.01</ele>
        <time>2018-12-15T14:03:58Z</time>
      </trkpt>
      <trkpt lat="43.94819" lon="1.25179">
        <ele>115.01</ele>
        <time>2018-12-15T14:04:14Z</time>
      </trkpt>
      <trkpt lat="43.94835" lon="1.25168">
        <ele>115.01</ele>
        <time>2018-12-15T14:04:32Z</time>
      </trkpt>
      <trkpt lat="43.94848" lon="1.25155">
        <ele>115.01</ele>
        <time>2018-12-15T14:04:46Z</time>
      </trkpt>
      <trkpt lat="43.94856" lon="1.25149">
        <ele>115.01</ele>
        <time>2018-12-15T14:04:54Z</time>
      </trkpt>
      <trkpt lat="43.94872" lon="1.25139">
        <ele>115.01</ele>
        <time>2018-12-15T14:05:08Z</time>
      </trkpt>
      <trkpt lat="43.94883" lon="1.25128">
        <ele>114.53</ele>
        <time>2018-12-15T14:05:21Z</time>
      </trkpt>
      <trkpt lat="43.94896" lon="1.25117">
        <ele>115.01</ele>
        <time>2018-12-15T14:05:35Z</time>
      </trkpt>
      <trkpt lat="43.94913" lon="1.25102">
        <ele>114.53</ele>
        <time>2018-12-15T14:05:52Z</time>
      </trkpt>
      <trkpt lat="43.9492" lon="1.25097">
        <ele>115.01</ele>
        <time>2018-12-15T14:06:01Z</time>
      </trkpt>
      <trkpt lat="43.94936" lon="1.25084">
        <ele>114.53</ele>
        <time>2018-12-15T14:06:18Z</time>
      </trkpt>
      <trkpt lat="43.94952" lon="1.25073">
        <ele>114.53</ele>
        <time>2018-12-15T14:06:35Z</time>
      </trkpt>
      <trkpt lat="43.94965" lon="1.25062">
        <ele>114.53</ele>
        <time>2018-12-15T14:06:50Z</time>
      </trkpt>
      <trkpt lat="43.94973" lon="1.25055">
        <ele>115.01</ele>
        <time>2018-12-15T14:07:07Z</time>
      </trkpt>
      <trkpt lat="43.94979" lon="1.25047">
        <ele>115.5</ele>
        <time>2018-12-15T14:07:22Z</time>
      </trkpt>
      <trkpt lat="43.94981" lon="1.25045">
        <ele>114.05</ele>
        <time>2018-12-15T14:07:35Z</time>
      </trkpt>
      <trkpt lat="43.94983" lon="1.25045">
        <ele>114.53</ele>
        <time>2018-12-15T14:07:54Z</time>
      </trkpt>
      <trkpt lat="43.94983" lon="1.25047">
        <ele>114.05</ele>
        <time>2018-12-15T14:08:21Z</time>
      </trkpt>
      <trkpt lat="43.94989" lon="1.25042">
        <ele>113.09</ele>
        <time>2018-12-15T14:08:35Z</time>
      </trkpt>
      <trkpt lat="43.95" lon="1.2503">
        <ele>111.65</ele>
        <time>2018-12-15T14:08:50Z</time>
      </trkpt>
      <trkpt lat="43.95012" lon="1.25024">
        <ele>111.17</ele>
        <time>2018-12-15T14:09:02Z</time>
      </trkpt>
      <trkpt lat="43.9502" lon="1.25016">
        <ele>111.65</ele>
        <time>2018-12-15T14:09:16Z</time>
      </trkpt>
      <trkpt lat="43.9503" lon="1.25009">
        <ele>111.65</ele>
        <time>2018-12-15T14:09:30Z</time>
      </trkpt>
      <trkpt lat="43.95039" lon="1.25004">
        <ele>111.17</ele>
        <time>2018-12-15T14:09:46Z</time>
      </trkpt>
      <trkpt lat="43.9504" lon="1.25004">
        <ele>111.17</ele>
        <time>2018-12-15T14:10:04Z</time>
      </trkpt>
      <trkpt lat="43.9504" lon="1.25001">
        <ele>111.17</ele>
        <time>2018-12-15T14:10:17Z</time>
      </trkpt>
      <trkpt lat="43.9504" lon="1.25">
        <ele>111.17</ele>
        <time>2018-12-15T14:10:38Z</time>
      </trkpt>
      <trkpt lat="43.95059" lon="1.24987">
        <ele>111.17</ele>
        <time>2018-12-15T14:11:41Z</time>
      </trkpt>
      <trkpt lat="43.95067" lon="1.2498">
        <ele>111.17</ele>
        <time>2018-12-15T14:11:55Z</time>
      </trkpt>
      <trkpt lat="43.95074" lon="1.24976">
        <ele>111.17</ele>
        <time>2018-12-15T14:12:13Z</time>
      </trkpt>
      <trkpt lat="43.9508" lon="1.24971">
        <ele>111.17</ele>
        <time>2018-12-15T14:12:32Z</time>
      </trkpt>
      <trkpt lat="43.95089" lon="1.24962">
        <ele>111.17</ele>
        <time>2018-12-15T14:12:48Z</time>
      </trkpt>
      <trkpt lat="43.95093" lon="1.24959">
        <ele>111.17</ele>
        <time>2018-12-15T14:13:01Z</time>
      </trkpt>
      <trkpt lat="43.95102" lon="1.24953">
        <ele>111.17</ele>
        <time>2018-12-15T14:13:13Z</time>
      </trkpt>
      <trkpt lat="43.95105" lon="1.24951">
        <ele>111.17</ele>
        <time>2018-12-15T14:13:17Z</time>
      </trkpt>
      <trkpt lat="43.95109" lon="1.24948">
        <ele>110.69</ele>
        <time>2018-12-15T14:13:22Z</time>
      </trkpt>
      <trkpt lat="43.95117" lon="1.24937">
        <ele>110.69</ele>
        <time>2018-12-15T14:13:35Z</time>
      </trkpt>
      <trkpt lat="43.95128" lon="1.24929">
        <ele>111.17</ele>
        <time>2018-12-15T14:13:49Z</time>
      </trkpt>
      <trkpt lat="43.95138" lon="1.24921">
        <ele>111.17</ele>
        <time>2018-12-15T14:14:03Z</time>
      </trkpt>
      <trkpt lat="43.95144" lon="1.24916">
        <ele>110.69</ele>
        <time>2018-12-15T14:14:16Z</time>
      </trkpt>
      <trkpt lat="43.95171" lon="1.24892">
        <ele>110.69</ele>
        <time>2018-12-15T14:15:30Z</time>
      </trkpt>
      <trkpt lat="43.95182" lon="1.24883">
        <ele>110.69</ele>
        <time>2018-12-15T14:15:44Z</time>
      </trkpt>
      <trkpt lat="43.95193" lon="1.24875">
        <ele>110.69</ele>
        <time>2018-12-15T14:15:56Z</time>
      </trkpt>
      <trkpt lat="43.95204" lon="1.24864">
        <ele>110.69</ele>
        <time>2018-12-15T14:16:09Z</time>
      </trkpt>
      <trkpt lat="43.95215" lon="1.24856">
        <ele>110.69</ele>
        <time>2018-12-15T14:16:22Z</time>
      </trkpt>
      <trkpt lat="43.95216" lon="1.24856">
        <ele>110.69</ele>
        <time>2018-12-15T14:16:23Z</time>
      </trkpt>
      <trkpt lat="43.95229" lon="1.24846">
        <ele>110.69</ele>
        <time>2018-12-15T14:16:38Z</time>
      </trkpt>
      <trkpt lat="43.95244" lon="1.24836">
        <ele>110.69</ele>
        <time>2018-12-15T14:16:53Z</time>
      </trkpt>
      <trkpt lat="43.9525" lon="1.24831">
        <ele>110.69</ele>
        <time>2018-12-15T14:17:06Z</time>
      </trkpt>
      <trkpt lat="43.95251" lon="1.2483">
        <ele>110.69</ele>
        <time>2018-12-15T14:17:08Z</time>
      </trkpt>
      <trkpt lat="43.95256" lon="1.24826">
        <ele>110.69</ele>
        <time>2018-12-15T14:17:13Z</time>
      </trkpt>
      <trkpt lat="43.9527" lon="1.24811">
        <ele>111.17</ele>
        <time>2018-12-15T14:17:29Z</time>
      </trkpt>
      <trkpt lat="43.95284" lon="1.24799">
        <ele>110.69</ele>
        <time>2018-12-15T14:17:44Z</time>
      </trkpt>
      <trkpt lat="43.95298" lon="1.24787">
        <ele>111.17</ele>
        <time>2018-12-15T14:17:59Z</time>
      </trkpt>
      <trkpt lat="43.95309" lon="1.24775">
        <ele>110.69</ele>
        <time>2018-12-15T14:18:13Z</time>
      </trkpt>
      <trkpt lat="43.95317" lon="1.2477">
        <ele>110.69</ele>
        <time>2018-12-15T14:18:22Z</time>
      </trkpt>
      <trkpt lat="43.9532" lon="1.24766">
        <ele>110.69</ele>
        <time>2018-12-15T14:18:26Z</time>
      </trkpt>
      <trkpt lat="43.95332" lon="1.24751">
        <ele>111.17</ele>
        <time>2018-12-15T14:18:40Z</time>
      </trkpt>
      <trkpt lat="43.95338" lon="1.24745">
        <ele>110.69</ele>
        <time>2018-12-15T14:18:46Z</time>
      </trkpt>
      <trkpt lat="43.95348" lon="1.24729">
        <ele>111.17</ele>
        <time>2018-12-15T14:19:01Z</time>
      </trkpt>
      <trkpt lat="43.95359" lon="1.24712">
        <ele>110.69</ele>
        <time>2018-12-15T14:19:17Z</time>
      </trkpt>
      <trkpt lat="43.95368" lon="1.24696">
        <ele>110.69</ele>
        <time>2018-12-15T14:19:31Z</time>
      </trkpt>
      <trkpt lat="43.95379" lon="1.24675">
        <ele>110.69</ele>
        <time>2018-12-15T14:19:49Z</time>
      </trkpt>
      <trkpt lat="43.9539" lon="1.24655">
        <ele>110.69</ele>
        <time>2018-12-15T14:20:08Z</time>
      </trkpt>
      <trkpt lat="43.95401" lon="1.24635">
        <ele>110.69</ele>
        <time>2018-12-15T14:20:25Z</time>
      </trkpt>
      <trkpt lat="43.95409" lon="1.24618">
        <ele>110.21</ele>
        <time>2018-12-15T14:20:40Z</time>
      </trkpt>
      <trkpt lat="43.95411" lon="1.24614">
        <ele>110.69</ele>
        <time>2018-12-15T14:20:44Z</time>
      </trkpt>
      <trkpt lat="43.95421" lon="1.24598">
        <ele>110.69</ele>
        <time>2018-12-15T14:20:59Z</time>
      </trkpt>
      <trkpt lat="43.95432" lon="1.2458">
        <ele>110.69</ele>
        <time>2018-12-15T14:21:14Z</time>
      </trkpt>
      <trkpt lat="43.95441" lon="1.24567">
        <ele>110.69</ele>
        <time>2018-12-15T14:21:25Z</time>
      </trkpt>
      <trkpt lat="43.95449" lon="1.24548">
        <ele>110.69</ele>
        <time>2018-12-15T14:21:41Z</time>
      </trkpt>
      <trkpt lat="43.95453" lon="1.24541">
        <ele>110.69</ele>
        <time>2018-12-15T14:21:47Z</time>
      </trkpt>
      <trkpt lat="43.95461" lon="1.24525">
        <ele>111.17</ele>
        <time>2018-12-15T14:22:03Z</time>
      </trkpt>
      <trkpt lat="43.95467" lon="1.24514">
        <ele>110.69</ele>
        <time>2018-12-15T14:22:12Z</time>
      </trkpt>
      <trkpt lat="43.95476" lon="1.24501">
        <ele>110.69</ele>
        <time>2018-12-15T14:22:24Z</time>
      </trkpt>
      <trkpt lat="43.95484" lon="1.24482">
        <ele>111.17</ele>
        <time>2018-12-15T14:22:40Z</time>
      </trkpt>
      <trkpt lat="43.95492" lon="1.24469">
        <ele>111.17</ele>
        <time>2018-12-15T14:22:52Z</time>
      </trkpt>
      <trkpt lat="43.95502" lon="1.24452">
        <ele>111.17</ele>
        <time>2018-12-15T14:23:07Z</time>
      </trkpt>
      <trkpt lat="43.95511" lon="1.24435">
        <ele>111.65</ele>
        <time>2018-12-15T14:23:22Z</time>
      </trkpt>
      <trkpt lat="43.95517" lon="1.24418">
        <ele>112.13</ele>
        <time>2018-12-15T14:23:37Z</time>
      </trkpt>
      <trkpt lat="43.95517" lon="1.24417">
        <ele>111.65</ele>
        <time>2018-12-15T14:23:38Z</time>
      </trkpt>
      <trkpt lat="43.95523" lon="1.24406">
        <ele>112.13</ele>
        <time>2018-12-15T14:23:47Z</time>
      </trkpt>
      <trkpt lat="43.95529" lon="1.24392">
        <ele>111.65</ele>
        <time>2018-12-15T14:23:58Z</time>
      </trkpt>
      <trkpt lat="43.95535" lon="1.24378">
        <ele>111.65</ele>
        <time>2018-12-15T14:24:11Z</time>
      </trkpt>
      <trkpt lat="43.95536" lon="1.24375">
        <ele>111.65</ele>
        <time>2018-12-15T14:24:13Z</time>
      </trkpt>
      <trkpt lat="43.95548" lon="1.24355">
        <ele>112.13</ele>
        <time>2018-12-15T14:24:30Z</time>
      </trkpt>
      <trkpt lat="43.95554" lon="1.2434">
        <ele>111.65</ele>
        <time>2018-12-15T14:24:43Z</time>
      </trkpt>
      <trkpt lat="43.95561" lon="1.24327">
        <ele>111.17</ele>
        <time>2018-12-15T14:24:56Z</time>
      </trkpt>
      <trkpt lat="43.95568" lon="1.24311">
        <ele>111.65</ele>
        <time>2018-12-15T14:25:10Z</time>
      </trkpt>
      <trkpt lat="43.95572" lon="1.24302">
        <ele>111.65</ele>
        <time>2018-12-15T14:25:18Z</time>
      </trkpt>
      <trkpt lat="43.95583" lon="1.24285">
        <ele>111.65</ele>
        <time>2018-12-15T14:25:32Z</time>
      </trkpt>
      <trkpt lat="43.95592" lon="1.24267">
        <ele>111.17</ele>
        <time>2018-12-15T14:25:49Z</time>
      </trkpt>
      <trkpt lat="43.95605" lon="1.2425">
        <ele>111.17</ele>
        <time>2018-12-15T14:26:03Z</time>
      </trkpt>
      <trkpt lat="43.95617" lon="1.24234">
        <ele>110.69</ele>
        <time>2018-12-15T14:26:18Z</time>
      </trkpt>
      <trkpt lat="43.95626" lon="1.24216">
        <ele>110.69</ele>
        <time>2018-12-15T14:26:35Z</time>
      </trkpt>
      <trkpt lat="43.95635" lon="1.24199">
        <ele>110.69</ele>
        <time>2018-12-15T14:26:49Z</time>
      </trkpt>
      <trkpt lat="43.95646" lon="1.2418">
        <ele>110.69</ele>
        <time>2018-12-15T14:27:05Z</time>
      </trkpt>
      <trkpt lat="43.95655" lon="1.24162">
        <ele>110.69</ele>
        <time>2018-12-15T14:27:20Z</time>
      </trkpt>
      <trkpt lat="43.95665" lon="1.24142">
        <ele>110.69</ele>
        <time>2018-12-15T14:27:36Z</time>
      </trkpt>
      <trkpt lat="43.95675" lon="1.24127">
        <ele>110.69</ele>
        <time>2018-12-15T14:27:51Z</time>
      </trkpt>
      <trkpt lat="43.95685" lon="1.24109">
        <ele>110.69</ele>
        <time>2018-12-15T14:28:08Z</time>
      </trkpt>
      <trkpt lat="43.95687" lon="1.24092">
        <ele>110.69</ele>
        <time>2018-12-15T14:28:21Z</time>
      </trkpt>
      <trkpt lat="43.95696" lon="1.24074">
        <ele>110.69</ele>
        <time>2018-12-15T14:28:35Z</time>
      </trkpt>
      <trkpt lat="43.95705" lon="1.24059">
        <ele>110.69</ele>
        <time>2018-12-15T14:28:50Z</time>
      </trkpt>
      <trkpt lat="43.95712" lon="1.24047">
        <ele>110.69</ele>
        <time>2018-12-15T14:29:01Z</time>
      </trkpt>
      <trkpt lat="43.9572" lon="1.24035">
        <ele>110.69</ele>
        <time>2018-12-15T14:29:15Z</time>
      </trkpt>
      <trkpt lat="43.95723" lon="1.24034">
        <ele>110.69</ele>
        <time>2018-12-15T14:29:18Z</time>
      </trkpt>
      <trkpt lat="43.95737" lon="1.24013">
        <ele>110.69</ele>
        <time>2018-12-15T14:29:36Z</time>
      </trkpt>
      <trkpt lat="43.95748" lon="1.23993">
        <ele>110.21</ele>
        <time>2018-12-15T14:29:52Z</time>
      </trkpt>
      <trkpt lat="43.95757" lon="1.23978">
        <ele>110.21</ele>
        <time>2018-12-15T14:30:06Z</time>
      </trkpt>
      <trkpt lat="43.95758" lon="1.23975">
        <ele>110.69</ele>
        <time>2018-12-15T14:30:08Z</time>
      </trkpt>
      <trkpt lat="43.95769" lon="1.23957">
        <ele>110.21</ele>
        <time>2018-12-15T14:30:24Z</time>
      </trkpt>
      <trkpt lat="43.9577" lon="1.23954">
        <ele>110.21</ele>
        <time>2018-12-15T14:30:27Z</time>
      </trkpt>
      <trkpt lat="43.95773" lon="1.2395">
        <ele>110.21</ele>
        <time>2018-12-15T14:30:30Z</time>
      </trkpt>
      <trkpt lat="43.95783" lon="1.23929">
        <ele>110.21</ele>
        <time>2018-12-15T14:30:48Z</time>
      </trkpt>
      <trkpt lat="43.95793" lon="1.23909">
        <ele>110.21</ele>
        <time>2018-12-15T14:31:05Z</time>
      </trkpt>
      <trkpt lat="43.95802" lon="1.23894">
        <ele>109.73</ele>
        <time>2018-12-15T14:31:20Z</time>
      </trkpt>
      <trkpt lat="43.95812" lon="1.23875">
        <ele>109.73</ele>
        <time>2018-12-15T14:31:36Z</time>
      </trkpt>
      <trkpt lat="43.95823" lon="1.23858">
        <ele>109.73</ele>
        <time>2018-12-15T14:31:51Z</time>
      </trkpt>
      <trkpt lat="43.95837" lon="1.23836">
        <ele>109.73</ele>
        <time>2018-12-15T14:32:10Z</time>
      </trkpt>
      <trkpt lat="43.9585" lon="1.2382">
        <ele>109.73</ele>
        <time>2018-12-15T14:32:25Z</time>
      </trkpt>
      <trkpt lat="43.95861" lon="1.238">
        <ele>109.73</ele>
        <time>2018-12-15T14:32:42Z</time>
      </trkpt>
      <trkpt lat="43.95872" lon="1.23784">
        <ele>109.73</ele>
        <time>2018-12-15T14:32:57Z</time>
      </trkpt>
      <trkpt lat="43.95883" lon="1.23775">
        <ele>109.73</ele>
        <time>2018-12-15T14:33:10Z</time>
      </trkpt>
      <trkpt lat="43.95898" lon="1.23766">
        <ele>109.73</ele>
        <time>2018-12-15T14:33:25Z</time>
      </trkpt>
      <trkpt lat="43.95912" lon="1.23756">
        <ele>109.73</ele>
        <time>2018-12-15T14:33:41Z</time>
      </trkpt>
      <trkpt lat="43.95927" lon="1.23747">
        <ele>109.25</ele>
        <time>2018-12-15T14:33:55Z</time>
      </trkpt>
      <trkpt lat="43.95944" lon="1.23744">
        <ele>109.25</ele>
        <time>2018-12-15T14:34:11Z</time>
      </trkpt>
      <trkpt lat="43.9596" lon="1.23752">
        <ele>109.25</ele>
        <time>2018-12-15T14:34:27Z</time>
      </trkpt>
      <trkpt lat="43.95969" lon="1.23751">
        <ele>109.25</ele>
        <time>2018-12-15T14:34:36Z</time>
      </trkpt>
      <trkpt lat="43.95984" lon="1.23743">
        <ele>109.25</ele>
        <time>2018-12-15T14:34:50Z</time>
      </trkpt>
      <trkpt lat="43.95987" lon="1.23738">
        <ele>109.25</ele>
        <time>2018-12-15T14:34:54Z</time>
      </trkpt>
      <trkpt lat="43.95986" lon="1.2371">
        <ele>109.73</ele>
        <time>2018-12-15T14:35:10Z</time>
      </trkpt>
      <trkpt lat="43.95986" lon="1.23708">
        <ele>109.25</ele>
        <time>2018-12-15T14:35:11Z</time>
      </trkpt>
      <trkpt lat="43.95989" lon="1.23701">
        <ele>109.25</ele>
        <time>2018-12-15T14:35:17Z</time>
      </trkpt>
      <trkpt lat="43.96" lon="1.23682">
        <ele>109.73</ele>
        <time>2018-12-15T14:35:34Z</time>
      </trkpt>
      <trkpt lat="43.96013" lon="1.23669">
        <ele>109.73</ele>
        <time>2018-12-15T14:35:49Z</time>
      </trkpt>
      <trkpt lat="43.96018" lon="1.23659">
        <ele>109.73</ele>
        <time>2018-12-15T14:35:57Z</time>
      </trkpt>
      <trkpt lat="43.9602" lon="1.23637">
        <ele>109.73</ele>
        <time>2018-12-15T14:36:12Z</time>
      </trkpt>
      <trkpt lat="43.96024" lon="1.23637">
        <ele>109.25</ele>
        <time>2018-12-15T14:36:27Z</time>
      </trkpt>
      <trkpt lat="43.96022" lon="1.23639">
        <ele>109.25</ele>
        <time>2018-12-15T14:36:50Z</time>
      </trkpt>
      <trkpt lat="43.96023" lon="1.23641">
        <ele>109.25</ele>
        <time>2018-12-15T14:37:08Z</time>
      </trkpt>
      <trkpt lat="43.96029" lon="1.23638">
        <ele>109.25</ele>
        <time>2018-12-15T14:37:29Z</time>
      </trkpt>
      <trkpt lat="43.96022" lon="1.23641">
        <ele>109.73</ele>
        <time>2018-12-15T14:37:47Z</time>
      </trkpt>
      <trkpt lat="43.96022" lon="1.23643">
        <ele>108.77</ele>
        <time>2018-12-15T14:38:01Z</time>
      </trkpt>
      <trkpt lat="43.96022" lon="1.23642">
        <ele>112.13</ele>
        <time>2018-12-15T14:38:03Z</time>
      </trkpt>
      <trkpt lat="43.96022" lon="1.23642">
        <ele>108.77</ele>
        <time>2018-12-15T14:38:04Z</time>
      </trkpt>
      <trkpt lat="43.96021" lon="1.23642">
        <ele>110.21</ele>
        <time>2018-12-15T14:38:24Z</time>
      </trkpt>
      <trkpt lat="43.96021" lon="1.23642">
        <ele>109.73</ele>
        <time>2018-12-15T14:38:29Z</time>
      </trkpt>
      <trkpt lat="43.96019" lon="1.23643">
        <ele>109.73</ele>
        <time>2018-12-15T14:38:55Z</time>
      </trkpt>
      <trkpt lat="43.96022" lon="1.23642">
        <ele>109.73</ele>
        <time>2018-12-15T14:39:20Z</time>
      </trkpt>
      <trkpt lat="43.96023" lon="1.23646">
        <ele>109.73</ele>
        <time>2018-12-15T14:39:52Z</time>
      </trkpt>
      <trkpt lat="43.96018" lon="1.23644">
        <ele>111.17</ele>
        <time>2018-12-15T14:39:55Z</time>
      </trkpt>
      <trkpt lat="43.96019" lon="1.23641">
        <ele>109.73</ele>
        <time>2018-12-15T14:39:57Z</time>
      </trkpt>
      <trkpt lat="43.96019" lon="1.23641">
        <ele>109.25</ele>
        <time>2018-12-15T14:40:03Z</time>
      </trkpt>
      <trkpt lat="43.96018" lon="1.23642">
        <ele>109.73</ele>
        <time>2018-12-15T14:40:11Z</time>
      </trkpt>
      <trkpt lat="43.96017" lon="1.23639">
        <ele>111.17</ele>
        <time>2018-12-15T14:40:34Z</time>
      </trkpt>
      <trkpt lat="43.96016" lon="1.23639">
        <ele>109.73</ele>
        <time>2018-12-15T14:40:49Z</time>
      </trkpt>
      <trkpt lat="43.96011" lon="1.23636">
        <ele>109.25</ele>
        <time>2018-12-15T14:41:15Z</time>
      </trkpt>
      <trkpt lat="43.9602" lon="1.23635">
        <ele>109.73</ele>
        <time>2018-12-15T14:41:37Z</time>
      </trkpt>
      <trkpt lat="43.96022" lon="1.23638">
        <ele>106.36</ele>
        <time>2018-12-15T14:41:44Z</time>
      </trkpt>
      <trkpt lat="43.96022" lon="1.23639">
        <ele>111.17</ele>
        <time>2018-12-15T14:41:46Z</time>
      </trkpt>
      <trkpt lat="43.96019" lon="1.23642">
        <ele>109.73</ele>
        <time>2018-12-15T14:42:01Z</time>
      </trkpt>
      <trkpt lat="43.96012" lon="1.23644">
        <ele>109.73</ele>
        <time>2018-12-15T14:42:27Z</time>
      </trkpt>
      <trkpt lat="43.96024" lon="1.2364">
        <ele>109.73</ele>
        <time>2018-12-15T14:42:44Z</time>
      </trkpt>
      <trkpt lat="43.96027" lon="1.23639">
        <ele>109.73</ele>
        <time>2018-12-15T14:43:01Z</time>
      </trkpt>
      <trkpt lat="43.96022" lon="1.23638">
        <ele>110.21</ele>
        <time>2018-12-15T14:43:18Z</time>
      </trkpt>
      <trkpt lat="43.96023" lon="1.23645">
        <ele>110.21</ele>
        <time>2018-12-15T14:43:43Z</time>
      </trkpt>
      <trkpt lat="43.96023" lon="1.23646">
        <ele>110.21</ele>
        <time>2018-12-15T14:44:07Z</time>
      </trkpt>
      <trkpt lat="43.96027" lon="1.2364">
        <ele>110.21</ele>
        <time>2018-12-15T14:44:24Z</time>
      </trkpt>
      <trkpt lat="43.96022" lon="1.23637">
        <ele>110.69</ele>
        <time>2018-12-15T14:44:45Z</time>
      </trkpt>
    </trkseg>
  </trk>
</gpx>